Provisional Data: Conodoguinet Creek near Schlusser, PA


Please select a monitoring station.
Please select start date.
Please select start date.

Toggle Unit: C/F Toggle Unit: C/F
Sample Time Temperature (C) Temperature (F) Specific Conductivity (mS/cm) pH   Turbidity (NTU+) DO (mg/L)
3/23/2021 12:00:00 AM 10.34 50.612 0.334 8.17 5.45 10.63
3/23/2021 12:15:00 AM 10.32 50.576 0.334 8.18 5.62 10.66
3/23/2021 12:30:00 AM 10.28 50.504 0.329 8.18 5.4 10.65
3/23/2021 12:45:00 AM 10.24 50.432 0.341 8.18 5.74 10.67
3/23/2021 1:00:00 AM 10.19 50.342 0.292 8.18 5.62 10.66
3/23/2021 1:15:00 AM 10.14 50.252 0.328 8.18 5.4 10.66
3/23/2021 1:30:00 AM 10.09 50.162 0.323 8.17 5.38 10.64
3/23/2021 1:45:00 AM 10.05 50.09 0.335 8.18 5.35 10.65
3/23/2021 2:00:00 AM 10 50 0.338 8.17 5.55 10.64
3/23/2021 2:15:00 AM 9.93 49.874 0.337 8.17 5.39 10.62
3/23/2021 2:30:00 AM 9.89 49.802 0.342 8.16 6.29 10.63
3/23/2021 2:45:00 AM 9.83 49.694 0.342 8.16 5.72 10.63
3/23/2021 3:00:00 AM 9.77 49.586 0.289 8.15 5.81 10.62
3/23/2021 3:15:00 AM 9.71 49.478 0.339 8.15 5.71 10.59
3/23/2021 3:30:00 AM 9.65 49.37 0.335 8.14 5.29 10.6
3/23/2021 3:45:00 AM 9.6 49.28 0.331 8.13 5.51 10.59
3/23/2021 4:00:00 AM 9.54 49.172 0.341 8.13 5.84 10.59
3/23/2021 4:15:00 AM 9.47 49.046 0.342 8.12 6.18 10.57
3/23/2021 4:30:00 AM 9.41 48.938 0.342 8.12 7 10.56
3/23/2021 4:45:00 AM 9.36 48.848 0.341 8.11 6.01 10.57
3/23/2021 5:00:00 AM 9.3 48.74 0.313 8.11 6.81 10.55
3/23/2021 5:15:00 AM 9.24 48.632 0.313 8.1 5.65 10.55
3/23/2021 5:30:00 AM 9.18 48.524 0.342 8.09 5.5 10.55
3/23/2021 5:45:00 AM 9.13 48.434 0.343 8.09 5.11 10.52
3/23/2021 6:00:00 AM 9.07 48.326 0.338 8.08 5.16 10.53
3/23/2021 6:15:00 AM 9.02 48.236 0.342 8.08 5.59 10.53
3/23/2021 6:30:00 AM 8.96 48.128 0.342 8.08 6.01 10.53
3/23/2021 6:45:00 AM 8.9 48.02 0.342 8.08 5.6 10.51
3/23/2021 7:00:00 AM 8.84 47.912 0.343 8.07 5.74 10.52
3/23/2021 7:15:00 AM 8.8 47.84 0.342 8.07 5.76 10.49
3/23/2021 7:30:00 AM 8.75 47.75 0.343 8.06 5.74 10.51
3/23/2021 7:45:00 AM 8.71 47.678 0.342 8.06 5.57 10.54
3/23/2021 8:00:00 AM 8.68 47.624 0.343 8.06 6.12 10.56
3/23/2021 8:15:00 AM 8.66 47.588 0.343 8.06 6.32 10.59
3/23/2021 8:30:00 AM 8.65 47.57 0.343 8.06 5.55 10.63
3/23/2021 8:45:00 AM 8.64 47.552 0.342 8.06 5.72 10.65
3/23/2021 9:00:00 AM 8.64 47.552 0.342 8.06 6.11 10.7
3/23/2021 9:15:00 AM 8.66 47.588 0.342 8.07 6.15 10.75
3/23/2021 9:30:00 AM 8.69 47.642 0.342 8.08 5.87 10.82
3/23/2021 9:45:00 AM 8.74 47.732 0.343 8.08 5.75 10.86
3/23/2021 10:00:00 AM 8.77 47.786 0.343 8.09 6.84 10.94
3/23/2021 10:15:00 AM 8.82 47.876 0.343 8.09 5.35 10.97
3/23/2021 10:30:00 AM 8.88 47.984 0.343 8.1 5.83 11
3/23/2021 10:45:00 AM 8.94 48.092 0.343 8.1 5.82 11.04
3/23/2021 11:00:00 AM 9 48.2 0.343 8.11 6.62 11.08
3/23/2021 11:15:00 AM 9.08 48.344 0.343 8.12 6.25 11.1
3/23/2021 11:30:00 AM 9.18 48.524 0.343 8.12 5.9 11.13
3/23/2021 11:45:00 AM 9.28 48.704 0.343 8.12 6.19 11.14
3/23/2021 12:00:00 PM 9.38 48.884 0.343 8.13 6 11.15
3/23/2021 12:15:00 PM 9.5 49.1 0.343 8.14 6.15 11.18
3/23/2021 12:30:00 PM 9.61 49.298 0.343 8.14 6.15 11.19
3/23/2021 12:45:00 PM 9.72 49.496 0.343 8.14 7.91 11.2
3/23/2021 1:00:00 PM 9.82 49.676 0.343 8.14 6.1 11.21
3/23/2021 1:15:00 PM 9.92 49.856 0.343 8.15 5.93 11.2
3/23/2021 1:30:00 PM 10.08 50.144 0.343 8.15 5.74 11.23
3/23/2021 1:45:00 PM 10.2 50.36 0.343 8.15 5.75 11.24
3/23/2021 2:00:00 PM 10.3 50.54 0.344 8.15 5.88 11.24
3/23/2021 2:15:00 PM 10.36 50.648 0.344 8.15 6.01 11.22
3/23/2021 2:30:00 PM 10.41 50.738 0.344 8.15 5.1 11.21
3/23/2021 2:45:00 PM 10.56 51.008 0.344 8.15 5.8 11.21
3/23/2021 3:00:00 PM 10.57 51.026 0.344 8.16 6 11.2
3/23/2021 3:15:00 PM 10.66 51.188 0.344 8.17 6.09 11.2
3/23/2021 3:30:00 PM 10.68 51.224 0.345 8.16 5.88 11.19
3/23/2021 3:45:00 PM 10.65 51.17 0.345 8.15 5.85 11.16
3/23/2021 4:00:00 PM 10.68 51.224 0.345 8.15 6.07 11.15
3/23/2021 4:15:00 PM 10.66 51.188 0.345 8.14 7.74 11.13
3/23/2021 4:30:00 PM 10.69 51.242 0.346 8.15 5.54 11.12
3/23/2021 4:45:00 PM 10.63 51.134 0.346 8.15 5.28 11.11
3/23/2021 5:00:00 PM 10.62 51.116 0.346 8.15 5.87 11.07
3/23/2021 5:15:00 PM 10.62 51.116 0.347 8.15 5.91 11.04
3/23/2021 5:30:00 PM 10.62 51.116 0.347 8.16 5.81 10.99
3/23/2021 5:45:00 PM 10.61 51.098 0.347 8.16 5.61 10.97
3/23/2021 6:00:00 PM 10.63 51.134 0.347 8.16 6.06 10.92
3/23/2021 6:15:00 PM 10.65 51.17 0.347 8.16 5.71 10.89
3/23/2021 6:30:00 PM 10.67 51.206 0.348 8.16 6.52 10.85
3/23/2021 6:45:00 PM 10.69 51.242 0.348 8.16 5.5 10.82
3/23/2021 7:00:00 PM 10.7 51.26 0.346 8.16 5.81 10.77
3/23/2021 7:15:00 PM 10.72 51.296 0.345 8.16 5.68 10.71
3/23/2021 7:30:00 PM 10.74 51.332 0.342 8.16 6.07 10.66
3/23/2021 7:45:00 PM 10.75 51.35 0.348 8.15 6.24 10.59
3/23/2021 8:00:00 PM 10.77 51.386 0.348 8.15 6.09 10.56
3/23/2021 8:15:00 PM 10.8 51.44 0.348 8.15 6.3 10.48
3/23/2021 8:30:00 PM 10.83 51.494 0.334 8.14 5.82 10.47
3/23/2021 8:45:00 PM 10.89 51.602 0.347 8.15 6.4 10.45
3/23/2021 9:00:00 PM 10.92 51.656 0.328 8.15 7.32 10.44
3/23/2021 9:15:00 PM 10.97 51.746 0.348 8.15 5.89 10.42
3/23/2021 9:30:00 PM 11.02 51.836 0.348 8.15 5.48 10.42
3/23/2021 9:45:00 PM 11.05 51.89 0.334 8.15 5.58 10.44
3/23/2021 10:00:00 PM 11.08 51.944 0.348 8.14 6.14 10.43
3/23/2021 10:15:00 PM 11.09 51.962 0.347 8.16 5.64 10.45
3/23/2021 10:30:00 PM 11.11 51.998 0.349 8.17 6.3 10.45
3/23/2021 10:45:00 PM 11.11 51.998 0.349 8.18 6.4 10.45
3/23/2021 11:00:00 PM 11.12 52.016 0.349 8.19 6.1 10.47
3/23/2021 11:15:00 PM 11.12 52.016 0.349 8.19 5.97 10.46
3/23/2021 11:30:00 PM 11.11 51.998 0.349 8.2 7.27 10.47
3/23/2021 11:45:00 PM 11.11 51.998 0.349 8.21 6.65 10.45
3/24/2021 12:00:00 AM 11.11 51.998 0.348 8.22 6.12 10.5
3/24/2021 12:15:00 AM 11.11 51.998 0.348 8.21 5.84 10.49
3/24/2021 12:30:00 AM 11.13 52.034 0.348 8.21 5.92 10.49
3/24/2021 12:45:00 AM 11.13 52.034 0.338 8.22 5.57 10.5
3/24/2021 1:00:00 AM 11.14 52.052 0.345 8.22 5.91 10.5
3/24/2021 1:15:00 AM 11.14 52.052 0.346 8.22 5.95 10.48
3/24/2021 1:30:00 AM 11.14 52.052 0.338 8.22 5.98 10.47
3/24/2021 1:45:00 AM 11.13 52.034 0.33 8.22 5.99 10.48
3/24/2021 2:00:00 AM 11.12 52.016 0.348 8.22 7.15 10.45
3/24/2021 2:15:00 AM 11.11 51.998 0.348 8.22 7.69 10.46
3/24/2021 2:30:00 AM 11.09 51.962 0.343 8.21 6.39 10.45
3/24/2021 2:45:00 AM 11.07 51.926 0.333 8.21 5.9 10.44
3/24/2021 3:00:00 AM 11.04 51.872 0.348 8.2 6.79 10.4
3/24/2021 3:15:00 AM 11.02 51.836 0.325 8.2 6.96 10.38
3/24/2021 3:30:00 AM 10.99 51.782 0.297 8.19 6.37 10.37
3/24/2021 3:45:00 AM 10.96 51.728 0.346 8.18 6.93 10.35
3/24/2021 4:00:00 AM 10.94 51.692 0.348 8.17 5.59 10.35
3/24/2021 4:15:00 AM 10.91 51.638 0.35 8.17 6.79 10.31
3/24/2021 4:30:00 AM 10.88 51.584 0.303 8.16 6.41 10.29
3/24/2021 4:45:00 AM 10.85 51.53 0.339 8.15 6.77 10.29
3/24/2021 5:00:00 AM 10.82 51.476 0.348 8.15 7.59 10.26
3/24/2021 5:15:00 AM 10.8 51.44 0.347 8.14 6.28 10.25
3/24/2021 5:30:00 AM 10.77 51.386 0.345 8.13 6.93 10.23
3/24/2021 5:45:00 AM 10.74 51.332 0.346 8.12 6.25 10.21
3/24/2021 6:00:00 AM 10.72 51.296 0.339 8.12 7.76 10.21
3/24/2021 6:15:00 AM 10.69 51.242 0.346 8.11 7.96 10.18
3/24/2021 6:30:00 AM 10.66 51.188 0.322 8.11 6.59 10.17
3/24/2021 6:45:00 AM 10.64 51.152 0.348 8.1 6.43 10.16
3/24/2021 7:00:00 AM 10.62 51.116 0.348 8.09 6.43 10.12
3/24/2021 7:15:00 AM 10.59 51.062 0.348 8.09 6.87 10.13
3/24/2021 7:30:00 AM 10.56 51.008 0.349 8.08 9.06 10.08
3/24/2021 7:45:00 AM 10.53 50.954 0.348 8.08 6.82 10.11
3/24/2021 8:00:00 AM 10.51 50.918 0.348 8.07 10.82 10.1
3/24/2021 8:15:00 AM 10.49 50.882 0.347 8.07 8.11 10.09
3/24/2021 8:30:00 AM 10.46 50.828 0.346 8.06 7.58 10.09
3/24/2021 8:45:00 AM 10.44 50.792 0.345 8.07 7.73 10.12
3/24/2021 9:00:00 AM 10.42 50.756 0.344 8.06 8.61 10.1
3/24/2021 9:15:00 AM 10.41 50.738 0.343 8.06 9.03 10.12
3/24/2021 9:30:00 AM 10.41 50.738 0.343 8.06 9.17 10.13
3/24/2021 9:45:00 AM 10.42 50.756 0.343 8.06 15.59 10.17
3/24/2021 10:00:00 AM 10.41 50.738 0.344 8.05 9.46 10.17
3/24/2021 10:15:00 AM 10.4 50.72 0.341 8.06 10.44 10.2
3/24/2021 10:30:00 AM 10.4 50.72 0.338 8.05 13.36 10.2
3/24/2021 10:45:00 AM 10.42 50.756 0.336 8.05 13.05 10.2
3/24/2021 11:00:00 AM 10.42 50.756 0.336 8.05 11.91 10.21
3/24/2021 11:15:00 AM 10.42 50.756 0.337 8.04 12.06 10.2
3/24/2021 11:30:00 AM 10.44 50.792 0.338 8.04 12.35 10.21
3/24/2021 11:45:00 AM 10.46 50.828 0.295 8.04 11.24 10.25
3/24/2021 12:00:00 PM 10.48 50.864 0.341 8.03 11.94 10.26
3/24/2021 12:15:00 PM 10.5 50.9 0.342 8.03 10.92 10.3
3/24/2021 12:30:00 PM 10.53 50.954 0.343 8.04 9.49 10.32
3/24/2021 12:45:00 PM 10.57 51.026 0.344 8.05 9.49 10.37
3/24/2021 1:00:00 PM 10.61 51.098 0.335 8.05 10.12 10.42
3/24/2021 1:15:00 PM 10.63 51.134 0.344 8.06 8.61 10.42
3/24/2021 1:30:00 PM 10.64 51.152 0.325 8.06 8.37 10.41
3/24/2021 1:45:00 PM 10.65 51.17 0.313 8.06 7.98 10.41
3/24/2021 2:00:00 PM 10.66 51.188 0.344 8.06 8.83 10.4
3/24/2021 2:15:00 PM 10.67 51.206 0.345 8.06 7.02 10.39
3/24/2021 2:30:00 PM 10.68 51.224 0.346 8.06 8.29 10.36
3/24/2021 2:45:00 PM 10.7 51.26 0.346 8.06 7.5 10.36
3/24/2021 3:00:00 PM 10.73 51.314 0.346 8.06 7.72 10.35
3/24/2021 3:15:00 PM 10.76 51.368 0.346 8.06 7.6 10.36
3/24/2021 3:30:00 PM 10.78 51.404 0.347 8.06 6.84 10.36
3/24/2021 3:45:00 PM 10.79 51.422 0.346 8.07 6.68 10.36
3/24/2021 4:00:00 PM 10.8 51.44 0.346 8.07 8.42 10.35
3/24/2021 4:15:00 PM 10.8 51.44 0.339 8.06 7.48 10.31
3/24/2021 4:30:00 PM 10.81 51.458 0.331 8.07 7.61 10.28
3/24/2021 4:45:00 PM 10.82 51.476 0.34 8.07 7.28 10.28
3/24/2021 5:00:00 PM 10.83 51.494 0.339 8.07 6.69 10.26
3/24/2021 5:15:00 PM 10.85 51.53 0.324 8.06 6.77 10.23
3/24/2021 5:30:00 PM 10.86 51.548 0.318 8.06 7.09 10.24
3/24/2021 5:45:00 PM 10.89 51.602 0.316 8.06 6.76 10.24
3/24/2021 6:00:00 PM 10.91 51.638 0.317 8.06 8.38 10.26
3/24/2021 6:15:00 PM 10.93 51.674 0.335 8.07 8.3 10.24
3/24/2021 6:30:00 PM 10.94 51.692 0.347 8.06 7.38 10.23
3/24/2021 6:45:00 PM 10.95 51.71 0.349 8.06 7.6 10.2
3/24/2021 7:00:00 PM 10.95 51.71 0.332 8.06 7.56 10.16
3/24/2021 7:15:00 PM 10.96 51.728 0.332 8.05 8.02 10.13
3/24/2021 7:30:00 PM 10.96 51.728 0.329 8.05 7.82 10.09
3/24/2021 7:45:00 PM 10.96 51.728 0.322 8.04 7.05 10.06
3/24/2021 8:00:00 PM 10.96 51.728 0.33 8.04 9.44 10.01
3/24/2021 8:15:00 PM 10.97 51.746 0.351 8.03 8.23 10
3/24/2021 8:30:00 PM 10.98 51.764 0.312 8.02 7.57 9.99
3/24/2021 8:45:00 PM 10.99 51.782 0.345 8.02 7.46 9.97
3/24/2021 9:00:00 PM 10.99 51.782 0.345 8.02 7.22 9.98
3/24/2021 9:15:00 PM 11 51.8 0.339 8.02 9.02 10
3/24/2021 9:30:00 PM 11.01 51.818 0.34 8.02 9.04 10
3/24/2021 9:45:00 PM 11.02 51.836 0.332 8.03 7.81 10.01
3/24/2021 10:00:00 PM 11.03 51.854 0.335 8.03 9.89 10.02
3/24/2021 10:15:00 PM 11.04 51.872 0.347 8.03 7.98 10.03
3/24/2021 10:30:00 PM 11.04 51.872 0.346 8.03 7.5 10.02
3/24/2021 10:45:00 PM 11.05 51.89 0.351 8.04 7.42 10.06
3/24/2021 11:00:00 PM 11.05 51.89 0.35 8.04 7.95 10.04
3/24/2021 11:15:00 PM 11.05 51.89 0.329 8.04 7.13 10.06
3/24/2021 11:30:00 PM 11.05 51.89 0.341 8.04 7.53 10.04
3/24/2021 11:45:00 PM 11.05 51.89 0.35 8.04 8.46 10.06
3/25/2021 12:00:00 AM 11.05 51.89 0.336 8.03 7.46 10.05
3/25/2021 12:15:00 AM 11.05 51.89 0.351 8.04 8.2 10.07
3/25/2021 12:30:00 AM 11.05 51.89 0.351 8.04 8.24 10.07
3/25/2021 12:45:00 AM 11.05 51.89 0.351 8.04 7.78 10.09
3/25/2021 1:00:00 AM 11.05 51.89 0.351 8.05 7.93 10.08
3/25/2021 1:15:00 AM 11.04 51.872 0.351 8.05 7.77 10.08
3/25/2021 1:30:00 AM 11.03 51.854 0.351 8.04 8.55 10.07
3/25/2021 1:45:00 AM 11.03 51.854 0.351 8.04 10.69 10.06
3/25/2021 2:00:00 AM 11.02 51.836 0.351 8.04 7.77 10.06
3/25/2021 2:15:00 AM 11.02 51.836 0.351 8.04 7.75 10.05
3/25/2021 2:30:00 AM 11.01 51.818 0.351 8.04 8.99 10.05
3/25/2021 2:45:00 AM 11.01 51.818 0.347 8.04 9.91 10.04
3/25/2021 3:00:00 AM 11 51.8 0.347 8.04 8.58 10.04
3/25/2021 3:15:00 AM 10.99 51.782 0.346 8.03 8.82 10.02
3/25/2021 3:30:00 AM 10.98 51.764 0.351 8.02 7.96 10
3/25/2021 3:45:00 AM 10.97 51.746 0.347 8.02 7.93 9.99
3/25/2021 4:00:00 AM 10.96 51.728 0.316 8.02 8.17 9.97
3/25/2021 4:15:00 AM 10.95 51.71 0.325 8.01 8.79 9.97
3/25/2021 4:30:00 AM 10.94 51.692 0.347 8 9.23 9.96
3/25/2021 4:45:00 AM 10.93 51.674 0.337 8 9.83 9.95
3/25/2021 5:00:00 AM 10.92 51.656 0.34 7.99 8.37 9.94
3/25/2021 5:15:00 AM 10.91 51.638 0.321 7.99 9.07 9.94
3/25/2021 5:30:00 AM 10.9 51.62 0.336 7.99 8.49 9.92
3/25/2021 5:45:00 AM 10.89 51.602 0.346 7.98 11.87 9.89
3/25/2021 6:00:00 AM 10.89 51.602 0.349 7.98 9.79 9.9
3/25/2021 6:15:00 AM 10.88 51.584 0.35 7.97 8.21 9.88
3/25/2021 6:30:00 AM 10.87 51.566 0.349 7.97 10.45 9.89
3/25/2021 6:45:00 AM 10.86 51.548 0.349 7.96 10.05 9.87
3/25/2021 7:00:00 AM 10.85 51.53 0.349 7.96 9.28 9.86
3/25/2021 7:15:00 AM 10.85 51.53 0.349 7.96 9.39 9.85
3/25/2021 7:30:00 AM 10.84 51.512 0.349 7.95 9.93 9.84
3/25/2021 7:45:00 AM 10.84 51.512 0.349 7.95 8.66 9.85
3/25/2021 8:00:00 AM 10.84 51.512 0.349 7.95 8.88 9.86
3/25/2021 8:15:00 AM 10.84 51.512 0.349 7.94 8.62 9.86
3/25/2021 8:30:00 AM 10.85 51.53 0.349 7.95 8.78 9.88
3/25/2021 8:45:00 AM 10.86 51.548 0.349 7.95 8.38 9.89
3/25/2021 9:00:00 AM 10.88 51.584 0.349 7.95 8.4 9.94
3/25/2021 9:15:00 AM 10.9 51.62 0.348 7.96 11.64 9.98
3/25/2021 9:30:00 AM 10.93 51.674 0.348 7.96 11.08 10.04
3/25/2021 9:45:00 AM 10.95 51.71 0.348 7.97 8.94 10.07
3/25/2021 10:00:00 AM 10.99 51.782 0.348 7.98 12.65 10.13
3/25/2021 10:15:00 AM 11.02 51.836 0.348 7.99 8.79 10.16
3/25/2021 10:30:00 AM 11.03 51.854 0.348 7.99 9.92 10.17
3/25/2021 10:45:00 AM 11.06 51.908 0.348 7.99 9.74 10.21
3/25/2021 11:00:00 AM 11.08 51.944 0.348 8 9.17 10.24
3/25/2021 11:15:00 AM 11.1 51.98 0.348 8 9.58 10.24
3/25/2021 11:30:00 AM 11.13 52.034 0.348 8 8.44 10.24
3/25/2021 11:45:00 AM 11.18 52.124 0.348 8.01 9.52 10.29
3/25/2021 12:00:00 PM 11.21 52.178 0.348 8.01 11.71 10.3
3/25/2021 12:15:00 PM 11.24 52.232 0.348 8.01 8.92 10.3
3/25/2021 12:30:00 PM 11.27 52.286 0.347 8.01 10.69 10.35
3/25/2021 12:45:00 PM 11.3 52.34 0.347 8.02 10.71 10.36
3/25/2021 1:00:00 PM 11.34 52.412 0.347 8.03 12.69 10.36
3/25/2021 1:15:00 PM 11.4 52.52 0.347 8.03 9.97 10.37
3/25/2021 1:30:00 PM 11.46 52.628 0.347 8.03 13.45 10.4
3/25/2021 1:45:00 PM 11.5 52.7 0.347 8.03 8.97 10.41
3/25/2021 2:00:00 PM 11.54 52.772 0.347 7.99 10.25 10.42
3/25/2021 2:15:00 PM 11.58 52.844 0.347 8.03 11.37 10.44
3/25/2021 2:30:00 PM 11.63 52.934 0.347 8.04 8.66 10.44
3/25/2021 2:45:00 PM 11.69 53.042 0.347 8.04 9.52 10.44
3/25/2021 3:00:00 PM 11.77 53.186 0.347 8.05 9.22 10.48
3/25/2021 3:15:00 PM 11.86 53.348 0.347 8.05 9.67 10.49
3/25/2021 3:30:00 PM 11.94 53.492 0.347 8.06 9.62 10.52
3/25/2021 3:45:00 PM 12.01 53.618 0.347 8.05 9.81 10.53
3/25/2021 4:00:00 PM 12.07 53.726 0.347 8.06 10.2 10.54
3/25/2021 4:15:00 PM 12.12 53.816 0.347 8.07 8.91 10.55
3/25/2021 4:30:00 PM 12.11 53.798 0.347 8.07 9.3 10.52
3/25/2021 4:45:00 PM 12.11 53.798 0.347 8.07 11.2 10.5
3/25/2021 5:00:00 PM 12.13 53.834 0.347 8.08 9.28 10.48
3/25/2021 5:15:00 PM 12.14 53.852 0.347 8.08 9.95 10.46
3/25/2021 5:30:00 PM 12.14 53.852 0.347 8.09 9.41 10.42
3/25/2021 5:45:00 PM 12.14 53.852 0.347 8.08 10.42 10.39
3/25/2021 6:00:00 PM 12.14 53.852 0.347 8.09 9.55 10.35
3/25/2021 6:15:00 PM 12.13 53.834 0.347 8.08 9.3 10.27
3/25/2021 6:30:00 PM 12.12 53.816 0.347 8.08 12.11 10.2
3/25/2021 6:45:00 PM 12.11 53.798 0.347 8.08 10.39 10.14
3/25/2021 7:00:00 PM 12.11 53.798 0.347 8.07 10 10.06
3/25/2021 7:15:00 PM 12.11 53.798 0.347 8.06 9.7 10
3/25/2021 7:30:00 PM 12.12 53.816 0.347 8.06 10.22 9.94
3/25/2021 7:45:00 PM 12.13 53.834 0.347 8.05 12.34 9.92
3/25/2021 8:00:00 PM 12.15 53.87 0.348 8.05 9.28 9.89
3/25/2021 8:15:00 PM 12.18 53.924 0.348 8.05 11.23 9.88
3/25/2021 8:30:00 PM 12.2 53.96 0.348 8.05 15.02 9.88
3/25/2021 8:45:00 PM 12.23 54.014 0.348 8.05 10.62 9.9
3/25/2021 9:00:00 PM 12.25 54.05 0.349 8.06 11 9.91
3/25/2021 9:15:00 PM 12.28 54.104 0.332 8.07 12.06 9.89
3/25/2021 9:30:00 PM 12.29 54.122 0.348 8.08 11.73 9.9
3/25/2021 9:45:00 PM 12.33 54.194 0.343 8.09 10.43 9.93
3/25/2021 10:00:00 PM 12.35 54.23 0.348 8.1 10.7 9.95
3/25/2021 10:15:00 PM 12.37 54.266 0.32 8.11 9.36 9.96
3/25/2021 10:30:00 PM 12.39 54.302 0.348 8.11 11.35 9.95
3/25/2021 10:45:00 PM 12.41 54.338 0.348 8.12 13.62 9.97
3/25/2021 11:00:00 PM 12.42 54.356 0.348 8.13 9.58 9.98
3/25/2021 11:15:00 PM 12.44 54.392 0.347 8.14 10.03 10
3/25/2021 11:30:00 PM 12.45 54.41 0.302 8.14 9.29 9.98
3/25/2021 11:45:00 PM 12.46 54.428 0.348 8.15 10.28 9.98
3/26/2021 12:00:00 AM 12.47 54.446 0.333 8.16 10.72 9.99
3/26/2021 12:15:00 AM 12.48 54.464 0.341 8.16 9.65 9.98
3/26/2021 12:30:00 AM 12.48 54.464 0.344 8.17 13.14 9.98
3/26/2021 12:45:00 AM 12.48 54.464 0.347 8.17 10.93 9.97
3/26/2021 1:00:00 AM 12.48 54.464 0.347 8.17 9.86 9.97
3/26/2021 1:15:00 AM 12.48 54.464 0.329 8.17 9.94 9.94
3/26/2021 1:30:00 AM 12.48 54.464 0.344 8.17 11 9.93
3/26/2021 1:45:00 AM 12.47 54.446 0.339 8.17 10.11 9.92
3/26/2021 2:00:00 AM 12.47 54.446 0.341 8.16 11.19 9.89
3/26/2021 2:15:00 AM 12.46 54.428 0.347 8.15 17.5 9.85
3/26/2021 2:30:00 AM 12.46 54.428 0.347 8.15 10.46 9.84
3/26/2021 2:45:00 AM 12.45 54.41 0.347 8.15 12.34 9.82
3/26/2021 3:00:00 AM 12.44 54.392 0.347 8.15 10.88 9.81
3/26/2021 3:15:00 AM 12.44 54.392 0.315 8.14 11.8 9.76
3/26/2021 3:30:00 AM 12.43 54.374 0.34 8.13 11.5 9.74
3/26/2021 3:45:00 AM 12.42 54.356 0.348 8.13 10.27 9.74
3/26/2021 4:00:00 AM 12.41 54.338 0.347 8.12 10.68 9.72
3/26/2021 4:15:00 AM 12.39 54.302 0.348 8.1 14.85 9.7
3/26/2021 4:30:00 AM 12.38 54.284 0.347 8.1 15.61 9.66
3/26/2021 4:45:00 AM 12.37 54.266 0.347 8.1 10.88 9.64
3/26/2021 5:00:00 AM 12.35 54.23 0.347 8.09 10.56 9.63
3/26/2021 5:15:00 AM 12.34 54.212 0.347 8.08 10.2 9.59
3/26/2021 5:30:00 AM 12.33 54.194 0.336 8.08 18.98 9.57
3/26/2021 5:45:00 AM 12.32 54.176 0.347 8.07 10.63 9.55
3/26/2021 6:00:00 AM 12.31 54.158 0.347 8.06 10.07 9.55
3/26/2021 6:15:00 AM 12.31 54.158 0.347 8.05 10.67 9.51
3/26/2021 6:30:00 AM 12.29 54.122 0.347 8.05 14.54 9.5
3/26/2021 6:45:00 AM 12.28 54.104 0.346 8.04 12.43 9.48
3/26/2021 7:00:00 AM 12.27 54.086 0.346 8.03 11.22 9.44
3/26/2021 7:15:00 AM 12.25 54.05 0.346 8.03 12.79 9.42
3/26/2021 7:30:00 AM 12.25 54.05 0.346 8.02 13.18 9.4
3/26/2021 7:45:00 AM 12.26 54.068 0.345 8.02 13.36 9.42
3/26/2021 8:00:00 AM 12.28 54.104 0.345 8.02 12.51 9.42
3/26/2021 8:15:00 AM 12.3 54.14 0.345 8.02 11.62 9.48
3/26/2021 8:30:00 AM 12.32 54.176 0.344 8.02 16.71 9.48
3/26/2021 8:45:00 AM 12.34 54.212 0.344 8.02 12.55 9.52
3/26/2021 9:00:00 AM 12.36 54.248 0.344 8.03 23.49 9.57
3/26/2021 9:15:00 AM 12.41 54.338 0.344 8.03 12.91 9.61
3/26/2021 9:30:00 AM 12.47 54.446 0.344 8.03 13.91 9.66
3/26/2021 9:45:00 AM 12.53 54.554 0.344 8.04 14.06 9.73
3/26/2021 10:00:00 AM 12.63 54.734 0.344 8.05 13.99 9.79
3/26/2021 10:15:00 AM 12.73 54.914 0.344 8.05 12.69 9.84
3/26/2021 10:30:00 AM 12.85 55.13 0.344 8.06 16.8 9.89
3/26/2021 10:45:00 AM 12.94 55.292 0.344 8.07 13.34 9.94
3/26/2021 11:00:00 AM 13.06 55.508 0.343 8.08 15.83 9.96
3/26/2021 11:15:00 AM 13.16 55.688 0.343 8.08 12.37 10.01
3/26/2021 11:30:00 AM 13.27 55.886 0.343 8.08 13.11 10.03
3/26/2021 11:45:00 AM 13.37 56.066 0.343 8.09 13.32 10.05
3/26/2021 12:00:00 PM 13.48 56.264 0.342 8.09 20.67 10.08
3/26/2021 12:15:00 PM 13.62 56.516 0.342 8.1 14.05 10.09
3/26/2021 12:30:00 PM 13.74 56.732 0.342 8.1 18.04 10.08
3/26/2021 12:45:00 PM 13.9 57.02 0.342 8.11 10.93 10.1
3/26/2021 1:00:00 PM 14.03 57.254 0.342 8.11 16.79 10.13
3/26/2021 1:15:00 PM 14.2 57.56 0.342 8.11 13.07 10.15
3/26/2021 1:30:00 PM 14.35 57.83 0.342 8.11 13.42 10.16
3/26/2021 1:45:00 PM 14.49 58.082 0.342 8.12 17.48 10.18
3/26/2021 2:00:00 PM 14.62 58.316 0.342 8.12 20.32 10.19
3/26/2021 2:15:00 PM 14.75 58.55 0.342 8.13 12.78 10.18
3/26/2021 2:30:00 PM 14.89 58.802 0.343 8.13 19.36 10.21
3/26/2021 2:45:00 PM 14.96 58.928 0.342 8.13 13.91 10.18
3/26/2021 3:00:00 PM 14.98 58.964 0.246 8.13 12.42 10.18
3/26/2021 3:15:00 PM 14.91 58.838 0.343 8.13 24.89 10.1
3/26/2021 3:30:00 PM 14.82 58.676 0.271 8.13 14.56 10.09
3/26/2021 3:45:00 PM 14.9 58.82 0.34 8.14 13.72 10.09
3/26/2021 4:00:00 PM 14.96 58.928 0.326 8.15 20.35 10.07
3/26/2021 4:15:00 PM 15.04 59.072 0.341 8.15 17.83 10.09
3/26/2021 4:30:00 PM 15.08 59.144 0.342 8.16 14.91 10.09
3/26/2021 4:45:00 PM 15.08 59.144 0.3 8.16 24.03 10.07
3/26/2021 5:00:00 PM 15.17 59.306 0.342 8.16 12.81 10.09
3/26/2021 5:15:00 PM 15.19 59.342 0.268 8.16 16.1 10.09
3/26/2021 5:30:00 PM 15.16 59.288 0.34 8.16 29.89 10.06
3/26/2021 5:45:00 PM 15.1 59.18 0.342 8.15 27.75 9.98
3/26/2021 6:00:00 PM 15.05 59.09 0.342 8.16 29.86 9.97
3/26/2021 6:15:00 PM 15 59 0.342 8.15 16.05 9.9
3/26/2021 6:30:00 PM 14.96 58.928 0.342 8.15 16.81 9.83
3/26/2021 6:45:00 PM 14.92 58.856 0.342 8.15 23.73 9.76
3/26/2021 7:00:00 PM 14.89 58.802 0.342 8.15 27 9.69
3/26/2021 7:15:00 PM 14.86 58.748 0.342 8.14 15.04 9.61
3/26/2021 7:30:00 PM 14.84 58.712 0.343 8.14 15.73 9.5
3/26/2021 7:45:00 PM 14.82 58.676 0.342 8.13 25.88 9.41
3/26/2021 8:00:00 PM 14.82 58.676 0.312 8.14 26.05 9.33
3/26/2021 8:15:00 PM 14.84 58.712 0.343 8.15 19.37 9.28
3/26/2021 8:30:00 PM 14.85 58.73 0.343 8.15 24.88 9.23
3/26/2021 8:45:00 PM 14.89 58.802 0.344 8.15 21.76 9.21
3/26/2021 9:00:00 PM 14.9 58.82 0.345 8.16 18.91 9.19
3/26/2021 9:15:00 PM 14.92 58.856 0.332 8.16 18.5 9.19
3/26/2021 9:30:00 PM 14.93 58.874 0.343 8.16 21.74 9.17
3/26/2021 9:45:00 PM 14.94 58.892 0.335 8.17 35.38 9.17
3/26/2021 10:00:00 PM 14.96 58.928 0.331 8.18 15.44 9.2
3/26/2021 10:15:00 PM 14.98 58.964 0.339 8.19 24.33 9.22
3/26/2021 10:30:00 PM 14.98 58.964 0.344 8.2 34.75 9.23
3/26/2021 10:45:00 PM 14.98 58.964 0.344 8.2 23.45 9.2
3/26/2021 11:00:00 PM 14.98 58.964 0.342 8.21 26.67 9.22
3/26/2021 11:15:00 PM 14.98 58.964 0.311 8.21 24.3 9.25
3/26/2021 11:30:00 PM 14.96 58.928 0.313 8.21 46.38 9.24
3/26/2021 11:45:00 PM 14.95 58.91 0.317 8.22 46.48 9.26
3/27/2021 12:00:00 AM 14.92 58.856 0.317 8.23 23.72 9.27
3/27/2021 12:15:00 AM 14.9 58.82 0.342 8.23 39.22 9.25
3/27/2021 12:30:00 AM 14.87 58.766 0.341 8.24 35.9 9.28
3/27/2021 12:45:00 AM 14.83 58.694 0.325 8.24 24.61 9.27
3/27/2021 1:00:00 AM 14.79 58.622 0.341 8.25 23.22 9.29
3/27/2021 1:15:00 AM 14.76 58.568 0.341 8.25 22.32 9.29
3/27/2021 1:30:00 AM 14.7 58.46 0.341 8.25 26.56 9.28
3/27/2021 1:45:00 AM 14.66 58.388 0.341 8.24 22.76 9.3
3/27/2021 2:00:00 AM 14.61 58.298 0.341 8.24 25.22 9.29
3/27/2021 2:15:00 AM 14.55 58.19 0.34 8.24 45.57 9.29
3/27/2021 2:30:00 AM 14.5 58.1 0.34 8.23 45.42 9.26
3/27/2021 2:45:00 AM 14.43 57.974 0.329 8.23 26.16 9.27
3/27/2021 3:00:00 AM 14.37 57.866 0.34 8.21 58.4 9.25
3/27/2021 3:15:00 AM 14.3 57.74 0.34 8.21 28.12 9.25
3/27/2021 3:30:00 AM 14.24 57.632 0.34 8.2 25.22 9.24
3/27/2021 3:45:00 AM 14.18 57.524 0.341 8.19 35.79 9.25
3/27/2021 4:00:00 AM 14.1 57.38 0.341 8.18 58.56 9.21
3/27/2021 4:15:00 AM 14.04 57.272 0.321 8.18 56.55 9.23
3/27/2021 4:30:00 AM 13.97 57.146 0.339 8.17 26.89 9.22
3/27/2021 4:45:00 AM 13.9 57.02 0.342 8.15 30.02 9.2
3/27/2021 5:00:00 AM 13.85 56.93 0.342 8.15 40.53 9.19
3/27/2021 5:15:00 AM 13.78 56.804 0.342 8.14 25.69 9.16
3/27/2021 5:30:00 AM 13.72 56.696 0.342 8.13 31.59 9.17
3/27/2021 5:45:00 AM 13.66 56.588 0.342 8.12 31.33 9.15
3/27/2021 6:00:00 AM 13.59 56.462 0.342 8.11 31.46 9.15
3/27/2021 6:15:00 AM 13.53 56.354 0.337 8.1 34.67 9.14
3/27/2021 6:30:00 AM 13.47 56.246 0.342 8.09 55.41 9.11
3/27/2021 6:45:00 AM 13.41 56.138 0.342 8.08 33.77 9.13
3/27/2021 7:00:00 AM 13.36 56.048 0.342 8.07 36.38 9.1
3/27/2021 7:15:00 AM 13.29 55.922 0.343 8.06 65.92 9.1
3/27/2021 7:30:00 AM 13.24 55.832 0.343 8.05 73.03 9.12
3/27/2021 7:45:00 AM 13.18 55.724 0.343 8.05 47.67 9.15
3/27/2021 8:00:00 AM 13.15 55.67 0.343 8.05 36.15 9.16
3/27/2021 8:15:00 AM 13.13 55.634 0.343 8.05 55.06 9.2
3/27/2021 8:30:00 AM 13.12 55.616 0.344 8.04 51.19 9.21
3/27/2021 8:45:00 AM 13.13 55.634 0.344 8.04 75.96 9.27
3/27/2021 9:00:00 AM 13.15 55.67 0.344 8.05 75.3 9.33
3/27/2021 9:15:00 AM 13.18 55.724 0.344 8.05 45.02 9.4
3/27/2021 9:30:00 AM 13.19 55.742 0.345 8.06 44.88 9.47
3/27/2021 9:45:00 AM 13.23 55.814 0.345 8.07 39.24 9.55
3/27/2021 10:00:00 AM 13.28 55.904 0.345 8.08 64.53 9.64
3/27/2021 10:15:00 AM 13.32 55.976 0.346 8.08 37.49 9.69
3/27/2021 10:30:00 AM 13.37 56.066 0.346 8.09 45.79 9.78
3/27/2021 10:45:00 AM 13.44 56.192 0.346 8.1 53.94 9.82
3/27/2021 11:00:00 AM 13.51 56.318 0.346 8.11 60.78 9.87
3/27/2021 11:15:00 AM 13.57 56.426 0.347 8.11 42.22 9.92
3/27/2021 11:30:00 AM 13.65 56.57 0.347 8.12 50.94 9.96
3/27/2021 11:45:00 AM 13.74 56.732 0.347 8.13 73.97 10.01
3/27/2021 12:00:00 PM 13.84 56.912 0.348 8.13 54.01 10.05
3/27/2021 12:15:00 PM 13.97 57.146 0.348 8.14 59.39 10.09
3/27/2021 12:30:00 PM 14.09 57.362 0.348 8.14 42.3 10.13
3/27/2021 12:45:00 PM 14.23 57.614 0.348 8.14 41.19 10.15
3/27/2021 1:00:00 PM 14.34 57.812 0.349 8.15 38.43 10.2
3/27/2021 1:15:00 PM 14.45 58.01 0.349 8.16 46.97 10.24
3/27/2021 1:30:00 PM 14.56 58.208 0.35 8.16 66.33 10.25
3/27/2021 1:45:00 PM 14.64 58.352 0.35 8.16 39.44 10.29
3/27/2021 2:00:00 PM 14.73 58.514 0.35 8.16 54.44 10.29
3/27/2021 2:15:00 PM 14.82 58.676 0.351 8.17 41.76 10.3
3/27/2021 2:30:00 PM 14.84 58.712 0.351 8.17 38.55 10.31
3/27/2021 2:45:00 PM 14.87 58.766 0.351 8.17 73.96 10.32
3/27/2021 3:00:00 PM 14.87 58.766 0.351 8.17 59.26 10.29
3/27/2021 3:15:00 PM 14.87 58.766 0.351 8.17 42.06 10.3
3/27/2021 3:30:00 PM 14.81 58.658 0.352 8.17 46.74 10.25
3/27/2021 3:45:00 PM 14.73 58.514 0.348 8.17 62.04 10.22
3/27/2021 4:00:00 PM 14.63 58.334 0.348 8.16 66.36 10.09
3/27/2021 4:15:00 PM 14.6 58.28 0.347 8.16 72.01 10.06
3/27/2021 4:30:00 PM 14.54 58.172 0.352 8.15 1236 10.03
3/27/2021 4:45:00 PM 14.49 58.082 0.353 8.15 1250 9.99
3/27/2021 5:00:00 PM 14.45 58.01 0.354 8.15 1282 9.94
3/27/2021 5:15:00 PM 14.44 57.992 0.355 8.15 1269 9.81
3/27/2021 5:30:00 PM 14.42 57.956 0.356 8.14 1291 9.82
3/27/2021 5:45:00 PM 14.41 57.938 0.356 8.15 1276 9.8
3/27/2021 6:00:00 PM 14.4 57.92 0.357 8.14 1285 9.74
3/27/2021 6:15:00 PM 14.4 57.92 0.357 8.14 1293 9.66
3/27/2021 6:30:00 PM 14.41 57.938 0.357 8.13 1311 9.64
3/27/2021 6:45:00 PM 14.42 57.956 0.357 8.14 1312 9.57
3/27/2021 7:00:00 PM 14.44 57.992 0.357 8.13 1327 9.55
3/27/2021 7:15:00 PM 14.47 58.046 0.358 8.13 1291 9.47
3/27/2021 7:30:00 PM 14.49 58.082 0.358 8.13 1290 9.44
3/27/2021 7:45:00 PM 14.52 58.136 0.358 8.13 1290 9.38
3/27/2021 8:00:00 PM 14.55 58.19 0.328 8.12 1318 9.32
3/27/2021 8:15:00 PM 14.6 58.28 0.318 8.12 1332 9.3
3/27/2021 8:30:00 PM 14.63 58.334 0.337 8.11 1341 9.25
3/27/2021 8:45:00 PM 14.65 58.37 0.339 8.11 1306 9.21
3/27/2021 9:00:00 PM 14.69 58.442 0.334 8.11 1365 9.23
3/27/2021 9:15:00 PM 14.72 58.496 0.356 8.11 1379 9.21
3/27/2021 9:30:00 PM 14.76 58.568 0.313 8.12 1424 9.22
3/27/2021 9:45:00 PM 14.78 58.604 0.314 8.13 1398 9.23
3/27/2021 10:00:00 PM 14.81 58.658 0.348 8.14 1425 9.22
3/27/2021 10:15:00 PM 14.83 58.694 0.348 8.15 1439 9.23
3/27/2021 10:30:00 PM 14.84 58.712 0.324 8.15 1424 9.26
3/27/2021 10:45:00 PM 14.84 58.712 0.36 8.16 1429 9.23
3/27/2021 11:00:00 PM 14.86 58.748 0.319 8.17 1438 9.29
3/27/2021 11:15:00 PM 14.86 58.748 0.345 8.18 1459 9.28
3/27/2021 11:30:00 PM 14.86 58.748 0.348 8.19 1456 9.3
3/27/2021 11:45:00 PM 14.85 58.73 0.336 8.2 1472 9.3
3/28/2021 12:00:00 AM 14.84 58.712 0.35 8.21 1467 9.32
3/28/2021 12:15:00 AM 14.83 58.694 0.32 8.22 1456 9.33
3/28/2021 12:30:00 AM 14.79 58.622 0.35 8.22 1465 9.33
3/28/2021 12:45:00 AM 14.78 58.604 0.359 8.23 1455 9.3
3/28/2021 1:00:00 AM 14.76 58.568 0.359 8.23 1480 9.33
3/28/2021 1:15:00 AM 14.74 58.532 0.359 8.24 1469 9.33
3/28/2021 1:30:00 AM 14.7 58.46 0.359 8.24 1486 9.35
3/28/2021 1:45:00 AM 14.68 58.424 0.359 8.24 1491 9.36
3/28/2021 2:00:00 AM 14.65 58.37 0.359 8.24 1477 9.35
3/28/2021 2:15:00 AM 14.61 58.298 0.359 8.24 1527 9.33
3/28/2021 2:30:00 AM 14.58 58.244 0.359 8.24 1523 9.34
3/28/2021 2:45:00 AM 14.57 58.226 0.359 8.24 1524 9.34
3/28/2021 3:00:00 AM 14.56 58.208 0.359 8.24 1511 9.29
3/28/2021 3:15:00 AM 14.56 58.208 0.359 8.24 1529 9.29
3/28/2021 3:30:00 AM 14.56 58.208 0.359 8.24 1533 9.3
3/28/2021 3:45:00 AM 14.54 58.172 0.36 8.23 1531 9.27
3/28/2021 4:00:00 AM 14.52 58.136 0.36 8.22 1537 9.24
3/28/2021 4:15:00 AM 14.51 58.118 0.36 8.22 1535 9.22
3/28/2021 4:30:00 AM 14.47 58.046 0.36 8.21 1538 9.22
3/28/2021 4:45:00 AM 14.45 58.01 0.36 8.2 1539 9.18
3/28/2021 5:00:00 AM 14.42 57.956 0.36 8.19 1549 9.15
3/28/2021 5:15:00 AM 14.39 57.902 0.361 8.18 1549 9.15
3/28/2021 5:30:00 AM 14.36 57.848 0.361 8.17 1576 9.13
3/28/2021 5:45:00 AM 14.32 57.776 0.361 8.16 1594 9.1
3/28/2021 6:00:00 AM 14.28 57.704 0.362 8.15 1573 9.08
3/28/2021 6:15:00 AM 14.25 57.65 0.362 8.14 1604 9.06
3/28/2021 6:30:00 AM 14.21 57.578 0.362 8.14 1590 9.04
3/28/2021 6:45:00 AM 14.17 57.506 0.362 8.13 1614 9.03
3/28/2021 7:00:00 AM 14.12 57.416 0.362 8.11 1627 9.02
3/28/2021 7:15:00 AM 14.08 57.344 0.362 8.1 1629 8.97
3/28/2021 7:30:00 AM 14.03 57.254 0.362 8.09 1645 8.99
3/28/2021 7:45:00 AM 14 57.2 0.362 8.09 1632 8.97
3/28/2021 8:00:00 AM 13.95 57.11 0.362 8.09 1690 8.97
3/28/2021 8:15:00 AM 13.91 57.038 0.363 8.08 1706 8.94
3/28/2021 8:30:00 AM 13.88 56.984 0.363 8.08 1750 8.96
3/28/2021 8:45:00 AM 13.84 56.912 0.363 8.07 1722 8.98
3/28/2021 9:00:00 AM 13.82 56.876 0.363 8.07 1713 9.01
3/28/2021 9:15:00 AM 13.78 56.804 0.364 8.07 1733 9.02
3/28/2021 9:30:00 AM 13.75 56.75 0.364 8.07 1704 9.04
3/28/2021 9:45:00 AM 13.72 56.696 0.365 8.06 1719 9.05
3/28/2021 10:00:00 AM 13.69 56.642 0.365 8.06 1718 9.06
3/28/2021 10:15:00 AM 13.66 56.588 0.365 8.06 1774 9.1
3/28/2021 10:30:00 AM 13.65 56.57 0.364 8.06 1746 9.13
3/28/2021 10:45:00 AM 13.64 56.552 0.364 8.06 1782 9.17
3/28/2021 11:00:00 AM 13.64 56.552 0.364 8.06 1796 9.22
3/28/2021 11:15:00 AM 13.62 56.516 0.365 8.06 1783 9.27
3/28/2021 11:30:00 AM 13.6 56.48 0.365 8.06 1806 9.3
3/28/2021 11:45:00 AM 13.58 56.444 0.365 8.06 1770 9.27
3/28/2021 12:00:00 PM 13.56 56.408 0.365 8.06 1790 9.26
3/28/2021 12:15:00 PM 13.54 56.372 0.366 8.06 1776 9.27
3/28/2021 12:30:00 PM 13.52 56.336 0.366 8.05 1804 9.27
3/28/2021 12:45:00 PM 13.51 56.318 0.366 8.05 1777 9.28
3/28/2021 1:00:00 PM 13.51 56.318 0.366 8.05 1769 9.31
3/28/2021 1:15:00 PM 13.54 56.372 0.366 8.05 1793 9.37
3/28/2021 1:30:00 PM 13.61 56.498 0.366 8.06 1812 9.48
3/28/2021 1:45:00 PM 13.75 56.75 0.366 8.07 1811 9.57
3/28/2021 2:00:00 PM 13.88 56.984 0.366 8.09 1813 9.68
3/28/2021 2:15:00 PM 13.93 57.074 0.366 8.1 1781 9.73
3/28/2021 2:30:00 PM 13.95 57.11 0.366 8.11 1784 9.79
3/28/2021 2:45:00 PM 13.97 57.146 0.366 8.11 1770 9.82
3/28/2021 3:00:00 PM 13.95 57.11 0.366 8.11 1806 9.77
3/28/2021 3:15:00 PM 13.91 57.038 0.366 8.11 1802 9.73
3/28/2021 3:30:00 PM 13.88 56.984 0.366 8.11 1819 9.7
3/28/2021 3:45:00 PM 13.88 56.984 0.366 8.1 1858 9.62
3/28/2021 4:00:00 PM 13.85 56.93 0.366 8.1 1816 9.58
3/28/2021 4:15:00 PM 13.81 56.858 0.366 8.09 1857 9.49
3/28/2021 4:30:00 PM 13.77 56.786 0.364 8.08 1851 9.34
3/28/2021 4:45:00 PM 13.72 56.696 0.361 8.08 1863 9.29
3/28/2021 5:00:00 PM 13.72 56.696 0.361 8.07 1893 9.24
3/28/2021 5:15:00 PM 13.7 56.66 0.359 8.06 1874 9.17
3/28/2021 5:30:00 PM 13.68 56.624 0.358 8.05 1897 9.11
3/28/2021 5:45:00 PM 13.66 56.588 0.357 8.04 1899 9.1
3/28/2021 6:00:00 PM 13.64 56.552 0.358 8.03 1885 9.12
3/28/2021 6:15:00 PM 13.62 56.516 0.359 8.03 1892 9.15
3/28/2021 6:30:00 PM 13.63 56.534 0.359 8.03 1916 9.17
3/28/2021 6:45:00 PM 13.6 56.48 0.36 8.03 1914 9.18
3/28/2021 7:00:00 PM 13.56 56.408 0.361 8.03 1921 9.19
3/28/2021 7:15:00 PM 13.5 56.3 0.361 8.03 1989 9.18
3/28/2021 7:30:00 PM 13.43 56.174 0.362 8.03 2020 9.17
3/28/2021 7:45:00 PM 13.38 56.084 0.363 8.03 2056 9.12
3/28/2021 8:00:00 PM 13.31 55.958 0.364 8.03 2052 9.12
3/28/2021 8:15:00 PM 13.26 55.868 0.349 8.02 2083 9.04
3/28/2021 8:30:00 PM 13.21 55.778 0.365 8.02 2072 9.05
3/28/2021 8:45:00 PM 13.19 55.742 0.366 8.02 2094 9.02
3/28/2021 9:00:00 PM 13.17 55.706 0.366 8.02 2106 9.01
3/28/2021 9:15:00 PM 13.14 55.652 0.366 8.02 2108 9.04
3/28/2021 9:30:00 PM 13.11 55.598 0.366 8.03 2110 9.05
3/28/2021 9:45:00 PM 13.09 55.562 0.366 8.03 2102 9.07
3/28/2021 10:00:00 PM 13.04 55.472 0.367 8.04 2171 9.1
3/28/2021 10:15:00 PM 13.06 55.508 0.368 8.04 2178 9.12
3/28/2021 10:30:00 PM 13.04 55.472 0.368 8.05 2215 9.15
3/28/2021 10:45:00 PM 13.05 55.49 0.368 8.06 43.16 9.14
3/28/2021 11:00:00 PM 13.03 55.454 0.368 8.06 43.29 9.19
3/28/2021 11:15:00 PM 13 55.4 0.345 8.07 43.25 9.25
3/28/2021 11:30:00 PM 12.98 55.364 0.369 8.08 40.86 9.22
3/28/2021 11:45:00 PM 12.93 55.274 0.368 8.08 48.95 9.26
3/29/2021 12:00:00 AM 12.87 55.166 0.368 8.08 38.37 9.28
3/29/2021 12:15:00 AM 12.83 55.094 0.368 8.08 49.26 9.29
3/29/2021 12:30:00 AM 12.79 55.022 0.368 8.08 40.34 9.31
3/29/2021 12:45:00 AM 12.73 54.914 0.369 8.08 34.87 9.32
3/29/2021 1:00:00 AM 12.68 54.824 0.368 8.08 40.47 9.35
3/29/2021 1:15:00 AM 12.62 54.716 0.368 8.08 48.2 9.36
3/29/2021 1:30:00 AM 12.55 54.59 0.367 8.08 36.65 9.38
3/29/2021 1:45:00 AM 12.48 54.464 0.367 8.08 44.5 9.41
3/29/2021 2:00:00 AM 12.43 54.374 0.368 8.07 44.05 9.4
3/29/2021 2:15:00 AM 12.36 54.248 0.367 8.07 45.29 9.41
3/29/2021 2:30:00 AM 12.29 54.122 0.367 8.06 51.31 9.41
3/29/2021 2:45:00 AM 12.23 54.014 0.366 8.05 51.92 9.39
3/29/2021 3:00:00 AM 12.15 53.87 0.366 8.04 54.63 9.39
3/29/2021 3:15:00 AM 12.08 53.744 0.366 8.04 46.3 9.42
3/29/2021 3:30:00 AM 12.01 53.618 0.365 8.04 25.74 9.44
3/29/2021 3:45:00 AM 11.94 53.492 0.365 8.03 34.58 9.44
3/29/2021 4:00:00 AM 11.87 53.366 0.357 8.02 43.35 9.45
3/29/2021 4:15:00 AM 11.79 53.222 0.32 8.01 49.05 9.46
3/29/2021 4:30:00 AM 11.73 53.114 0.342 8.01 36.75 9.47
3/29/2021 4:45:00 AM 11.67 53.006 0.296 8.01 49.44 9.47
3/29/2021 5:00:00 AM 11.59 52.862 0.339 8 43.34 9.46
3/29/2021 5:15:00 AM 11.51 52.718 0.301 8 25.81 9.48
3/29/2021 5:30:00 AM 11.44 52.592 0.307 7.99 20.69 9.48
3/29/2021 5:45:00 AM 11.34 52.412 0.321 7.99 24.17 9.49
3/29/2021 6:00:00 AM 11.27 52.286 0.338 7.98 21.17 9.51
3/29/2021 6:15:00 AM 11.2 52.16 0.335 7.98 21.01 9.52
3/29/2021 6:30:00 AM 11.13 52.034 0.331 7.98 18.48 9.53
3/29/2021 6:45:00 AM 11.07 51.926 0.329 7.98 20.3 9.54
3/29/2021 7:00:00 AM 11 51.8 0.315 7.98 19.44 9.56
3/29/2021 7:15:00 AM 10.93 51.674 0.319 7.98 20.9 9.57
3/29/2021 7:30:00 AM 10.86 51.548 0.322 7.97 17.64 9.58
3/29/2021 7:45:00 AM 10.8 51.44 0.299 7.97 21.69 9.62
3/29/2021 8:00:00 AM 10.77 51.386 0.303 7.97 16.85 9.63
3/29/2021 8:15:00 AM 10.72 51.296 0.317 7.98 15.62 9.7
3/29/2021 8:30:00 AM 10.68 51.224 0.345 7.98 17.8 9.74
3/29/2021 8:45:00 AM 10.63 51.134 0.337 7.99 16.7 9.79
3/29/2021 9:00:00 AM 10.55 50.99 0.343 7.99 16.04 9.85
3/29/2021 9:15:00 AM 10.48 50.864 0.338 7.99 18.42 9.87
3/29/2021 9:30:00 AM 10.43 50.774 0.288 7.99 16.83 9.9
3/29/2021 9:45:00 AM 10.39 50.702 0.313 7.99 16.03 9.94
3/29/2021 10:00:00 AM 10.37 50.666 0.322 7.99 16.54 9.94
3/29/2021 10:15:00 AM 10.41 50.738 0.334 8 17.31 10.04
3/29/2021 10:30:00 AM 10.49 50.882 0.336 7.99 15.48 10.11
3/29/2021 10:45:00 AM 10.57 51.026 0.329 8 13.91 10.17
3/29/2021 11:00:00 AM 10.61 51.098 0.334 8.01 13.93 10.24
3/29/2021 11:15:00 AM 10.64 51.152 0.335 8.01 14.72 10.27
3/29/2021 11:30:00 AM 10.71 51.278 0.335 8.01 14.72 10.31
3/29/2021 11:45:00 AM 10.75 51.35 0.316 8.02 12.17 10.33
3/29/2021 12:00:00 PM 10.81 51.458 0.275 8.01 11 10.36
3/29/2021 12:15:00 PM 10.85 51.53 0.323 8.02 14.52 10.39
3/29/2021 12:30:00 PM 10.9 51.62 0.31 8.02 14.32 10.42
3/29/2021 12:45:00 PM 11 51.8 0.287 8.03 12.98 10.41
3/29/2021 1:00:00 PM 11.1 51.98 0.308 8.03 13.92 10.45
3/29/2021 1:15:00 PM 11.21 52.178 0.289 8.04 15.44 10.48
3/29/2021 1:30:00 PM 11.34 52.412 0.314 8.04 15.05 10.5
3/29/2021 1:45:00 PM 11.42 52.556 0.292 8.04 15.44 10.53
3/29/2021 2:00:00 PM 11.51 52.718 0.274 8.04 12.95 10.54
3/29/2021 2:15:00 PM 11.6 52.88 0.249 8.04 12.53 10.54
3/29/2021 2:30:00 PM 11.7 53.06 0.326 8.05 15.52 10.58
3/29/2021 2:45:00 PM 11.76 53.168 0.322 8.05 13.05 10.59
3/29/2021 3:00:00 PM 11.87 53.366 0.323 8.06 15.46 10.59
3/29/2021 3:15:00 PM 11.91 53.438 0.32 8.06 18.05 10.61
3/29/2021 3:30:00 PM 12 53.6 0.324 8.07 14.12 10.61
3/29/2021 3:45:00 PM 12.04 53.672 0.317 8.08 18.72 10.62
3/29/2021 4:00:00 PM 12.12 53.816 0.322 8.09 15.93 10.62
3/29/2021 4:15:00 PM 12.1 53.78 0.321 8.09 15.68 10.62
3/29/2021 4:30:00 PM 12.18 53.924 0.32 8.1 16.85 10.62
3/29/2021 4:45:00 PM 12.2 53.96 0.32 8.1 19.58 10.62
3/29/2021 5:00:00 PM 12.22 53.996 0.319 8.11 15.92 10.61
3/29/2021 5:15:00 PM 12.24 54.032 0.317 8.11 16.25 10.61
3/29/2021 5:30:00 PM 12.2 53.96 0.318 8.12 14.36 10.58
3/29/2021 5:45:00 PM 12.19 53.942 0.317 8.12 17.57 10.56
3/29/2021 6:00:00 PM 12.14 53.852 0.321 8.12 15.8 10.52
3/29/2021 6:15:00 PM 12.08 53.744 0.288 8.13 14.11 10.48
3/29/2021 6:30:00 PM 12.03 53.654 0.32 8.13 17.38 10.46
3/29/2021 6:45:00 PM 11.99 53.582 0.316 8.12 18.94 10.41
3/29/2021 7:00:00 PM 11.96 53.528 0.319 8.12 16.23 10.35
3/29/2021 7:15:00 PM 11.93 53.474 0.316 8.13 19.91 10.33
3/29/2021 7:30:00 PM 11.92 53.456 0.318 8.13 16.09 10.29
3/29/2021 7:45:00 PM 11.9 53.42 0.317 8.13 20.97 10.28
3/29/2021 8:00:00 PM 11.9 53.42 0.318 8.13 19.2 10.26
3/29/2021 8:15:00 PM 11.88 53.384 0.319 8.13 15.4 10.25
3/29/2021 8:30:00 PM 11.88 53.384 0.318 8.12 14.3 10.25
3/29/2021 8:45:00 PM 11.87 53.366 0.317 8.13 16.03 10.25
3/29/2021 9:00:00 PM 11.85 53.33 0.317 8.13 20.18 10.24
3/29/2021 9:15:00 PM 11.83 53.294 0.284 8.14 17.28 10.26
3/29/2021 9:30:00 PM 11.81 53.258 0.317 8.14 16.96 10.28
3/29/2021 9:45:00 PM 11.79 53.222 0.317 8.15 16.94 10.28
3/29/2021 10:00:00 PM 11.74 53.132 0.312 8.15 16.85 10.29
3/29/2021 10:15:00 PM 11.71 53.078 0.312 8.15 17.55 10.29
3/29/2021 10:30:00 PM 11.68 53.024 0.252 8.15 17.97 10.3
3/29/2021 10:45:00 PM 11.64 52.952 0.315 8.15 17.18 10.3
3/29/2021 11:00:00 PM 11.61 52.898 0.315 8.15 15.09 10.3
3/29/2021 11:15:00 PM 11.56 52.808 0.275 8.15 14.93 10.3
3/29/2021 11:30:00 PM 11.52 52.736 0.277 8.14 16.17 10.3
3/29/2021 11:45:00 PM 11.46 52.628 0.268 8.14 13.19 10.3
3/30/2021 12:00:00 AM 11.42 52.556 0.302 8.13 16.64 10.3
3/30/2021 12:15:00 AM 11.37 52.466 0.255 8.13 17.49 10.27
3/30/2021 12:30:00 AM 11.3 52.34 0.29 8.11 14.83 10.26
3/30/2021 12:45:00 AM 11.26 52.268 0.298 8.1 17.42 10.25
3/30/2021 1:00:00 AM 11.21 52.178 0.285 8.1 15.44 10.24
3/30/2021 1:15:00 AM 11.16 52.088 0.261 8.09 18.02 10.22
3/30/2021 1:30:00 AM 11.11 51.998 0.259 8.09 17.97 10.2
3/30/2021 1:45:00 AM 11.06 51.908 0.273 8.08 13.19 10.2
3/30/2021 2:00:00 AM 11 51.8 0.296 8.07 17.89 10.19
3/30/2021 2:15:00 AM 10.94 51.692 0.306 8.06 17.25 10.17
3/30/2021 2:30:00 AM 10.89 51.602 0.286 8.05 16.26 10.18
3/30/2021 2:45:00 AM 10.83 51.494 0.3 8.04 13.45 10.15
3/30/2021 3:00:00 AM 10.78 51.404 0.308 8.03 14.9 10.12
3/30/2021 3:15:00 AM 10.72 51.296 0.261 8.03 12.85 10.12
3/30/2021 3:30:00 AM 10.68 51.224 0.304 8.02 13.36 10.1
3/30/2021 3:45:00 AM 10.62 51.116 0.292 8.01 14.38 10.08
3/30/2021 4:00:00 AM 10.58 51.044 0.304 8 13.88 10.06
3/30/2021 4:15:00 AM 10.53 50.954 0.274 8 13.29 10.08
3/30/2021 4:30:00 AM 10.46 50.828 0.272 8 14.02 10.07
3/30/2021 4:45:00 AM 10.42 50.756 0.3 7.99 12.24 10.06
3/30/2021 5:00:00 AM 10.37 50.666 0.279 7.99 11.47 10.07
3/30/2021 5:15:00 AM 10.32 50.576 0.275 7.98 12.25 10.05
3/30/2021 5:30:00 AM 10.26 50.468 0.299 7.98 13.97 10.04
3/30/2021 5:45:00 AM 10.22 50.396 0.274 7.97 13.48 10.05
3/30/2021 6:00:00 AM 10.17 50.306 0.297 7.97 12.25 10.03
3/30/2021 6:15:00 AM 10.13 50.234 0.26 7.96 11.94 10.04
3/30/2021 6:30:00 AM 10.08 50.144 0.28 7.95 15.49 10.02
3/30/2021 6:45:00 AM 10.05 50.09 0.289 7.95 11.76 10.02
3/30/2021 7:00:00 AM 10 50 0.292 7.95 12.76 10.03
3/30/2021 7:15:00 AM 9.97 49.946 0.279 7.95 13.39 10.03
3/30/2021 7:30:00 AM 9.93 49.874 0.285 7.94 11.72 10.03
3/30/2021 7:45:00 AM 9.89 49.802 0.275 7.94 14.76 10.02
3/30/2021 8:00:00 AM 9.86 49.748 0.294 7.94 11.99 10.07
3/30/2021 8:15:00 AM 9.86 49.748 0.288 7.94 11.69 10.08
3/30/2021 8:30:00 AM 9.85 49.73 0.28 7.94 11.29 10.11
3/30/2021 8:45:00 AM 9.85 49.73 0.265 7.94 13.43 10.14
3/30/2021 9:00:00 AM 9.86 49.748 0.302 7.93 12 10.18
3/30/2021 9:15:00 AM 9.89 49.802 0.272 7.94 12.6 10.23
3/30/2021 9:30:00 AM 9.92 49.856 0.269 7.95 13.92 10.29
3/30/2021 9:45:00 AM 9.95 49.91 0.272 7.95 13.25 10.33
3/30/2021 10:00:00 AM 10.02 50.036 0.249 7.96 13.66 10.39
3/30/2021 10:15:00 AM 10.07 50.126 0.254 7.96 12.02 10.43
3/30/2021 10:30:00 AM 10.13 50.234 0.256 7.97 12.34 10.47
3/30/2021 10:45:00 AM 10.19 50.342 0.257 7.97 14.1 10.5
3/30/2021 11:00:00 AM 10.26 50.468 0.271 7.98 11.91 10.55
3/30/2021 11:15:00 AM 10.32 50.576 0.285 7.97 13.67 10.58
3/30/2021 11:30:00 AM 10.4 50.72 0.267 7.98 12.86 10.59
3/30/2021 11:45:00 AM 10.51 50.918 0.271 7.98 11.33 10.63
3/30/2021 12:00:00 PM 10.6 51.08 0.292 7.99 11.89 10.66
3/30/2021 12:15:00 PM 10.72 51.296 0.287 7.99 11.36 10.67
3/30/2021 12:30:00 PM 10.85 51.53 0.271 8 13.21 10.69
3/30/2021 12:45:00 PM 10.97 51.746 0.288 8 13.05 10.71
3/30/2021 1:00:00 PM 11.1 51.98 0.275 8.01 11.94 10.71
3/30/2021 1:15:00 PM 11.25 52.25 0.29 8.01 13.53 10.73
3/30/2021 1:30:00 PM 11.41 52.538 0.256 8.02 11 10.75
3/30/2021 1:45:00 PM 11.54 52.772 0.269 8.03 10.46 10.76
3/30/2021 2:00:00 PM 11.67 53.006 0.268 8.03 12.13 10.78
3/30/2021 2:15:00 PM 11.82 53.276 0.276 8.04 11.42 10.77
3/30/2021 2:30:00 PM 11.94 53.492 0.262 8.05 13.11 10.79
3/30/2021 2:45:00 PM 12.07 53.726 0.269 8.05 10.68 10.79
3/30/2021 3:00:00 PM 12.15 53.87 0.267 8.06 13.24 10.82
3/30/2021 3:15:00 PM 12.24 54.032 0.264 8.07 12.14 10.82
3/30/2021 3:30:00 PM 12.31 54.158 0.276 8.07 11.7 10.83
3/30/2021 3:45:00 PM 12.39 54.302 0.28 8.08 13.07 10.84
3/30/2021 4:00:00 PM 12.45 54.41 0.295 8.09 10.48 10.82
3/30/2021 4:15:00 PM 12.5 54.5 0.3 8.11 10.27 10.82
3/30/2021 4:30:00 PM 12.53 54.554 0.283 8.12 11.22 10.82
3/30/2021 4:45:00 PM 12.55 54.59 0.277 8.13 9.83 10.8
3/30/2021 5:00:00 PM 12.54 54.572 0.268 8.15 11.4 10.8
3/30/2021 5:15:00 PM 12.58 54.644 0.274 8.16 10.81 10.79
3/30/2021 5:30:00 PM 12.57 54.626 0.266 8.16 10.98 10.75
3/30/2021 5:45:00 PM 12.52 54.536 0.278 8.17 10.43 10.74
3/30/2021 6:00:00 PM 12.49 54.482 0.272 8.17 10.42 10.7
3/30/2021 6:15:00 PM 12.46 54.428 0.27 8.18 12.27 10.65
3/30/2021 6:30:00 PM 12.42 54.356 0.282 8.17 11.89 10.56
3/30/2021 6:45:00 PM 12.39 54.302 0.283 8.17 12.1 10.5
3/30/2021 7:00:00 PM 12.38 54.284 0.276 8.17 11.03 10.42
3/30/2021 7:15:00 PM 12.37 54.266 0.28 8.17 9.97 10.37
3/30/2021 7:30:00 PM 12.38 54.284 0.279 8.17 11.99 10.32
3/30/2021 7:45:00 PM 12.38 54.284 0.246 8.17 11.86 10.26
3/30/2021 8:00:00 PM 12.39 54.302 0.288 8.16 9 10.21
3/30/2021 8:15:00 PM 12.4 54.32 0.29 8.16 10.36 10.16
3/30/2021 8:30:00 PM 12.41 54.338 0.289 8.16 10.94 10.12
3/30/2021 8:45:00 PM 12.44 54.392 0.288 8.16 11.87 10.1
3/30/2021 9:00:00 PM 12.45 54.41 0.247 8.15 12.97 10.1
3/30/2021 9:15:00 PM 12.47 54.446 0.278 8.15 10.05 10.1
3/30/2021 9:30:00 PM 12.48 54.464 0.3 8.16 13.57 10.1
3/30/2021 9:45:00 PM 12.49 54.482 0.294 8.16 12.18 10.1
3/30/2021 10:00:00 PM 12.51 54.518 0.246 8.16 11.12 10.12
3/30/2021 10:15:00 PM 12.5 54.5 0.286 8.16 11.25 10.1
3/30/2021 10:30:00 PM 12.51 54.518 0.286 8.17 16.11 10.1
3/30/2021 10:45:00 PM 12.5 54.5 0.283 8.18 14.3 10.11
3/30/2021 11:00:00 PM 12.49 54.482 0.278 8.19 12.48 10.12
3/30/2021 11:15:00 PM 12.46 54.428 0.268 8.2 13.33 10.12
3/30/2021 11:30:00 PM 12.45 54.41 0.286 8.2 13.53 10.09
3/30/2021 11:45:00 PM 12.42 54.356 0.291 8.2 13.26 10.1
3/31/2021 12:00:00 AM 12.4 54.32 0.293 8.2 14.91 10.1
3/31/2021 12:15:00 AM 12.37 54.266 0.295 8.19 11.27 10.09
3/31/2021 12:30:00 AM 12.33 54.194 0.263 8.2 11.16 10.1
3/31/2021 12:45:00 AM 12.29 54.122 0.267 8.19 14.99 10.1
3/31/2021 1:00:00 AM 12.25 54.05 0.275 8.19 11.86 10.07
3/31/2021 1:15:00 AM 12.22 53.996 0.268 8.18 10.2 10.05
3/31/2021 1:30:00 AM 12.18 53.924 0.262 8.18 11.73 10.06
3/31/2021 1:45:00 AM 12.14 53.852 0.276 8.17 10.89 10.03
3/31/2021 2:00:00 AM 12.09 53.762 0.255 8.16 11.68 10.01
3/31/2021 2:15:00 AM 12.05 53.69 0.281 8.15 12.07 10
3/31/2021 2:30:00 AM 12.01 53.618 0.272 8.15 11.58 9.99
3/31/2021 2:45:00 AM 11.97 53.546 0.276 8.14 12.39 9.96
3/31/2021 3:00:00 AM 11.93 53.474 0.277 8.13 12.42 9.95
3/31/2021 3:15:00 AM 11.89 53.402 0.276 8.12 12.71 9.94
3/31/2021 3:30:00 AM 11.86 53.348 0.257 8.11 16.95 9.91
3/31/2021 3:45:00 AM 11.82 53.276 0.254 8.1 12.44 9.9
3/31/2021 4:00:00 AM 11.79 53.222 0.27 8.09 11.46 9.87
3/31/2021 4:15:00 AM 11.76 53.168 0.271 8.08 14.21 9.84
3/31/2021 4:30:00 AM 11.73 53.114 0.237 8.06 13.81 9.84
3/31/2021 4:45:00 AM 11.69 53.042 0.252 8.05 13.71 9.82
3/31/2021 5:00:00 AM 11.65 52.97 0.257 8.04 12.56 9.78
3/31/2021 5:15:00 AM 11.61 52.898 0.257 8.03 13.51 9.78
3/31/2021 5:30:00 AM 11.57 52.826 0.255 8.03 18.5 9.75
3/31/2021 5:45:00 AM 11.53 52.754 0.245 8.02 13.39 9.74
3/31/2021 6:00:00 AM 11.5 52.7 0.282 8.01 17.18 9.73
3/31/2021 6:15:00 AM 11.46 52.628 0.283 8.01 3.62 9.72
3/31/2021 6:30:00 AM 11.43 52.574 0.3 8 4.78 9.7
3/31/2021 6:45:00 AM 11.4 52.52 0.28 8 4.08 9.67
3/31/2021 7:00:00 AM 11.36 52.448 0.27 7.99 4.67 9.66
3/31/2021 7:15:00 AM 11.33 52.394 0.27 7.98 4.73 9.66
3/31/2021 7:30:00 AM 11.31 52.358 0.284 7.98 3.86 9.67
3/31/2021 7:45:00 AM 11.29 52.322 0.266 7.98 3.84 9.69
3/31/2021 8:00:00 AM 11.29 52.322 0.256 7.98 4.26 9.72
3/31/2021 8:15:00 AM 11.3 52.34 0.263 7.99 3.89 9.78
3/31/2021 8:30:00 AM 11.32 52.376 0.286 7.99 3.95 9.83
3/31/2021 8:45:00 AM 11.35 52.43 0.262 8 3.92 9.9
3/31/2021 9:00:00 AM 11.38 52.484 0.257 8.01 4.07 9.97
3/31/2021 9:15:00 AM 11.42 52.556 0.289 8.01 4.43 10.03
3/31/2021 9:30:00 AM 11.48 52.664 0.268 8.02 3.99 10.1
3/31/2021 9:45:00 AM 11.56 52.808 0.277 8.03 3.61 10.18
3/31/2021 10:00:00 AM 11.6 52.88 0.272 8.04 4.58 10.23
3/31/2021 10:15:00 AM 11.65 52.97 0.261 8.05 5.9 10.28
3/31/2021 10:30:00 AM 11.69 53.042 0.263 8.05 4.61 10.3
3/31/2021 10:45:00 AM 11.74 53.132 0.267 8.06 4.97 10.34
3/31/2021 11:00:00 AM 11.77 53.186 0.251 8.06 4.45 10.34
3/31/2021 11:15:00 AM 11.76 53.168 0.257 8.06 5 10.32
3/31/2021 11:30:00 AM 11.74 53.132 0.262 8.06 4.93 10.28
3/31/2021 11:45:00 AM 11.71 53.078 0.251 8.06 4.23 10.22
3/31/2021 12:00:00 PM 11.69 53.042 0.249 8.05 4.44 10.18
3/31/2021 12:15:00 PM 11.66 52.988 0.242 8.04 4.29 10.12
3/31/2021 12:30:00 PM 11.64 52.952 0.274 8.04 4.54 10.04
3/31/2021 12:45:00 PM 11.63 52.934 0.282 8.03 4.65 10.01
3/31/2021 1:00:00 PM 11.64 52.952 0.268 8.02 4.39 10.02
3/31/2021 1:15:00 PM 11.65 52.97 0.255 8.02 8.69 9.99
3/31/2021 1:30:00 PM 11.66 52.988 0.261 8.02 8.58 10
3/31/2021 1:45:00 PM 11.69 53.042 0.263 8.02 9.25 10.01
3/31/2021 2:00:00 PM 11.71 53.078 0.261 8.02 8.88 10.04
3/31/2021 2:15:00 PM 11.72 53.096 0.257 8.02 8.68 10.01
3/31/2021 2:30:00 PM 11.74 53.132 0.249 8.02 10.35 10.02
3/31/2021 2:45:00 PM 11.75 53.15 0.246 8.02 9 10.01
3/31/2021 3:00:00 PM 11.78 53.204 0.248 8.02 8.72 9.98
3/31/2021 3:15:00 PM 11.8 53.24 0.254 8.02 8.88 9.97
3/31/2021 3:30:00 PM 11.82 53.276 0.284 8.03 9.91 9.98
3/31/2021 3:45:00 PM 11.85 53.33 0.259 8.03 9.09 9.98
3/31/2021 4:00:00 PM 11.87 53.366 0.243 8.03 9.03 9.98
3/31/2021 4:15:00 PM 11.9 53.42 0.257 8.05 8.93 10
3/31/2021 4:30:00 PM 11.94 53.492 0.266 8.06 9.23 10.04
3/31/2021 4:45:00 PM 11.95 53.51 0.255 8.06 8.95 10.02
3/31/2021 5:00:00 PM 11.96 53.528 0.243 8.06 9.16 9.99
3/31/2021 5:15:00 PM 11.98 53.564 0.243 8.07 8.91 9.98
3/31/2021 5:30:00 PM 11.99 53.582 0.24 8.06 9.01 9.95
3/31/2021 5:45:00 PM 12 53.6 0.248 8.06 8.81 9.91
3/31/2021 6:00:00 PM 12.01 53.618 0.249 8.07 8.79 9.89
3/31/2021 6:15:00 PM 12.02 53.636 0.262 8.07 8.68 9.91
3/31/2021 6:30:00 PM 12.03 53.654 0.265 8.07 8.62 9.91
3/31/2021 6:45:00 PM 12.03 53.654 0.274 8.07 9 9.92
3/31/2021 7:00:00 PM 12.03 53.654 0.247 8.08 8.47 9.92
3/31/2021 7:15:00 PM 12.03 53.654 0.246 8.08 8.02 9.9
3/31/2021 7:30:00 PM 12.02 53.636 0.254 8.08 8.68 9.91
3/31/2021 7:45:00 PM 12.01 53.618 0.255 8.08 9.06 9.88
3/31/2021 8:00:00 PM 11.99 53.582 0.227 8.07 8.94 9.85
3/31/2021 8:15:00 PM 11.98 53.564 0.231 8.07 9.21 9.85
3/31/2021 8:30:00 PM 11.97 53.546 0.263 8.07 8.67 9.81
3/31/2021 8:45:00 PM 11.95 53.51 0.286 8.06 9.14 9.8
3/31/2021 9:00:00 PM 11.93 53.474 0.273 8.06 9.2 9.8
3/31/2021 9:15:00 PM 11.92 53.456 0.282 8.06 8.47 9.8
3/31/2021 9:30:00 PM 11.91 53.438 0.262 8.06 9.57 9.8
3/31/2021 9:45:00 PM 11.91 53.438 0.289 8.06 9.78 9.76
3/31/2021 10:00:00 PM 11.9 53.42 0.265 8.05 9.07 9.78
3/31/2021 10:15:00 PM 11.88 53.384 0.265 8.05 9.57 9.78
3/31/2021 10:30:00 PM 11.87 53.366 0.252 8.05 9.71 9.78
3/31/2021 10:45:00 PM 11.85 53.33 0.238 8.04 8.48 9.78
3/31/2021 11:00:00 PM 11.83 53.294 0.244 8.04 10.09 9.78
3/31/2021 11:15:00 PM 11.8 53.24 0.231 8.04 9.13 9.78
3/31/2021 11:30:00 PM 11.76 53.168 0.24 8.04 9.93 9.79
3/31/2021 11:45:00 PM 11.73 53.114 0.246 8.04 9.62 9.77
4/1/2021 12:00:00 AM 11.68 53.024 0.269 8.04 9.72 9.78
4/1/2021 12:15:00 AM 11.63 52.934 0.273 8.03 10.06 9.77
4/1/2021 12:30:00 AM 11.59 52.862 0.272 8.03 10.34 9.74
4/1/2021 12:45:00 AM 11.56 52.808 0.265 8.03 12.07 9.75
4/1/2021 1:00:00 AM 11.5 52.7 0.269 8.03 10.44 9.72
4/1/2021 1:15:00 AM 11.47 52.646 0.27 8.02 10.52 9.75
4/1/2021 1:30:00 AM 11.44 52.592 0.274 8.02 10.19 9.75
4/1/2021 1:45:00 AM 11.39 52.502 0.271 8.01 9.24 9.73
4/1/2021 2:00:00 AM 11.35 52.43 0.276 8 9.39 9.72
4/1/2021 2:15:00 AM 11.32 52.376 0.28 8 9.57 9.72
4/1/2021 2:30:00 AM 11.27 52.286 0.28 7.99 10.23 9.71
4/1/2021 2:45:00 AM 11.22 52.196 0.281 7.99 10.6 9.7
4/1/2021 3:00:00 AM 11.18 52.124 0.282 7.99 10.47 9.7
4/1/2021 3:15:00 AM 11.12 52.016 0.273 7.98 10.04 9.7
4/1/2021 3:30:00 AM 11.09 51.962 0.265 7.98 9.83 9.67
4/1/2021 3:45:00 AM 11.05 51.89 0.28 7.98 11.81 9.69
4/1/2021 4:00:00 AM 11.02 51.836 0.276 7.97 11.74 9.69
4/1/2021 4:15:00 AM 10.98 51.764 0.277 7.97 9.57 9.68
4/1/2021 4:30:00 AM 10.94 51.692 0.281 7.97 9.98 9.69
4/1/2021 4:45:00 AM 10.9 51.62 0.271 7.96 10.96 9.7
4/1/2021 5:00:00 AM 10.85 51.53 0.276 7.96 10.78 9.71
4/1/2021 5:15:00 AM 10.81 51.458 0.261 7.96 10.43 9.7
4/1/2021 5:30:00 AM 10.76 51.368 0.257 7.96 10.03 9.68
4/1/2021 5:45:00 AM 10.73 51.314 0.311 7.95 10.69 9.69
4/1/2021 6:00:00 AM 10.69 51.242 0.274 7.95 9.12 9.68
4/1/2021 6:15:00 AM 10.66 51.188 0.275 7.95 10.04 9.68
4/1/2021 6:30:00 AM 10.63 51.134 0.308 7.94 10.37 9.67
4/1/2021 6:45:00 AM 10.59 51.062 0.292 7.94 10.87 9.67
4/1/2021 7:00:00 AM 10.57 51.026 0.3 7.94 11.07 9.68
4/1/2021 7:15:00 AM 10.54 50.972 0.311 7.94 10.68 9.68
4/1/2021 7:30:00 AM 10.49 50.882 0.312 7.93 10.4 9.68
4/1/2021 7:45:00 AM 10.47 50.846 0.313 7.93 10.1 9.68
4/1/2021 8:00:00 AM 10.44 50.792 0.31 7.93 10.31 9.71
4/1/2021 8:15:00 AM 10.41 50.738 0.309 7.93 11.01 9.71
4/1/2021 8:30:00 AM 10.39 50.702 0.305 7.94 10.76 9.76
4/1/2021 8:45:00 AM 10.38 50.684 0.307 7.94 10.93 9.8
4/1/2021 9:00:00 AM 10.37 50.666 0.311 7.94 12.42 9.85
4/1/2021 9:15:00 AM 10.38 50.684 0.305 7.95 11.51 9.94
4/1/2021 9:30:00 AM 10.37 50.666 0.31 7.96 11.11 10.01
4/1/2021 9:45:00 AM 10.4 50.72 0.306 7.96 12 10.09
4/1/2021 10:00:00 AM 10.39 50.702 0.309 7.97 13.74 10.15
4/1/2021 10:15:00 AM 10.42 50.756 0.295 7.98 11.52 10.21
4/1/2021 10:30:00 AM 10.47 50.846 0.252 7.99 13.74 10.26
4/1/2021 10:45:00 AM 10.51 50.918 0.249 7.99 11.48 10.3
4/1/2021 11:00:00 AM 10.5 50.9 0.253 7.99 11.07 10.33
4/1/2021 11:15:00 AM 10.51 50.918 0.243 8 12.37 10.35
4/1/2021 11:30:00 AM 10.51 50.918 0.24 8 11.44 10.38
4/1/2021 11:45:00 AM 10.48 50.864 0.241 8 12.45 10.38
4/1/2021 12:00:00 PM 10.42 50.756 0.263 8 13.55 10.36
4/1/2021 12:15:00 PM 10.39 50.702 0.254 8.01 13.67 10.35
4/1/2021 12:30:00 PM 10.37 50.666 0.238 8 12.8 10.34
4/1/2021 12:45:00 PM 10.36 50.648 0.264 8 13.22 10.35
4/1/2021 1:00:00 PM 10.39 50.702 0.264 8.01 12.84 10.36
4/1/2021 1:15:00 PM 10.54 50.972 0.254 8.01 13.36 10.42
4/1/2021 1:30:00 PM 10.58 51.044 0.255 8.02 14.28 10.47
4/1/2021 1:45:00 PM 10.57 51.026 0.26 8.02 12.24 10.49
4/1/2021 2:00:00 PM 10.54 50.972 0.267 8.02 13.13 10.5
4/1/2021 2:15:00 PM 10.52 50.936 0.265 8.03 12.58 10.5
4/1/2021 2:30:00 PM 10.52 50.936 0.272 8.03 13.88 10.51
4/1/2021 2:45:00 PM 10.46 50.828 0.25 8.03 13.56 10.5
4/1/2021 3:00:00 PM 10.45 50.81 0.277 8.04 12.79 10.52
4/1/2021 3:15:00 PM 10.43 50.774 0.255 8.04 14.9 10.53
4/1/2021 3:30:00 PM 10.4 50.72 0.252 8.05 14.38 10.52
4/1/2021 3:45:00 PM 10.41 50.738 0.276 8.06 13.84 10.54
4/1/2021 4:00:00 PM 10.45 50.81 0.278 8.07 14.89 10.57
4/1/2021 4:15:00 PM 10.47 50.846 0.287 8.08 14.64 10.62
4/1/2021 4:30:00 PM 10.45 50.81 0.285 8.08 15.07 10.66
4/1/2021 4:45:00 PM 10.45 50.81 0.285 8.09 14.46 10.71
4/1/2021 5:00:00 PM 10.39 50.702 0.267 8.11 15.5 10.7
4/1/2021 5:15:00 PM 10.39 50.702 0.257 8.11 14.07 10.73
4/1/2021 5:30:00 PM 10.3 50.54 0.243 8.12 13.47 10.72
4/1/2021 5:45:00 PM 10.23 50.414 0.245 8.12 13.34 10.7
4/1/2021 6:00:00 PM 10.16 50.288 0.234 8.12 16.92 10.7
4/1/2021 6:15:00 PM 10.06 50.108 0.246 8.12 12.81 10.67
4/1/2021 6:30:00 PM 10 50 0.252 8.12 13.17 10.64
4/1/2021 6:45:00 PM 9.93 49.874 0.239 8.12 13.49 10.65
4/1/2021 7:00:00 PM 9.88 49.784 0.291 8.12 14.31 10.66
4/1/2021 7:15:00 PM 9.84 49.712 0.299 8.12 14.68 10.64
4/1/2021 7:30:00 PM 9.8 49.64 0.245 8.13 15.24 10.64
4/1/2021 7:45:00 PM 9.78 49.604 0.278 8.12 14.27 10.63
4/1/2021 8:00:00 PM 9.73 49.514 0.248 8.12 15 10.64
4/1/2021 8:15:00 PM 9.67 49.406 0.272 8.12 15.23 10.63
4/1/2021 8:30:00 PM 9.62 49.316 0.226 8.12 16.1 10.63
4/1/2021 8:45:00 PM 9.56 49.208 0.273 8.11 14.33 10.66
4/1/2021 9:00:00 PM 9.51 49.118 0.234 8.1 14.09 10.66
4/1/2021 9:15:00 PM 9.46 49.028 0.265 8.11 15.65 10.67
4/1/2021 9:30:00 PM 9.42 48.956 0.234 8.11 13.86 10.68
4/1/2021 9:45:00 PM 9.37 48.866 0.269 8.11 14.81 10.69
4/1/2021 10:00:00 PM 9.3 48.74 0.234 8.1 14.49 10.71
4/1/2021 10:15:00 PM 9.27 48.686 0.237 8.11 15.24 10.71
4/1/2021 10:30:00 PM 9.21 48.578 0.247 8.11 14.54 10.73
4/1/2021 10:45:00 PM 9.15 48.47 0.242 8.11 14.74 10.73
4/1/2021 11:00:00 PM 9.1 48.38 0.241 8.11 14.65 10.73
4/1/2021 11:15:00 PM 9.06 48.308 0.253 8.11 14.12 10.72
4/1/2021 11:30:00 PM 9.03 48.254 0.246 8.1 15.22 10.74
4/1/2021 11:45:00 PM 8.98 48.164 0.245 8.1 14.15 10.74
4/2/2021 12:00:00 AM 8.97 48.146 0.265 8.09 22.41 10.73
4/2/2021 12:15:00 AM 8.93 48.074 0.256 8.09 15.77 10.73
4/2/2021 12:30:00 AM 8.87 47.966 0.287 8.09 15.38 10.73
4/2/2021 12:45:00 AM 8.82 47.876 0.282 8.08 14.81 10.72
4/2/2021 1:00:00 AM 8.78 47.804 0.281 8.07 16.48 10.71
4/2/2021 1:15:00 AM 8.76 47.768 0.26 8.07 14.21 10.7
4/2/2021 1:30:00 AM 8.71 47.678 0.269 8.06 15.23 10.69
4/2/2021 1:45:00 AM 8.66 47.588 0.269 8.06 16.28 10.69
4/2/2021 2:00:00 AM 8.61 47.498 0.274 8.05 14.42 10.69
4/2/2021 2:15:00 AM 8.56 47.408 0.256 8.04 14.98 10.68
4/2/2021 2:30:00 AM 8.5 47.3 0.263 8.04 14.98 10.68
4/2/2021 2:45:00 AM 8.46 47.228 0.257 8.03 15.71 10.67
4/2/2021 3:00:00 AM 8.38 47.084 0.268 8.02 14.68 10.65
4/2/2021 3:15:00 AM 8.33 46.994 0.243 8.02 15.31 10.65
4/2/2021 3:30:00 AM 8.25 46.85 0.245 8.01 16.67 10.67
4/2/2021 3:45:00 AM 8.21 46.778 0.224 8.01 15.87 10.67
4/2/2021 4:00:00 AM 8.14 46.652 0.225 8 15.46 10.67
4/2/2021 4:15:00 AM 8.07 46.526 0.241 8 14.87 10.65
4/2/2021 4:30:00 AM 8.03 46.454 0.231 7.99 14.74 10.67
4/2/2021 4:45:00 AM 7.96 46.328 0.231 7.99 15.34 10.68
4/2/2021 5:00:00 AM 7.92 46.256 0.225 7.98 15.44 10.66
4/2/2021 5:15:00 AM 7.86 46.148 0.229 7.98 15.52 10.67
4/2/2021 5:30:00 AM 7.83 46.094 0.22 7.98 15.55 10.68
4/2/2021 5:45:00 AM 7.79 46.022 0.263 7.97 15.98 10.68
4/2/2021 6:00:00 AM 7.76 45.968 0.249 7.97 15.77 10.68
4/2/2021 6:15:00 AM 7.72 45.896 0.245 7.96 14.53 10.7
4/2/2021 6:30:00 AM 7.66 45.788 0.252 7.96 15.61 10.71
4/2/2021 6:45:00 AM 7.6 45.68 0.256 7.96 15.95 10.71
4/2/2021 7:00:00 AM 7.55 45.59 0.284 7.95 16.76 10.73
4/2/2021 7:15:00 AM 7.52 45.536 0.263 7.95 16.3 10.74
4/2/2021 7:30:00 AM 7.47 45.446 0.248 7.95 15.98 10.77
4/2/2021 7:45:00 AM 7.44 45.392 0.264 7.95 16.22 10.8
4/2/2021 8:00:00 AM 7.38 45.284 0.29 7.95 15.77 10.82
4/2/2021 8:15:00 AM 7.33 45.194 0.29 7.95 16.62 10.86
4/2/2021 8:30:00 AM 7.29 45.122 0.256 7.95 15.58 10.9
4/2/2021 8:45:00 AM 7.26 45.068 0.259 7.95 16.01 10.93
4/2/2021 9:00:00 AM 7.23 45.014 0.266 7.95 15.6 10.97
4/2/2021 9:15:00 AM 7.19 44.942 0.279 7.95 14.94 11.01
4/2/2021 9:30:00 AM 7.18 44.924 0.284 7.95 15.87 11.05
4/2/2021 9:45:00 AM 7.17 44.906 0.274 7.95 15.86 11.11
4/2/2021 10:00:00 AM 7.17 44.906 0.28 7.96 16.15 11.13
4/2/2021 10:15:00 AM 7.17 44.906 0.283 7.97 15.62 11.19
4/2/2021 10:30:00 AM 7.17 44.906 0.285 7.97 16.26 11.22
4/2/2021 10:45:00 AM 7.2 44.96 0.286 7.97 15.75 11.26
4/2/2021 11:00:00 AM 7.24 45.032 0.275 7.97 16.29 11.29
4/2/2021 11:15:00 AM 7.28 45.104 0.259 7.97 16.28 11.34
4/2/2021 11:30:00 AM 7.31 45.158 0.281 7.98 16.54 11.35
4/2/2021 11:45:00 AM 7.39 45.302 0.282 7.98 15.96 11.38
4/2/2021 12:00:00 PM 7.44 45.392 0.281 7.98 16.43 11.41
4/2/2021 12:15:00 PM 7.5 45.5 0.28 7.99 16.74 11.41
4/2/2021 12:30:00 PM 7.59 45.662 0.28 7.99 15.57 11.44
4/2/2021 12:45:00 PM 7.68 45.824 0.263 7.99 17.17 11.47
4/2/2021 1:00:00 PM 7.76 45.968 0.249 8 17.81 11.5
4/2/2021 1:15:00 PM 7.88 46.184 0.274 8 18.13 11.5
4/2/2021 1:30:00 PM 7.99 46.382 0.267 8.01 17.48 11.52
4/2/2021 1:45:00 PM 8.08 46.544 0.266 8.02 18.03 11.55
4/2/2021 2:00:00 PM 8.2 46.76 0.254 8.03 16.73 11.58
4/2/2021 2:15:00 PM 8.31 46.958 0.28 8.03 16.82 11.6
4/2/2021 2:30:00 PM 8.41 47.138 0.28 8.04 17.44 11.61
4/2/2021 2:45:00 PM 8.53 47.354 0.281 8.05 16.84 11.63
4/2/2021 3:00:00 PM 8.59 47.462 0.27 8.06 17.96 11.63
4/2/2021 3:15:00 PM 8.58 47.444 0.269 8.06 18.62 11.63
4/2/2021 3:30:00 PM 8.61 47.498 0.268 8.07 17.69 11.63
4/2/2021 3:45:00 PM 8.7 47.66 0.229 8.08 18.15 11.63
4/2/2021 4:00:00 PM 8.75 47.75 0.231 8.09 17.67 11.64
4/2/2021 4:15:00 PM 8.83 47.894 0.247 8.11 17.89 11.64
4/2/2021 4:30:00 PM 8.84 47.912 0.229 8.12 17.22 11.67
4/2/2021 4:45:00 PM 8.9 48.02 0.26 8.13 16.53 11.67
4/2/2021 5:00:00 PM 8.93 48.074 0.241 8.14 18.1 11.68
4/2/2021 5:15:00 PM 8.92 48.056 0.256 8.15 16.58 11.65
4/2/2021 5:30:00 PM 8.92 48.056 0.233 8.15 16.58 11.64
4/2/2021 5:45:00 PM 8.88 47.984 0.232 8.15 16.59 11.64
4/2/2021 6:00:00 PM 8.84 47.912 0.237 8.16 17.31 11.61
4/2/2021 6:15:00 PM 8.79 47.822 0.24 8.16 16.61 11.58
4/2/2021 6:30:00 PM 8.75 47.75 0.248 8.16 15.71 11.54
4/2/2021 6:45:00 PM 8.7 47.66 0.233 8.16 14.75 11.5
4/2/2021 7:00:00 PM 8.66 47.588 0.234 8.16 15.13 11.47
4/2/2021 7:15:00 PM 8.63 47.534 0.267 8.16 16.75 11.44
4/2/2021 7:30:00 PM 8.59 47.462 0.269 8.16 15.82 11.38
4/2/2021 7:45:00 PM 8.58 47.444 0.265 8.16 15.51 11.37
4/2/2021 8:00:00 PM 8.59 47.462 0.256 8.16 15.51 11.35
4/2/2021 8:15:00 PM 8.59 47.462 0.236 8.16 15.12 11.34
4/2/2021 8:30:00 PM 8.58 47.444 0.256 8.16 15.77 11.3
4/2/2021 8:45:00 PM 8.57 47.426 0.254 8.16 17.13 11.31
4/2/2021 9:00:00 PM 8.55 47.39 0.265 8.16 15.83 11.31
4/2/2021 9:15:00 PM 8.5 47.3 0.254 8.16 17.8 11.33
4/2/2021 9:30:00 PM 8.48 47.264 0.239 8.17 16.11 11.33
4/2/2021 9:45:00 PM 8.45 47.21 0.259 8.16 16.18 11.33
4/2/2021 10:00:00 PM 8.4 47.12 0.267 8.17 16.25 11.35
4/2/2021 10:15:00 PM 8.35 47.03 0.27 8.17 15.95 11.34
4/2/2021 10:30:00 PM 8.31 46.958 0.267 8.16 15.95 11.33
4/2/2021 10:45:00 PM 8.25 46.85 0.257 8.16 17.6 11.35
4/2/2021 11:00:00 PM 8.21 46.778 0.274 8.16 16.02 11.35
4/2/2021 11:15:00 PM 8.16 46.688 0.262 8.16 17.64 11.34
4/2/2021 11:30:00 PM 8.11 46.598 0.261 8.15 15.75 11.34
4/2/2021 11:45:00 PM 8.07 46.526 0.246 8.15 17.14 11.34
4/3/2021 12:00:00 AM 8.03 46.454 0.249 8.14 17.77 11.34
4/3/2021 12:15:00 AM 7.98 46.364 0.267 8.14 16.47 11.33
4/3/2021 12:30:00 AM 7.94 46.292 0.273 8.12 16.7 11.32
4/3/2021 12:45:00 AM 7.88 46.184 0.264 8.12 15.94 11.32
4/3/2021 1:00:00 AM 7.82 46.076 0.264 8.11 15.67 11.29
4/3/2021 1:15:00 AM 7.77 45.986 0.241 8.1 15.62 11.29
4/3/2021 1:30:00 AM 7.72 45.896 0.251 8.1 15.49 11.28
4/3/2021 1:45:00 AM 7.67 45.806 0.245 8.09 16.07 11.27
4/3/2021 2:00:00 AM 7.62 45.716 0.249 8.08 15.36 11.26
4/3/2021 2:15:00 AM 7.58 45.644 0.265 8.07 17.07 11.25
4/3/2021 2:30:00 AM 7.52 45.536 0.255 8.06 17.78 11.24
4/3/2021 2:45:00 AM 7.48 45.464 0.258 8.05 16.04 11.21
4/3/2021 3:00:00 AM 7.44 45.392 0.265 8.05 16.37 11.2
4/3/2021 3:15:00 AM 7.39 45.302 0.256 8.04 16.26 11.19
4/3/2021 3:30:00 AM 7.35 45.23 0.243 8.03 20.47 11.19
4/3/2021 3:45:00 AM 7.3 45.14 0.246 8.02 15.19 11.18
4/3/2021 4:00:00 AM 7.27 45.086 0.265 8.02 14.91 11.17
4/3/2021 4:15:00 AM 7.22 44.996 0.268 8.01 15.31 11.16
4/3/2021 4:30:00 AM 7.2 44.96 0.265 8 16.01 11.15
4/3/2021 4:45:00 AM 7.15 44.87 0.27 8 14.86 11.15
4/3/2021 5:00:00 AM 7.11 44.798 0.244 7.99 16.83 11.14
4/3/2021 5:15:00 AM 7.07 44.726 0.259 7.99 15.64 11.13
4/3/2021 5:30:00 AM 7.03 44.654 0.256 7.98 15.37 11.13
4/3/2021 5:45:00 AM 7 44.6 0.237 7.98 15.47 11.13
4/3/2021 6:00:00 AM 6.95 44.51 0.243 7.98 15.48 11.13
4/3/2021 6:15:00 AM 6.91 44.438 0.236 7.97 15.3 11.11
4/3/2021 6:30:00 AM 6.88 44.384 0.238 7.97 15.81 11.11
4/3/2021 6:45:00 AM 6.83 44.294 0.237 7.96 15.55 11.11
4/3/2021 7:00:00 AM 6.8 44.24 0.279 7.96 15.6 11.12
4/3/2021 7:15:00 AM 6.76 44.168 0.265 7.96 20.9 11.13
4/3/2021 7:30:00 AM 6.72 44.096 0.26 7.95 16.6 11.12
4/3/2021 7:45:00 AM 6.71 44.078 0.255 7.95 16.37 11.15
4/3/2021 8:00:00 AM 6.7 44.06 0.258 7.95 16.16 11.17
4/3/2021 8:15:00 AM 6.68 44.024 0.256 7.95 15.55 11.21
4/3/2021 8:30:00 AM 6.67 44.006 0.241 7.95 15.33 11.25
4/3/2021 8:45:00 AM 6.68 44.024 0.245 7.96 15.2 11.29
4/3/2021 9:00:00 AM 6.69 44.042 0.247 7.96 15.08 11.34
4/3/2021 9:15:00 AM 6.7 44.06 0.252 7.96 15.8 11.38
4/3/2021 9:30:00 AM 6.73 44.114 0.259 7.97 15.03 11.42
4/3/2021 9:45:00 AM 6.76 44.168 0.262 7.97 15.17 11.46
4/3/2021 10:00:00 AM 6.79 44.222 0.234 7.97 16.01 11.49
4/3/2021 10:15:00 AM 6.83 44.294 0.238 7.98 15.26 11.51
4/3/2021 10:30:00 AM 6.89 44.402 0.163 7.98 15.64 11.54
4/3/2021 10:45:00 AM 6.94 44.492 0.243 7.99 15.67 11.56
4/3/2021 11:00:00 AM 7.01 44.618 0.178 7.99 15.77 11.6
4/3/2021 11:15:00 AM 7.09 44.762 0.266 7.99 15.36 11.61
4/3/2021 11:30:00 AM 7.17 44.906 0.26 7.99 14.95 11.65
4/3/2021 11:45:00 AM 7.26 45.068 0.261 8 14.89 11.63
4/3/2021 12:00:00 PM 7.36 45.248 0.263 8 15.12 11.67
4/3/2021 12:15:00 PM 7.49 45.482 0.266 8.01 15.83 11.69
4/3/2021 12:30:00 PM 7.6 45.68 0.272 8.01 15.99 11.68
4/3/2021 12:45:00 PM 7.72 45.896 0.254 8.01 15.4 11.7
4/3/2021 1:00:00 PM 7.8 46.04 0.244 8.01 15.7 11.71
4/3/2021 1:15:00 PM 7.93 46.274 0.27 8.02 14.8 11.73
4/3/2021 1:30:00 PM 8.02 46.436 0.259 8.03 14.51 11.73
4/3/2021 1:45:00 PM 8.1 46.58 0.265 8.03 14.54 11.76
4/3/2021 2:00:00 PM 8.24 46.832 0.266 8.04 14.55 11.77
4/3/2021 2:15:00 PM 8.39 47.102 0.266 8.05 15 11.78
4/3/2021 2:30:00 PM 8.52 47.336 0.261 8.06 14.47 11.79
4/3/2021 2:45:00 PM 8.64 47.552 0.269 8.07 14.35 11.8
4/3/2021 3:00:00 PM 8.72 47.696 0.273 8.07 14.63 11.8
4/3/2021 3:15:00 PM 8.84 47.912 0.267 8.08 14.92 11.82
4/3/2021 3:30:00 PM 8.93 48.074 0.27 8.09 14.54 11.83
4/3/2021 3:45:00 PM 9.02 48.236 0.248 8.1 14.6 11.82
4/3/2021 4:00:00 PM 9.08 48.344 0.282 8.12 14.44 11.83
4/3/2021 4:15:00 PM 9.18 48.524 0.271 8.13 14.27 11.83
4/3/2021 4:30:00 PM 9.23 48.614 0.269 8.14 13.94 11.82
4/3/2021 4:45:00 PM 9.25 48.65 0.275 8.15 14.09 11.82
4/3/2021 5:00:00 PM 9.3 48.74 0.283 8.16 11.25 11.83
4/3/2021 5:15:00 PM 9.29 48.722 0.283 8.16 11.96 11.81
4/3/2021 5:30:00 PM 9.27 48.686 0.28 8.16 11 11.79
4/3/2021 5:45:00 PM 9.27 48.686 0.282 8.17 11.31 11.77
4/3/2021 6:00:00 PM 9.24 48.632 0.265 8.18 11.08 11.74
4/3/2021 6:15:00 PM 9.22 48.596 0.282 8.18 10.96 11.71
4/3/2021 6:30:00 PM 9.2 48.56 0.282 8.19 11.35 11.66
4/3/2021 6:45:00 PM 9.19 48.542 0.282 8.19 11.05 11.61
4/3/2021 7:00:00 PM 9.19 48.542 0.282 8.19 11.12 11.57
4/3/2021 7:15:00 PM 9.19 48.542 0.253 8.19 11.17 11.5
4/3/2021 7:30:00 PM 9.19 48.542 0.25 8.19 11.27 11.44
4/3/2021 7:45:00 PM 9.22 48.596 0.251 8.19 10.97 11.39
4/3/2021 8:00:00 PM 9.23 48.614 0.244 8.18 10.93 11.35
4/3/2021 8:15:00 PM 9.25 48.65 0.256 8.18 11.12 11.3
4/3/2021 8:30:00 PM 9.27 48.686 0.277 8.18 11.69 11.27
4/3/2021 8:45:00 PM 9.3 48.74 0.276 8.18 11.47 11.23
4/3/2021 9:00:00 PM 9.31 48.758 0.277 8.18 11.15 11.21
4/3/2021 9:15:00 PM 9.33 48.794 0.275 8.18 11.91 11.22
4/3/2021 9:30:00 PM 9.36 48.848 0.279 8.18 12.29 11.2
4/3/2021 9:45:00 PM 9.37 48.866 0.279 8.19 11.76 11.19
4/3/2021 10:00:00 PM 9.36 48.848 0.276 8.18 11.56 11.19
4/3/2021 10:15:00 PM 9.36 48.848 0.279 8.19 11.74 11.19
4/3/2021 10:30:00 PM 9.34 48.812 0.271 8.19 11.23 11.18
4/3/2021 10:45:00 PM 9.33 48.794 0.276 8.19 11.47 11.17
4/3/2021 11:00:00 PM 9.32 48.776 0.28 8.19 12.24 11.16
4/3/2021 11:15:00 PM 9.3 48.74 0.281 8.19 12.01 11.15
4/3/2021 11:30:00 PM 9.29 48.722 0.274 8.19 11.97 11.16
4/3/2021 11:45:00 PM 9.27 48.686 0.282 8.18 11.97 11.14
4/4/2021 12:00:00 AM 9.25 48.65 0.282 8.18 11.66 11.14
4/4/2021 12:15:00 AM 9.23 48.614 0.281 8.18 12.41 11.12
4/4/2021 12:30:00 AM 9.21 48.578 0.28 8.17 12.66 11.11
4/4/2021 12:45:00 AM 9.19 48.542 0.28 8.16 11.85 11.06
4/4/2021 1:00:00 AM 9.16 48.488 0.282 8.16 12.6 11.05
4/4/2021 1:15:00 AM 9.14 48.452 0.281 8.15 12.39 11.05
4/4/2021 1:30:00 AM 9.11 48.398 0.282 8.14 12.37 11.03
4/4/2021 1:45:00 AM 9.09 48.362 0.282 8.14 11.55 11
4/4/2021 2:00:00 AM 9.07 48.326 0.283 8.13 11.55 10.96
4/4/2021 2:15:00 AM 9.04 48.272 0.284 8.12 11.71 10.97
4/4/2021 2:30:00 AM 9 48.2 0.284 8.11 11.22 10.94
4/4/2021 2:45:00 AM 8.98 48.164 0.278 8.1 13.1 10.91
4/4/2021 3:00:00 AM 8.95 48.11 0.273 8.09 12.71 10.88
4/4/2021 3:15:00 AM 8.92 48.056 0.282 8.08 11.66 10.86
4/4/2021 3:30:00 AM 8.89 48.002 0.281 8.07 12.07 10.83
4/4/2021 3:45:00 AM 8.87 47.966 0.28 8.06 11.53 10.81
4/4/2021 4:00:00 AM 8.85 47.93 0.275 8.05 11.8 10.77
4/4/2021 4:15:00 AM 8.82 47.876 0.28 8.05 11.18 10.76
4/4/2021 4:30:00 AM 8.8 47.84 0.285 8.04 12.79 10.74
4/4/2021 4:45:00 AM 8.78 47.804 0.282 8.02 11.89 10.71
4/4/2021 5:00:00 AM 8.75 47.75 0.283 8.02 11.96 10.7
4/4/2021 5:15:00 AM 8.72 47.696 0.285 8.01 11.64 10.67
4/4/2021 5:30:00 AM 8.71 47.678 0.287 8 11.68 10.65
4/4/2021 5:45:00 AM 8.67 47.606 0.273 8 11.7 10.65
4/4/2021 6:00:00 AM 8.65 47.57 0.283 7.99 11.26 10.62
4/4/2021 6:15:00 AM 8.62 47.516 0.285 7.98 11.89 10.59
4/4/2021 6:30:00 AM 8.59 47.462 0.266 7.98 13.13 10.59
4/4/2021 6:45:00 AM 8.57 47.426 0.284 7.97 13.22 10.58
4/4/2021 7:00:00 AM 8.55 47.39 0.281 7.97 19.01 10.57
4/4/2021 7:15:00 AM 8.54 47.372 0.277 7.96 26.86 10.55
4/4/2021 7:30:00 AM 8.54 47.372 0.272 7.96 2023 10.56
4/4/2021 7:45:00 AM 8.54 47.372 0.273 7.96 65.02 10.56
4/4/2021 8:00:00 AM 8.55 47.39 0.279 7.95 33.82 10.59
4/4/2021 8:15:00 AM 8.57 47.426 0.275 7.96 25.89 10.63
4/4/2021 8:30:00 AM 8.57 47.426 0.277 7.95 17.35 10.67
4/4/2021 8:45:00 AM 8.59 47.462 0.278 7.96 14.02 10.72
4/4/2021 9:00:00 AM 8.62 47.516 0.289 7.96 10.62 10.76
4/4/2021 9:15:00 AM 8.65 47.57 0.289 7.97 8.81 10.81
4/4/2021 9:30:00 AM 8.7 47.66 0.273 7.97 7.2 10.85
4/4/2021 9:45:00 AM 8.75 47.75 0.267 7.98 6.01 10.92
4/4/2021 10:00:00 AM 8.81 47.858 0.269 7.98 4.81 10.95
4/4/2021 10:15:00 AM 8.88 47.984 0.259 7.99 3431 10.97
4/4/2021 10:30:00 AM 8.94 48.092 0.254 8 3440 11.01
4/4/2021 10:45:00 AM 9.04 48.272 0.263 8 3427 11.04
4/4/2021 11:00:00 AM 9.14 48.452 0.29 8.01 3535 11.06
4/4/2021 11:15:00 AM 9.23 48.614 0.286 8.02 3445 11.08
4/4/2021 11:30:00 AM 9.35 48.83 0.286 8.02 3454 11.07
4/4/2021 11:45:00 AM 9.47 49.046 0.285 8.03 3458 11.11
4/4/2021 12:00:00 PM 9.59 49.262 0.269 8.03 3467 11.13
4/4/2021 12:15:00 PM 9.71 49.478 0.297 8.04 3505 11.14
4/4/2021 12:30:00 PM 9.86 49.748 0.295 8.04 3495 11.14
4/4/2021 12:45:00 PM 10.01 50.018 0.292 8.04 3509 11.15
4/4/2021 1:00:00 PM 10.17 50.306 0.286 8.05 3497 11.14
4/4/2021 1:15:00 PM 10.32 50.576 0.295 8.06 3520 11.16
4/4/2021 1:30:00 PM 10.48 50.864 0.295 8.06 3507 11.17
4/4/2021 1:45:00 PM 10.62 51.116 0.296 8.07 3521 11.17
4/4/2021 2:00:00 PM 10.77 51.386 0.296 8.08 3505 11.21
4/4/2021 2:15:00 PM 10.91 51.638 0.295 8.09 3502 11.22
4/4/2021 2:30:00 PM 11.03 51.854 0.286 8.1 3509 11.21
4/4/2021 2:45:00 PM 11.15 52.07 0.296 8.11 3504 11.21
4/4/2021 3:00:00 PM 11.27 52.286 0.296 8.12 5.02 11.21
4/4/2021 3:15:00 PM 11.41 52.538 0.297 8.13 37.17 11.21
4/4/2021 3:30:00 PM 11.5 52.7 0.298 8.14 12.12 11.21
4/4/2021 3:45:00 PM 11.58 52.844 0.297 8.15 6.08 11.23
4/4/2021 4:00:00 PM 11.65 52.97 0.299 8.16 4.83 11.24
4/4/2021 4:15:00 PM 11.69 53.042 0.298 8.17 4.38 11.22
4/4/2021 4:30:00 PM 11.78 53.204 0.298 8.18 4.68 11.22
4/4/2021 4:45:00 PM 11.8 53.24 0.297 8.2 4.16 11.21
4/4/2021 5:00:00 PM 11.8 53.24 0.296 8.2 4.16 11.19
4/4/2021 5:15:00 PM 11.87 53.366 0.296 8.22 4.35 11.18
4/4/2021 5:30:00 PM 11.84 53.312 0.294 8.22 4.5 11.15
4/4/2021 5:45:00 PM 11.85 53.33 0.291 8.22 4.63 11.08
4/4/2021 6:00:00 PM 11.8 53.24 0.291 8.23 4.37 11.06
4/4/2021 6:15:00 PM 11.77 53.186 0.295 8.24 4.45 11.02
4/4/2021 6:30:00 PM 11.75 53.15 0.295 8.24 4.49 10.94
4/4/2021 6:45:00 PM 11.72 53.096 0.289 8.25 4.63 10.89
4/4/2021 7:00:00 PM 11.71 53.078 0.294 8.25 4.75 10.83
4/4/2021 7:15:00 PM 11.7 53.06 0.294 8.25 4.9 10.74
4/4/2021 7:30:00 PM 11.7 53.06 0.295 8.24 5.03 10.68
4/4/2021 7:45:00 PM 11.71 53.078 0.272 8.25 5.31 10.6
4/4/2021 8:00:00 PM 11.74 53.132 0.267 8.24 5.18 10.54
4/4/2021 8:15:00 PM 11.76 53.168 0.268 8.24 5.08 10.49
4/4/2021 8:30:00 PM 11.77 53.186 0.295 8.24 4.62 10.45
4/4/2021 8:45:00 PM 11.82 53.276 0.267 8.24 4.93 10.41
4/4/2021 9:00:00 PM 11.84 53.312 0.281 8.24 4.49 10.4
4/4/2021 9:15:00 PM 11.85 53.33 0.288 8.24 4.56 10.39
4/4/2021 9:30:00 PM 11.87 53.366 0.291 8.25 5.78 10.37
4/4/2021 9:45:00 PM 11.87 53.366 0.297 8.25 5.45 10.38
4/4/2021 10:00:00 PM 11.9 53.42 0.287 8.26 5.51 10.36
4/4/2021 10:15:00 PM 11.9 53.42 0.295 8.26 4.87 10.36
4/4/2021 10:30:00 PM 11.88 53.384 0.295 8.27 4.86 10.37
4/4/2021 10:45:00 PM 11.88 53.384 0.296 8.27 4.74 10.38
4/4/2021 11:00:00 PM 11.86 53.348 0.296 8.28 4.91 10.36
4/4/2021 11:15:00 PM 11.85 53.33 0.293 8.28 5.13 10.36
4/4/2021 11:30:00 PM 11.83 53.294 0.284 8.28 5.64 10.36
4/4/2021 11:45:00 PM 11.8 53.24 0.297 8.28 5.68 10.35
4/5/2021 12:00:00 AM 11.78 53.204 0.296 8.28 6.11 10.35
4/5/2021 12:15:00 AM 11.74 53.132 0.268 8.28 5.61 10.34
4/5/2021 12:30:00 AM 11.7 53.06 0.287 8.28 6.41 10.33
4/5/2021 12:45:00 AM 11.65 52.97 0.299 8.27 6.42 10.3
4/5/2021 1:00:00 AM 11.62 52.916 0.298 8.26 6.6 10.3
4/5/2021 1:15:00 AM 11.58 52.844 0.287 8.26 6.66 10.29
4/5/2021 1:30:00 AM 11.54 52.772 0.293 8.25 7.04 10.26
4/5/2021 1:45:00 AM 11.5 52.7 0.277 8.24 7.13 10.27
4/5/2021 2:00:00 AM 11.45 52.61 0.286 8.2 6.37 10.23
4/5/2021 2:15:00 AM 11.4 52.52 0.298 8.2 5.43 10.21
4/5/2021 2:30:00 AM 11.37 52.466 0.294 8.21 5.68 10.2
4/5/2021 2:45:00 AM 11.31 52.358 0.295 8.21 5.47 10.18
4/5/2021 3:00:00 AM 11.28 52.304 0.296 8.2 5.36 10.16
4/5/2021 3:15:00 AM 11.22 52.196 0.293 8.18 5.17 10.12
4/5/2021 3:30:00 AM 11.18 52.124 0.297 8.17 5.1 10.11
4/5/2021 3:45:00 AM 11.14 52.052 0.296 8.16 6.87 10.07
4/5/2021 4:00:00 AM 11.1 51.98 0.3 8.14 6.01 10.06
4/5/2021 4:15:00 AM 11.05 51.89 0.28 8.14 5.67 10.04
4/5/2021 4:30:00 AM 11.02 51.836 0.301 8.12 5.54 10.02
4/5/2021 4:45:00 AM 10.98 51.764 0.301 8.11 5.42 9.99
4/5/2021 5:00:00 AM 10.94 51.692 0.286 8.1 5.54 9.98
4/5/2021 5:15:00 AM 10.89 51.602 0.3 8.09 5.38 9.97
4/5/2021 5:30:00 AM 10.85 51.53 0.277 8.08 5.81 9.93
4/5/2021 5:45:00 AM 10.81 51.458 0.283 8.07 5.27 9.94
4/5/2021 6:00:00 AM 10.76 51.368 0.301 8.06 5.48 9.92
4/5/2021 6:15:00 AM 10.73 51.314 0.296 8.05 5.09 9.9
4/5/2021 6:30:00 AM 10.7 51.26 0.286 8.05 5.2 9.88
4/5/2021 6:45:00 AM 10.66 51.188 0.279 8.03 5.69 9.87
4/5/2021 7:00:00 AM 10.63 51.134 0.265 8.03 6.36 9.86
4/5/2021 7:15:00 AM 10.6 51.08 0.296 8.02 7.33 9.84
4/5/2021 7:30:00 AM 10.57 51.026 0.296 8.02 7.76 9.87
4/5/2021 7:45:00 AM 10.56 51.008 0.296 8.02 7.2 9.9
4/5/2021 8:00:00 AM 10.55 50.99 0.292 8.01 8.22 9.93
4/5/2021 8:15:00 AM 10.55 50.99 0.299 8.01 7.85 9.97
4/5/2021 8:30:00 AM 10.56 51.008 0.295 8.02 7.88 10.02
4/5/2021 8:45:00 AM 10.58 51.044 0.295 8.02 7.6 10.07
4/5/2021 9:00:00 AM 10.61 51.098 0.294 8.02 7.92 10.13
4/5/2021 9:15:00 AM 10.65 51.17 0.294 8.03 8.09 10.18
4/5/2021 9:30:00 AM 10.69 51.242 0.293 8.04 8.36 10.24
4/5/2021 9:45:00 AM 10.74 51.332 0.293 8.04 8.42 10.32
4/5/2021 10:00:00 AM 10.79 51.422 0.296 8.05 8.25 10.38
4/5/2021 10:15:00 AM 10.85 51.53 0.297 8.06 8.46 10.41
4/5/2021 10:30:00 AM 10.9 51.62 0.294 8.06 6.88 10.46
4/5/2021 10:45:00 AM 10.97 51.746 0.295 8.07 6.96 10.5
4/5/2021 11:00:00 AM 11.04 51.872 0.292 8.08 7.42 10.54
4/5/2021 11:15:00 AM 11.13 52.034 0.297 8.08 7.71 10.58
4/5/2021 11:30:00 AM 11.21 52.178 0.293 8.09 8.05 10.6
4/5/2021 11:45:00 AM 11.31 52.358 0.288 8.1 8.77 10.61
4/5/2021 12:00:00 PM 11.43 52.574 0.298 8.1 8.1 10.67
4/5/2021 12:15:00 PM 11.55 52.79 0.291 8.11 8.66 10.69
4/5/2021 12:30:00 PM 11.65 52.97 0.293 8.11 8.87 10.72
4/5/2021 12:45:00 PM 11.79 53.222 0.306 8.13 8.63 10.72
4/5/2021 1:00:00 PM 11.93 53.474 0.307 8.14 8.58 10.76
4/5/2021 1:15:00 PM 12.05 53.69 0.292 8.14 8.93 10.77
4/5/2021 1:30:00 PM 12.2 53.96 0.269 8.15 8.25 10.78
4/5/2021 1:45:00 PM 12.36 54.248 0.269 8.16 8.12 10.82
4/5/2021 2:00:00 PM 12.47 54.446 0.287 8.16 7.94 10.82
4/5/2021 2:15:00 PM 12.6 54.68 0.298 8.17 7.55 10.85
4/5/2021 2:30:00 PM 12.67 54.806 0.299 8.18 6.75 10.84
4/5/2021 2:45:00 PM 12.83 55.094 0.3 8.19 6.62 10.87
4/5/2021 3:00:00 PM 12.93 55.274 0.307 8.2 6.67 10.86
4/5/2021 3:15:00 PM 13 55.4 0.308 8.2 7.27 10.88
4/5/2021 3:30:00 PM 13.06 55.508 0.308 8.2 7.5 10.88
4/5/2021 3:45:00 PM 13.21 55.778 0.308 8.21 7.35 10.88
4/5/2021 4:00:00 PM 13.26 55.868 0.308 8.22 7.09 10.9
4/5/2021 4:15:00 PM 13.3 55.94 0.308 8.23 7.1 10.89
4/5/2021 4:30:00 PM 13.3 55.94 0.308 8.24 7.27 10.89
4/5/2021 4:45:00 PM 13.29 55.922 0.261 8.24 7.73 10.86
4/5/2021 5:00:00 PM 13.3 55.94 0.269 8.26 8.59 10.84
4/5/2021 5:15:00 PM 13.3 55.94 0.308 8.26 8.33 10.81
4/5/2021 5:30:00 PM 13.28 55.904 0.308 8.27 8.58 10.77
4/5/2021 5:45:00 PM 13.29 55.922 0.308 8.27 7.65 10.74
4/5/2021 6:00:00 PM 13.27 55.886 0.308 8.28 7.07 10.7
4/5/2021 6:15:00 PM 13.26 55.868 0.307 8.28 6.35 10.61
4/5/2021 6:30:00 PM 13.22 55.796 0.307 8.28 6.84 10.55
4/5/2021 6:45:00 PM 13.2 55.76 0.308 8.28 7.59 10.47
4/5/2021 7:00:00 PM 13.2 55.76 0.308 8.28 7.7 10.38
4/5/2021 7:15:00 PM 13.2 55.76 0.308 8.28 7.18 10.3
4/5/2021 7:30:00 PM 13.24 55.832 0.308 8.28 7.74 10.2
4/5/2021 7:45:00 PM 13.25 55.85 0.308 8.27 8.14 10.12
4/5/2021 8:00:00 PM 13.29 55.922 0.307 8.27 8.25 10.05
4/5/2021 8:15:00 PM 13.33 55.994 0.308 8.27 7.95 10
4/5/2021 8:30:00 PM 13.38 56.084 0.308 8.27 7.5 9.98
4/5/2021 8:45:00 PM 13.41 56.138 0.308 8.27 8.04 9.95
4/5/2021 9:00:00 PM 13.44 56.192 0.308 8.28 8.07 9.93
4/5/2021 9:15:00 PM 13.49 56.282 0.309 8.28 7.98 9.92
4/5/2021 9:30:00 PM 13.52 56.336 0.309 8.27 8.12 9.92
4/5/2021 9:45:00 PM 13.56 56.408 0.309 8.3 8.46 9.93
4/5/2021 10:00:00 PM 13.58 56.444 0.309 8.3 9.45 9.92
4/5/2021 10:15:00 PM 13.6 56.48 0.309 8.32 8.02 9.92
4/5/2021 10:30:00 PM 13.62 56.516 0.308 8.33 8.04 9.92
4/5/2021 10:45:00 PM 13.63 56.534 0.308 8.34 7.64 9.92
4/5/2021 11:00:00 PM 13.63 56.534 0.308 8.35 7.79 9.94
4/5/2021 11:15:00 PM 13.62 56.516 0.307 8.36 7.79 9.91
4/5/2021 11:30:00 PM 13.61 56.498 0.308 8.37 7.89 9.93
4/5/2021 11:45:00 PM 13.59 56.462 0.308 8.38 8.27 9.91
4/6/2021 12:00:00 AM 13.57 56.426 0.308 8.38 8.02 9.91
4/6/2021 12:15:00 AM 13.55 56.39 0.308 8.38 7.32 9.91
4/6/2021 12:30:00 AM 13.54 56.372 0.308 8.38 7.15 9.89
4/6/2021 12:45:00 AM 13.5 56.3 0.309 8.37 7.09 9.88
4/6/2021 1:00:00 AM 13.46 56.228 0.309 8.37 6.92 9.87
4/6/2021 1:15:00 AM 13.45 56.21 0.309 8.36 6.59 9.85
4/6/2021 1:30:00 AM 13.42 56.156 0.309 8.35 6.16 9.83
4/6/2021 1:45:00 AM 13.38 56.084 0.308 8.34 6.08 9.81
4/6/2021 2:00:00 AM 13.35 56.03 0.307 8.33 6.08 9.78
4/6/2021 2:15:00 AM 13.32 55.976 0.309 8.32 5.98 9.78
4/6/2021 2:30:00 AM 13.29 55.922 0.31 8.31 5.99 9.75
4/6/2021 2:45:00 AM 13.25 55.85 0.31 8.29 6.09 9.72
4/6/2021 3:00:00 AM 13.22 55.796 0.31 8.28 4.89 9.71
4/6/2021 3:15:00 AM 13.18 55.724 0.31 8.26 5.42 9.68
4/6/2021 3:30:00 AM 13.14 55.652 0.31 8.25 6.18 9.65
4/6/2021 3:45:00 AM 13.09 55.562 0.31 8.23 6.04 9.64
4/6/2021 4:00:00 AM 13.04 55.472 0.311 8.22 6 9.6
4/6/2021 4:15:00 AM 12.99 55.382 0.311 8.2 6.87 9.57
4/6/2021 4:30:00 AM 12.93 55.274 0.311 8.19 9.66 9.57
4/6/2021 4:45:00 AM 12.87 55.166 0.311 8.18 7.79 9.52
4/6/2021 5:00:00 AM 12.82 55.076 0.288 8.16 7.9 9.52
4/6/2021 5:15:00 AM 12.76 54.968 0.278 8.15 8.11 9.49
4/6/2021 5:30:00 AM 12.71 54.878 0.267 8.14 8.55 9.47
4/6/2021 5:45:00 AM 12.66 54.788 0.272 8.12 9.01 9.44
4/6/2021 6:00:00 AM 12.6 54.68 0.266 8.11 9.25 9.41
4/6/2021 6:15:00 AM 12.56 54.608 0.285 8.06 9.14 9.41
4/6/2021 6:30:00 AM 12.51 54.518 0.312 8.08 9.25 9.37
4/6/2021 6:45:00 AM 12.48 54.464 0.312 8.07 8.98 9.37
4/6/2021 7:00:00 AM 12.44 54.392 0.312 8.06 9.16 9.34
4/6/2021 7:15:00 AM 12.4 54.32 0.312 8.05 9.41 9.34
4/6/2021 7:30:00 AM 12.39 54.302 0.312 8.05 9.65 9.38
4/6/2021 7:45:00 AM 12.39 54.302 0.312 8.05 9.51 9.4
4/6/2021 8:00:00 AM 12.39 54.302 0.313 8.04 9.57 9.44
4/6/2021 8:15:00 AM 12.41 54.338 0.313 8.04 9.72 9.47
4/6/2021 8:30:00 AM 12.43 54.374 0.313 8.04 10.41 9.54
4/6/2021 8:45:00 AM 12.46 54.428 0.313 8.04 10.33 9.6
4/6/2021 9:00:00 AM 12.48 54.464 0.313 8.05 10.49 9.68
4/6/2021 9:15:00 AM 12.51 54.518 0.313 8.05 10.32 9.7
4/6/2021 9:30:00 AM 12.53 54.554 0.312 8.06 10.28 9.77
4/6/2021 9:45:00 AM 12.57 54.626 0.3 8.06 10.13 9.86
4/6/2021 10:00:00 AM 12.62 54.716 0.313 8.07 9.97 9.9
4/6/2021 10:15:00 AM 12.67 54.806 0.314 8.08 10.35 9.99
4/6/2021 10:30:00 AM 12.69 54.842 0.314 8.09 10.17 10.03
4/6/2021 10:45:00 AM 12.73 54.914 0.314 8.09 9.13 10.08
4/6/2021 11:00:00 AM 12.79 55.022 0.308 8.11 9.72 10.14
4/6/2021 11:15:00 AM 12.89 55.202 0.313 8.11 10.2 10.17
4/6/2021 11:30:00 AM 12.98 55.364 0.311 8.12 9.64 10.21
4/6/2021 11:45:00 AM 13.07 55.526 0.313 8.12 9.64 10.26
4/6/2021 12:00:00 PM 13.18 55.724 0.309 8.13 9.7 10.29
4/6/2021 12:15:00 PM 13.33 55.994 0.314 8.14 9.96 10.32
4/6/2021 12:30:00 PM 13.49 56.282 0.276 8.15 10.23 10.37
4/6/2021 12:45:00 PM 13.63 56.534 0.315 8.15 10.61 10.38
4/6/2021 1:00:00 PM 13.77 56.786 0.315 8.14 9.75 10.4
4/6/2021 1:15:00 PM 13.92 57.056 0.315 8.16 10.13 10.45
4/6/2021 1:30:00 PM 14 57.2 0.315 8.16 10.32 10.44
4/6/2021 1:45:00 PM 14.1 57.38 0.315 8.17 9.99 10.45
4/6/2021 2:00:00 PM 14.22 57.596 0.315 8.17 9.55 10.45
4/6/2021 2:15:00 PM 14.37 57.866 0.315 8.18 9.94 10.47
4/6/2021 2:30:00 PM 14.51 58.118 0.316 8.19 9.61 10.52
4/6/2021 2:45:00 PM 14.65 58.37 0.316 8.2 9.76 10.53
4/6/2021 3:00:00 PM 14.79 58.622 0.316 8.2 10.64 10.5
4/6/2021 3:15:00 PM 14.88 58.784 0.316 8.21 13.89 10.53
4/6/2021 3:30:00 PM 14.96 58.928 0.316 8.22 16.91 10.53
4/6/2021 3:45:00 PM 15 59 0.316 8.23 16.75 10.52
4/6/2021 4:00:00 PM 15.05 59.09 0.316 8.24 17.37 10.53
4/6/2021 4:15:00 PM 15.11 59.198 0.291 8.25 18.94 10.55
4/6/2021 4:30:00 PM 15.14 59.252 0.313 8.26 19.03 10.52
4/6/2021 4:45:00 PM 15.18 59.324 0.313 8.27 16.29 10.51
4/6/2021 5:00:00 PM 15.19 59.342 0.314 8.27 18.83 10.51
4/6/2021 5:15:00 PM 15.21 59.378 0.315 8.28 19.1 10.46
4/6/2021 5:30:00 PM 15.15 59.27 0.315 8.28 21.48 10.42
4/6/2021 5:45:00 PM 15.13 59.234 0.315 8.29 19.11 10.36
4/6/2021 6:00:00 PM 15.08 59.144 0.315 8.29 16.85 10.31
4/6/2021 6:15:00 PM 15.04 59.072 0.315 8.29 18.06 10.23
4/6/2021 6:30:00 PM 14.99 58.982 0.316 8.29 19.85 10.16
4/6/2021 6:45:00 PM 14.97 58.946 0.315 8.28 21.67 10.07
4/6/2021 7:00:00 PM 14.93 58.874 0.314 8.28 22.02 9.96
4/6/2021 7:15:00 PM 14.91 58.838 0.314 8.23 21.83 9.85
4/6/2021 7:30:00 PM 14.92 58.856 0.314 8.26 21.06 9.75
4/6/2021 7:45:00 PM 14.92 58.856 0.314 8.26 22.97 9.63
4/6/2021 8:00:00 PM 14.93 58.874 0.315 8.25 15.79 9.57
4/6/2021 8:15:00 PM 14.94 58.892 0.312 8.24 15.27 9.5
4/6/2021 8:30:00 PM 14.96 58.928 0.303 8.25 15.02 9.45
4/6/2021 8:45:00 PM 14.99 58.982 0.311 8.23 15.16 9.4
4/6/2021 9:00:00 PM 15.02 59.036 0.312 8.25 14.63 9.39
4/6/2021 9:15:00 PM 15.05 59.09 0.302 8.26 14.78 9.38
4/6/2021 9:30:00 PM 15.09 59.162 0.314 8.28 14.75 9.36
4/6/2021 9:45:00 PM 15.1 59.18 0.314 8.28 14.82 9.38
4/6/2021 10:00:00 PM 15.13 59.234 0.314 8.3 14.38 9.4
4/6/2021 10:15:00 PM 15.14 59.252 0.315 8.3 14.27 9.38
4/6/2021 10:30:00 PM 15.16 59.288 0.314 8.31 16.5 9.39
4/6/2021 10:45:00 PM 15.16 59.288 0.313 8.32 16.18 9.4
4/6/2021 11:00:00 PM 15.17 59.306 0.307 8.34 16 9.39
4/6/2021 11:15:00 PM 15.18 59.324 0.312 8.35 4670 9.39
4/6/2021 11:30:00 PM 15.19 59.342 0.312 8.36 520.6 9.41
4/6/2021 11:45:00 PM 15.18 59.324 0.292 8.36 6.48 9.43
4/7/2021 12:00:00 AM 15.15 59.27 0.311 8.36 4.86 9.41
4/7/2021 12:15:00 AM 15.13 59.234 0.314 8.37 20.76 9.36
4/7/2021 12:30:00 AM 15.11 59.198 0.305 8.37 488.5 9.4
4/7/2021 12:45:00 AM 15.08 59.144 0.305 8.33 5.35 9.38
4/7/2021 1:00:00 AM 15.06 59.108 0.315 8.36 6.39 9.29
4/7/2021 1:15:00 AM 15.03 59.054 0.295 8.37 5.17 9.35
4/7/2021 1:30:00 AM 15.01 59.018 0.318 8.36 7.81 9.35
4/7/2021 1:45:00 AM 14.99 58.982 0.319 8.36 5.41 9.35
4/7/2021 2:00:00 AM 14.95 58.91 0.319 8.35 6.65 9.34
4/7/2021 2:15:00 AM 14.92 58.856 0.319 8.35 6.9 9.34
4/7/2021 2:30:00 AM 14.87 58.766 0.319 8.33 4.32 9.3
4/7/2021 2:45:00 AM 14.82 58.676 0.316 8.3 4.97 9.27
4/7/2021 3:00:00 AM 14.78 58.604 0.319 8.29 5.11 9.23
4/7/2021 3:15:00 AM 14.74 58.532 0.319 8.28 5.39 9.23
4/7/2021 3:30:00 AM 14.7 58.46 0.319 8.26 4.36 9.21
4/7/2021 3:45:00 AM 14.65 58.37 0.287 8.25 9.86 9.17
4/7/2021 4:00:00 AM 14.6 58.28 0.32 8.24 5.2 9.18
4/7/2021 4:15:00 AM 14.56 58.208 0.32 8.22 7.2 9.13
4/7/2021 4:30:00 AM 14.52 58.136 0.32 8.2 79.82 9.12
4/7/2021 4:45:00 AM 14.48 58.064 0.32 8.19 80.63 9.07
4/7/2021 5:00:00 AM 14.43 57.974 0.311 8.18 108.5 9.08
4/7/2021 5:15:00 AM 14.38 57.884 0.321 8.16 591.2 9.03
4/7/2021 5:30:00 AM 14.33 57.794 0.321 8.14 13.65 9.02
4/7/2021 5:45:00 AM 14.28 57.704 0.321 8.13 8.61 9.02
4/7/2021 6:00:00 AM 14.23 57.614 0.321 8.11 7.21 8.99
4/7/2021 6:15:00 AM 14.19 57.542 0.321 8.11 6.46 8.98
4/7/2021 6:30:00 AM 14.15 57.47 0.321 8.1 6.9 8.95
4/7/2021 6:45:00 AM 14.11 57.398 0.321 8.09 8.97 8.93
4/7/2021 7:00:00 AM 14.08 57.344 0.321 8.08 10.53 8.94
4/7/2021 7:15:00 AM 14.05 57.29 0.321 8.07 11.88 8.92
4/7/2021 7:30:00 AM 14.02 57.236 0.322 8.06 12.6 8.94
4/7/2021 7:45:00 AM 14 57.2 0.322 8.05 12.74 8.96
4/7/2021 8:00:00 AM 13.99 57.182 0.322 8.05 12.84 8.97
4/7/2021 8:15:00 AM 13.97 57.146 0.322 8.04 10.14 9.02
4/7/2021 8:30:00 AM 13.95 57.11 0.322 8.04 10.74 9.06
4/7/2021 8:45:00 AM 13.94 57.092 0.322 8.04 10.68 9.11
4/7/2021 9:00:00 AM 13.97 57.146 0.322 8.05 10.93 9.19
4/7/2021 9:15:00 AM 14.01 57.218 0.303 8.06 11 9.32
4/7/2021 9:30:00 AM 14.03 57.254 0.302 8.06 10.76 9.39
4/7/2021 9:45:00 AM 14.06 57.308 0.322 8.08 10.79 9.52
4/7/2021 10:00:00 AM 14.11 57.398 0.322 8.09 13.43 9.63
4/7/2021 10:15:00 AM 14.23 57.614 0.322 8.11 11.06 9.72
4/7/2021 10:30:00 AM 14.32 57.776 0.321 8.11 11.23 9.82
4/7/2021 10:45:00 AM 14.35 57.83 0.314 8.13 10.75 9.91
4/7/2021 11:00:00 AM 14.4 57.92 0.3 8.14 10.83 9.96
4/7/2021 11:15:00 AM 14.45 58.01 0.291 8.15 11.09 9.97
4/7/2021 11:30:00 AM 14.51 58.118 0.292 8.15 10.79 10.04
4/7/2021 11:45:00 AM 14.59 58.262 0.3 8.16 10.3 10.09
4/7/2021 12:00:00 PM 14.64 58.352 0.295 8.17 10.44 10.11
4/7/2021 12:15:00 PM 14.64 58.352 0.315 8.16 11.11 10.09
4/7/2021 12:30:00 PM 14.7 58.46 0.316 8.17 11.28 10.1
4/7/2021 12:45:00 PM 14.8 58.64 0.323 8.17 11.29 10.1
4/7/2021 1:00:00 PM 14.95 58.91 0.315 8.17 11.03 10.11
4/7/2021 1:15:00 PM 15.09 59.162 0.316 8.17 11.24 10.13
4/7/2021 1:30:00 PM 15.25 59.45 0.31 8.18 11.03 10.16
4/7/2021 1:45:00 PM 15.42 59.756 0.308 8.18 14 10.17
4/7/2021 2:00:00 PM 15.61 60.098 0.309 8.18 11 10.17
4/7/2021 2:15:00 PM 15.77 60.386 0.321 8.18 11.32 10.22
4/7/2021 2:30:00 PM 15.92 60.656 0.32 8.19 11.33 10.22
4/7/2021 2:45:00 PM 16.03 60.854 0.32 8.19 11.65 10.24
4/7/2021 3:00:00 PM 16.14 61.052 0.318 8.2 12.17 10.25
4/7/2021 3:15:00 PM 16.22 61.196 0.32 8.2 12.34 10.23
4/7/2021 3:30:00 PM 16.31 61.358 0.317 8.21 12.4 10.26
4/7/2021 3:45:00 PM 16.35 61.43 0.287 8.22 12.77 10.25
4/7/2021 4:00:00 PM 16.45 61.61 0.324 8.22 12.57 10.25
4/7/2021 4:15:00 PM 16.47 61.646 0.32 8.23 13.87 10.24
4/7/2021 4:30:00 PM 16.53 61.754 0.272 8.23 13.45 10.21
4/7/2021 4:45:00 PM 16.53 61.754 0.276 8.24 14.6 10.18
4/7/2021 5:00:00 PM 16.5 61.7 0.325 8.25 14.49 10.16
4/7/2021 5:15:00 PM 16.48 61.664 0.326 8.25 15.23 10.14
4/7/2021 5:30:00 PM 16.43 61.574 0.326 8.25 15.96 10.1
4/7/2021 5:45:00 PM 16.36 61.448 0.326 8.25 16.02 10.04
4/7/2021 6:00:00 PM 16.28 61.304 0.326 8.25 15.97 9.95
4/7/2021 6:15:00 PM 16.19 61.142 0.327 8.25 15.96 9.82
4/7/2021 6:30:00 PM 16.12 61.016 0.327 8.24 16.14 9.68
4/7/2021 6:45:00 PM 16.08 60.944 0.326 8.23 15.99 9.52
4/7/2021 7:00:00 PM 16.07 60.926 0.326 8.23 16.06 9.48
4/7/2021 7:15:00 PM 16.06 60.908 0.326 8.22 15.9 9.39
4/7/2021 7:30:00 PM 16.05 60.89 0.327 8.22 15.85 9.29
4/7/2021 7:45:00 PM 16.06 60.908 0.327 8.22 15.89 9.22
4/7/2021 8:00:00 PM 16.06 60.908 0.294 8.22 15.67 9.17
4/7/2021 8:15:00 PM 16.08 60.944 0.306 8.22 15.46 9.13
4/7/2021 8:30:00 PM 16.08 60.944 0.287 8.22 15.33 9.07
4/7/2021 8:45:00 PM 16.1 60.98 0.318 8.22 15.25 9.04
4/7/2021 9:00:00 PM 16.12 61.016 0.31 8.23 15.17 9.02
4/7/2021 9:15:00 PM 16.14 61.052 0.31 8.23 15.21 9.01
4/7/2021 9:30:00 PM 16.17 61.106 0.329 8.24 15.3 8.98
4/7/2021 9:45:00 PM 16.18 61.124 0.323 8.25 15.27 8.98
4/7/2021 10:00:00 PM 16.2 61.16 0.316 8.26 15.53 9.01
4/7/2021 10:15:00 PM 16.24 61.232 0.322 8.28 15.47 9.03
4/7/2021 10:30:00 PM 16.25 61.25 0.289 8.29 15.45 9.03
4/7/2021 10:45:00 PM 16.25 61.25 0.309 8.29 15.43 9.02
4/7/2021 11:00:00 PM 16.27 61.286 0.305 8.3 15.58 9.02
4/7/2021 11:15:00 PM 16.28 61.304 0.321 8.31 15.64 9.03
4/7/2021 11:30:00 PM 16.3 61.34 0.318 8.32 15.53 9.02
4/7/2021 11:45:00 PM 16.28 61.304 0.31 8.33 15.33 9.04
4/8/2021 12:00:00 AM 16.29 61.322 0.325 8.34 15.29 9.05
4/8/2021 12:15:00 AM 16.27 61.286 0.32 8.35 15.38 9.03
4/8/2021 12:30:00 AM 16.25 61.25 0.322 8.35 15.41 9.03
4/8/2021 12:45:00 AM 16.23 61.214 0.315 8.35 15.43 9.05
4/8/2021 1:00:00 AM 16.2 61.16 0.307 8.35 15.49 9.03
4/8/2021 1:15:00 AM 16.17 61.106 0.325 8.35 15.39 9.01
4/8/2021 1:30:00 AM 16.15 61.07 0.327 8.34 15.37 9.01
4/8/2021 1:45:00 AM 16.11 60.998 0.324 8.35 15.38 9
4/8/2021 2:00:00 AM 16.08 60.944 0.314 8.34 15.45 8.99
4/8/2021 2:15:00 AM 16.04 60.872 0.321 8.33 15.4 8.97
4/8/2021 2:30:00 AM 16.01 60.818 0.317 8.33 15.38 8.95
4/8/2021 2:45:00 AM 15.96 60.728 0.316 8.32 15.52 8.95
4/8/2021 3:00:00 AM 15.91 60.638 0.321 8.31 15.37 8.94
4/8/2021 3:15:00 AM 15.87 60.566 0.327 8.3 15.35 8.88
4/8/2021 3:30:00 AM 15.82 60.476 0.315 8.29 15.51 8.91
4/8/2021 3:45:00 AM 15.78 60.404 0.318 8.27 15.41 8.88
4/8/2021 4:00:00 AM 15.72 60.296 0.323 8.26 15.45 8.88
4/8/2021 4:15:00 AM 15.68 60.224 0.289 8.24 15.25 8.85
4/8/2021 4:30:00 AM 15.63 60.134 0.328 8.24 15.33 8.82
4/8/2021 4:45:00 AM 15.59 60.062 0.326 8.22 15.52 8.82
4/8/2021 5:00:00 AM 15.53 59.954 0.328 8.21 15.63 8.8
4/8/2021 5:15:00 AM 15.48 59.864 0.326 8.2 15.73 8.76
4/8/2021 5:30:00 AM 15.42 59.756 0.326 8.19 16.04 8.74
4/8/2021 5:45:00 AM 15.37 59.666 0.325 8.18 16.18 8.72
4/8/2021 6:00:00 AM 15.31 59.558 0.328 8.17 16.33 8.71
4/8/2021 6:15:00 AM 15.24 59.432 0.329 8.16 16.36 8.7
4/8/2021 6:30:00 AM 15.18 59.324 0.33 8.15 16.54 8.68
4/8/2021 6:45:00 AM 15.12 59.216 0.33 8.13 16.8 8.64
4/8/2021 7:00:00 AM 15.07 59.126 0.328 8.13 16.61 8.68
4/8/2021 7:15:00 AM 15.01 59.018 0.33 8.12 17.47 8.65
4/8/2021 7:30:00 AM 14.96 58.928 0.33 8.11 17.23 8.69
4/8/2021 7:45:00 AM 14.92 58.856 0.331 8.1 17.31 8.7
4/8/2021 8:00:00 AM 14.88 58.784 0.331 8.1 17.45 8.79
4/8/2021 8:15:00 AM 14.84 58.712 0.331 8.1 17.25 8.82
4/8/2021 8:30:00 AM 14.83 58.694 0.331 8.11 17.58 8.88
4/8/2021 8:45:00 AM 14.82 58.676 0.328 8.11 17.37 8.99
4/8/2021 9:00:00 AM 14.82 58.676 0.326 8.12 17.58 9.11
4/8/2021 9:15:00 AM 14.84 58.712 0.303 8.13 17.45 9.21
4/8/2021 9:30:00 AM 14.86 58.748 0.32 8.14 18.34 9.3
4/8/2021 9:45:00 AM 14.89 58.802 0.311 8.15 18.35 9.39
4/8/2021 10:00:00 AM 14.93 58.874 0.318 8.16 18.26 9.47
4/8/2021 10:15:00 AM 14.97 58.946 0.312 8.17 18.49 9.54
4/8/2021 10:30:00 AM 15.02 59.036 0.324 8.16 3.91 9.53
4/8/2021 10:45:00 AM 15.08 59.144 0.279 8.17 5.15 9.52
4/8/2021 11:00:00 AM 15.15 59.27 0.327 8.18 1171 9.58
4/8/2021 11:15:00 AM 15.25 59.45 0.327 8.19 4.58 9.8
4/8/2021 11:30:00 AM 15.3 59.54 0.295 8.19 1327 9.76
4/8/2021 11:45:00 AM 15.41 59.738 0.312 8.2 3.49 9.85
4/8/2021 12:00:00 PM 15.51 59.918 0.307 8.2 4.72 9.87
4/8/2021 12:15:00 PM 15.6 60.08 0.313 8.21 6.6 9.85
4/8/2021 12:30:00 PM 15.71 60.278 0.315 8.21 42.97 9.63
4/8/2021 12:45:00 PM 15.86 60.548 0.315 8.22 21.21 9.96
4/8/2021 1:00:00 PM 16.01 60.818 0.304 8.22 4.32 10.02
4/8/2021 1:15:00 PM 16.16 61.088 0.306 8.23 61.89 10.01
4/8/2021 1:30:00 PM 16.28 61.304 0.307 8.23 4.5 10.07
4/8/2021 1:45:00 PM 16.43 61.574 0.299 8.24 85.73 10.01
4/8/2021 2:00:00 PM 16.55 61.79 0.316 8.24 4.13 10.12
4/8/2021 2:15:00 PM 16.66 61.988 0.308 8.24 52.89 10.07
4/8/2021 2:30:00 PM 16.74 62.132 0.304 8.24 4.21 10.1
4/8/2021 2:45:00 PM 16.84 62.312 0.307 8.25 104.5 10.08
4/8/2021 3:00:00 PM 16.96 62.528 0.285 8.25 4.74 10.12
4/8/2021 3:15:00 PM 17.05 62.69 0.337 8.25 65.68 10.1
4/8/2021 3:30:00 PM 17.05 62.69 0.308 8.26 3.67 10.16
4/8/2021 3:45:00 PM 17.12 62.816 0.337 8.25 51.81 10.07
4/8/2021 4:00:00 PM 17.14 62.852 0.338 8.24 5.99 10.12
4/8/2021 4:15:00 PM 17.18 62.924 0.332 8.24 53.71 10.04
4/8/2021 4:30:00 PM 17.17 62.906 0.317 8.27 3.77 10.06
4/8/2021 4:45:00 PM 17.14 62.852 0.322 8.29 34.02 10.01
4/8/2021 5:00:00 PM 17.1 62.78 0.309 8.29 7.81 9.99
4/8/2021 5:15:00 PM 17.11 62.798 0.322 8.29 3.73 9.97
4/8/2021 5:30:00 PM 17.03 62.654 0.29 8.29 32.7 9.89
4/8/2021 5:45:00 PM 16.96 62.528 0.295 8.28 3.31 9.88
4/8/2021 6:00:00 PM 16.87 62.366 0.324 8.28 3.4 9.8
4/8/2021 6:15:00 PM 16.79 62.222 0.29 8.28 3.59 9.71
4/8/2021 6:30:00 PM 16.7 62.06 0.298 8.28 6.24 9.6
4/8/2021 6:45:00 PM 16.65 61.97 0.314 8.27 780.5 9.5
4/8/2021 7:00:00 PM 16.6 61.88 0.312 8.27 5.04 9.35
4/8/2021 7:15:00 PM 16.57 61.826 0.336 8.26 5.73 9.24
4/8/2021 7:30:00 PM 16.55 61.79 0.299 8.26 3306 9.16
4/8/2021 7:45:00 PM 16.53 61.754 0.335 8.25 3.78 9.05
4/8/2021 8:00:00 PM 16.53 61.754 0.292 8.25 4.65 8.96
4/8/2021 8:15:00 PM 16.54 61.772 0.297 8.25 2649 8.86
4/8/2021 8:30:00 PM 16.54 61.772 0.34 8.24 7.33 8.82
4/8/2021 8:45:00 PM 16.56 61.808 0.34 8.24 4.35 8.8
4/8/2021 9:00:00 PM 16.58 61.844 0.341 8.23 381.3 8.71
4/8/2021 9:15:00 PM 16.6 61.88 0.33 8.25 5.83 8.74
4/8/2021 9:30:00 PM 16.64 61.952 0.331 8.25 466.7 8.69
4/8/2021 9:45:00 PM 16.67 62.006 0.331 8.26 3.97 8.72
4/8/2021 10:00:00 PM 16.66 61.988 0.335 8.26 795.1 8.67
4/8/2021 10:15:00 PM 16.71 62.078 0.325 8.27 4.26 8.72
4/8/2021 10:30:00 PM 16.72 62.096 0.333 8.28 4.28 8.73
4/8/2021 10:45:00 PM 16.76 62.168 0.335 8.3 1417 8.74
4/8/2021 11:00:00 PM 16.79 62.222 0.329 8.31 994.9 8.75
4/8/2021 11:15:00 PM 16.82 62.276 0.331 8.32 867.7 8.78
4/8/2021 11:30:00 PM 16.82 62.276 0.334 8.31 916.6 8.74
4/8/2021 11:45:00 PM 16.84 62.312 0.326 8.3 768.4 8.77
4/9/2021 12:00:00 AM 16.84 62.312 0.341 8.31 750.4 8.75
4/9/2021 12:15:00 AM 16.84 62.312 0.341 8.33 670 8.78
4/9/2021 12:30:00 AM 16.85 62.33 0.341 8.34 659.1 8.8
4/9/2021 12:45:00 AM 16.84 62.312 0.286 8.35 658.3 8.82
4/9/2021 1:00:00 AM 16.83 62.294 0.32 8.34 635.4 8.78
4/9/2021 1:15:00 AM 16.82 62.276 0.322 8.35 550.7 8.8
4/9/2021 1:30:00 AM 16.8 62.24 0.323 8.34 513.1 8.79
4/9/2021 1:45:00 AM 16.78 62.204 0.304 8.35 500.4 8.81
4/9/2021 2:00:00 AM 16.75 62.15 0.32 8.33 452.7 8.79
4/9/2021 2:15:00 AM 16.73 62.114 0.321 8.35 444 8.81
4/9/2021 2:30:00 AM 16.7 62.06 0.329 8.33 410.4 8.81
4/9/2021 2:45:00 AM 16.67 62.006 0.326 8.34 402.8 8.77
4/9/2021 3:00:00 AM 16.63 61.934 0.325 8.33 13.9 8.77
4/9/2021 3:15:00 AM 16.6 61.88 0.339 8.32 94.59 8.78
4/9/2021 3:30:00 AM 16.56 61.808 0.312 8.29 3369 8.64
4/9/2021 3:45:00 AM 16.52 61.736 0.301 8.31 19.48 8.76
4/9/2021 4:00:00 AM 16.47 61.646 0.325 8.31 35.1 8.73
4/9/2021 4:15:00 AM 16.42 61.556 0.323 8.29 20.35 8.7
4/9/2021 4:30:00 AM 16.36 61.448 0.329 8.29 34.33 8.72
4/9/2021 4:45:00 AM 16.3 61.34 0.342 8.27 30.63 8.66
4/9/2021 5:00:00 AM 16.24 61.232 0.342 8.27 15.89 8.58
4/9/2021 5:15:00 AM 16.19 61.142 0.322 8.26 332.3 8.56
4/9/2021 5:30:00 AM 16.13 61.034 0.335 8.24 16.67 8.6
4/9/2021 5:45:00 AM 16.08 60.944 0.321 8.22 129.8 8.54
4/9/2021 6:00:00 AM 16.04 60.872 0.333 8.21 30.41 8.57
4/9/2021 6:15:00 AM 15.99 60.782 0.343 8.2 6.4 8.54
4/9/2021 6:30:00 AM 15.94 60.692 0.344 8.19 8.71 8.53
4/9/2021 6:45:00 AM 15.9 60.62 0.344 8.18 5.9 8.43
4/9/2021 7:00:00 AM 15.86 60.548 0.334 8.17 364.3 8.49
4/9/2021 7:15:00 AM 15.82 60.476 0.345 8.16 6.22 8.49
4/9/2021 7:30:00 AM 15.78 60.404 0.346 8.15 5.44 8.41
4/9/2021 7:45:00 AM 15.73 60.314 0.346 8.14 393.5 8.47
4/9/2021 8:00:00 AM 15.7 60.26 0.346 8.13 7.18 8.44
4/9/2021 8:15:00 AM 15.66 60.188 0.346 8.12 7.86 8.41
4/9/2021 8:30:00 AM 15.61 60.098 0.346 8.11 9.43 8.5
4/9/2021 8:45:00 AM 15.57 60.026 0.347 8.1 5 8.4
4/9/2021 9:00:00 AM 15.53 59.954 0.347 8.1 6.94 8.44
4/9/2021 9:15:00 AM 15.5 59.9 0.347 8.1 6.61 8.45
4/9/2021 9:30:00 AM 15.48 59.864 0.347 8.09 44.48 8.43
4/9/2021 9:45:00 AM 15.46 59.828 0.335 8.09 9.04 8.58
4/9/2021 10:00:00 AM 15.44 59.792 0.316 8.09 8.12 8.55
4/9/2021 10:15:00 AM 15.4 59.72 0.348 8.09 8.06 8.57
4/9/2021 10:30:00 AM 15.38 59.684 0.348 8.08 14.17 8.62
4/9/2021 10:45:00 AM 15.35 59.63 0.347 8.09 3622 8.42
4/9/2021 11:00:00 AM 15.33 59.594 0.33 8.08 16.34 8.71
4/9/2021 11:15:00 AM 15.31 59.558 0.348 8.08 8.15 8.77
4/9/2021 11:30:00 AM 15.29 59.522 0.319 8.09 4214 8.76
4/9/2021 11:45:00 AM 15.27 59.486 0.331 8.09 8.83 8.86
4/9/2021 12:00:00 PM 15.25 59.45 0.338 8.09 8.65 8.85
4/9/2021 12:15:00 PM 15.24 59.432 0.338 8.08 10.01 8.9
4/9/2021 12:30:00 PM 15.23 59.414 0.339 8.08 9.72 8.94
4/9/2021 12:45:00 PM 15.2 59.36 0.343 8.09 9.41 8.99
4/9/2021 1:00:00 PM 15.19 59.342 0.343 8.09 9.48 8.98
4/9/2021 1:15:00 PM 15.2 59.36 0.342 8.1 10.4 9.04
4/9/2021 1:30:00 PM 15.21 59.378 0.343 8.11 10.91 9.12
4/9/2021 1:45:00 PM 15.21 59.378 0.343 8.11 11.7 9.17
4/9/2021 2:00:00 PM 15.2 59.36 0.332 8.11 175.4 9.16
4/9/2021 2:15:00 PM 15.18 59.324 0.329 8.11 179.3 9.21
4/9/2021 2:30:00 PM 15.17 59.306 0.343 8.12 179.2 9.2
4/9/2021 2:45:00 PM 15.15 59.27 0.347 8.11 177.9 9.18
4/9/2021 3:00:00 PM 15.12 59.216 0.336 8.11 10.78 9.13
4/9/2021 3:15:00 PM 15.1 59.18 0.342 8.11 270.9 9.1
4/9/2021 3:30:00 PM 15.08 59.144 0.344 8.1 200.3 9.12
4/9/2021 3:45:00 PM 15.08 59.144 0.334 8.1 55.54 9.1
4/9/2021 4:00:00 PM 15.06 59.108 0.32 8.09 9.27 9.1
4/9/2021 4:15:00 PM 15.05 59.09 0.341 8.09 10.27 9.09
4/9/2021 4:30:00 PM 15.05 59.09 0.341 8.08 99.17 9.05
4/9/2021 4:45:00 PM 15.05 59.09 0.342 8.08 1121 9.07
4/9/2021 5:00:00 PM 15.04 59.072 0.343 8.08 4033 9.08
4/9/2021 5:15:00 PM 15.02 59.036 0.343 8.08 22.95 9.06
4/9/2021 5:30:00 PM 15 59 0.343 8.08 8.85 8.98
4/9/2021 5:45:00 PM 14.98 58.964 0.343 8.07 14.71 8.96
4/9/2021 6:00:00 PM 14.96 58.928 0.336 8.07 9.15 8.76
4/9/2021 6:15:00 PM 14.94 58.892 0.341 8.06 16.87 8.84
4/9/2021 6:30:00 PM 14.92 58.856 0.342 8.05 15.06 8.64
4/9/2021 6:45:00 PM 14.9 58.82 0.342 8.05 11.16 8.58
4/9/2021 7:00:00 PM 14.88 58.784 0.343 8.04 10.92 8.67
4/9/2021 7:15:00 PM 14.87 58.766 0.345 8.03 3820 8.64
4/9/2021 7:30:00 PM 14.85 58.73 0.347 8.03 9.45 8.65
4/9/2021 7:45:00 PM 14.83 58.694 0.349 8.03 10.84 8.57
4/9/2021 8:00:00 PM 14.82 58.676 0.346 8.03 9.28 8.57
4/9/2021 8:15:00 PM 14.81 58.658 0.352 8.02 8.13 8.44
4/9/2021 8:30:00 PM 14.79 58.622 0.336 8.02 9.03 8.49
4/9/2021 8:45:00 PM 14.77 58.586 0.352 8.01 8.21 8.5
4/9/2021 9:00:00 PM 14.77 58.586 0.352 8.02 8.46 8.51
4/9/2021 9:15:00 PM 14.76 58.568 0.352 8.02 8.82 8.52
4/9/2021 9:30:00 PM 14.75 58.55 0.352 8.02 9.39 8.55
4/9/2021 9:45:00 PM 14.74 58.532 0.352 8.02 9.35 8.55
4/9/2021 10:00:00 PM 14.72 58.496 0.331 8.02 8.68 8.59
4/9/2021 10:15:00 PM 14.71 58.478 0.353 8.02 9.2 8.6
4/9/2021 10:30:00 PM 14.7 58.46 0.351 8.03 35.89 8.6
4/9/2021 10:45:00 PM 14.69 58.442 0.353 8.02 12.45 8.62
4/9/2021 11:00:00 PM 14.68 58.424 0.352 8.03 13.16 8.65
4/9/2021 11:15:00 PM 14.67 58.406 0.351 8.04 9.03 8.67
4/9/2021 11:30:00 PM 14.65 58.37 0.323 8.04 9.19 8.65
4/9/2021 11:45:00 PM 14.64 58.352 0.326 8.04 9.7 8.68
4/10/2021 12:00:00 AM 14.63 58.334 0.301 8.04 8.99 8.7
4/10/2021 12:15:00 AM 14.61 58.298 0.337 8.04 8.95 8.71
4/10/2021 12:30:00 AM 14.59 58.262 0.342 8.05 9.81 8.7
4/10/2021 12:45:00 AM 14.57 58.226 0.339 8.05 9.24 8.68
4/10/2021 1:00:00 AM 14.55 58.19 0.339 8.05 8.93 8.73
4/10/2021 1:15:00 AM 14.53 58.154 0.346 8.05 8.9 8.74
4/10/2021 1:30:00 AM 14.51 58.118 0.344 8.05 8.63 8.75
4/10/2021 1:45:00 AM 14.49 58.082 0.348 8.05 9.32 8.75
4/10/2021 2:00:00 AM 14.47 58.046 0.349 8.05 8.89 8.73
4/10/2021 2:15:00 AM 14.44 57.992 0.348 8.04 8.76 8.71
4/10/2021 2:30:00 AM 14.42 57.956 0.348 8.05 9.02 8.73
4/10/2021 2:45:00 AM 14.4 57.92 0.346 8.05 9.36 8.73
4/10/2021 3:00:00 AM 14.37 57.866 0.34 8.05 9.53 8.72
4/10/2021 3:15:00 AM 14.34 57.812 0.341 8.05 9.15 8.7
4/10/2021 3:30:00 AM 14.32 57.776 0.338 8.04 9.13 8.73
4/10/2021 3:45:00 AM 14.29 57.722 0.341 8.04 8.87 8.71
4/10/2021 4:00:00 AM 14.25 57.65 0.336 8.04 14.6 8.71
4/10/2021 4:15:00 AM 14.23 57.614 0.322 8.02 9.28 8.72
4/10/2021 4:30:00 AM 14.2 57.56 0.343 8.03 10.13 8.68
4/10/2021 4:45:00 AM 14.17 57.506 0.299 8.02 25.37 8.7
4/10/2021 5:00:00 AM 14.15 57.47 0.341 8.02 9.69 8.59
4/10/2021 5:15:00 AM 14.12 57.416 0.349 8.02 463 8.63
4/10/2021 5:30:00 AM 14.09 57.362 0.35 8.02 492.4 8.66
4/10/2021 5:45:00 AM 14.06 57.308 0.348 8.02 504 8.66
4/10/2021 6:00:00 AM 14.04 57.272 0.348 8.02 513.9 8.63
4/10/2021 6:15:00 AM 14.01 57.218 0.348 8.02 521.6 8.63
4/10/2021 6:30:00 AM 13.98 57.164 0.357 8.02 529.4 8.65
4/10/2021 6:45:00 AM 13.94 57.092 0.357 8.01 535.1 8.68
4/10/2021 7:00:00 AM 13.92 57.056 0.357 8.01 543.2 8.67
4/10/2021 7:15:00 AM 13.89 57.002 0.357 8.01 551 8.67
4/10/2021 7:30:00 AM 13.87 56.966 0.357 8 560.9 8.65
4/10/2021 7:45:00 AM 13.85 56.93 0.357 8.01 571.8 8.67
4/10/2021 8:00:00 AM 13.83 56.894 0.358 8 576.7 8.6
4/10/2021 8:15:00 AM 13.81 56.858 0.358 8.01 583.6 8.75
4/10/2021 8:30:00 AM 13.79 56.822 0.358 8 582.8 8.14
4/10/2021 8:45:00 AM 13.79 56.822 0.358 8.01 586.5 8.69
4/10/2021 9:00:00 AM 13.78 56.804 0.358 8.02 590.1 8.45
4/10/2021 9:15:00 AM 13.77 56.786 0.357 8.02 592 8.9
4/10/2021 9:30:00 AM 13.77 56.786 0.358 8.02 601 8.95
4/10/2021 9:45:00 AM 13.77 56.786 0.357 8.03 608.1 9.08
4/10/2021 10:00:00 AM 13.78 56.804 0.358 8.04 628.9 9.12
4/10/2021 10:15:00 AM 13.78 56.804 0.357 8.04 12.05 9.24
4/10/2021 10:30:00 AM 13.79 56.822 0.357 8.05 11.11 9.27
4/10/2021 10:45:00 AM 13.81 56.858 0.357 8.06 24.53 9.31
4/10/2021 11:00:00 AM 13.82 56.876 0.357 8.07 767 9.27
4/10/2021 11:15:00 AM 13.83 56.894 0.357 8.08 10.12 9.5
4/10/2021 11:30:00 AM 13.84 56.912 0.357 8.09 12.35 9.52
4/10/2021 11:45:00 AM 13.85 56.93 0.34 8.09 16.82 9.51
4/10/2021 12:00:00 PM 13.88 56.984 0.357 8.1 13.51 9.38
4/10/2021 12:15:00 PM 13.88 56.984 0.357 8.1 9.01 9.62
4/10/2021 12:30:00 PM 13.88 56.984 0.357 8.1 10.48 9.64
4/10/2021 12:45:00 PM 13.89 57.002 0.357 8.1 1120 9.59
4/10/2021 1:00:00 PM 13.9 57.02 0.357 8.1 8.66 9.67
4/10/2021 1:15:00 PM 13.9 57.02 0.356 8.11 9.09 9.66
4/10/2021 1:30:00 PM 13.87 56.966 0.356 8.1 9.35 9.55
4/10/2021 1:45:00 PM 13.84 56.912 0.357 8.1 9.35 9.51
4/10/2021 2:00:00 PM 13.82 56.876 0.357 8.09 8.91 9.48
4/10/2021 2:15:00 PM 13.8 56.84 0.357 8.09 9.29 9.42
4/10/2021 2:30:00 PM 13.82 56.876 0.356 8.09 2235 9.27
4/10/2021 2:45:00 PM 13.9 57.02 0.356 8.1 9.86 9.62
4/10/2021 3:00:00 PM 13.93 57.074 0.356 8.1 16.82 9.57
4/10/2021 3:15:00 PM 13.96 57.128 0.356 8.1 9.14 9.46
4/10/2021 3:30:00 PM 14 57.2 0.356 8.11 17.44 9.75
4/10/2021 3:45:00 PM 14.03 57.254 0.355 8.12 8.58 9.81
4/10/2021 4:00:00 PM 14.02 57.236 0.355 8.13 7.43 9.78
4/10/2021 4:15:00 PM 14.02 57.236 0.355 8.13 8.71 9.78
4/10/2021 4:30:00 PM 14.02 57.236 0.355 8.13 6.4 9.81
4/10/2021 4:45:00 PM 14.06 57.308 0.355 8.14 7.84 9.81
4/10/2021 5:00:00 PM 14.07 57.326 0.355 8.14 6.53 9.79
4/10/2021 5:15:00 PM 14.08 57.344 0.355 8.15 7.83 9.85
4/10/2021 5:30:00 PM 14.08 57.344 0.355 8.15 6.84 9.81
4/10/2021 5:45:00 PM 14.08 57.344 0.354 8.15 8.65 9.78
4/10/2021 6:00:00 PM 14.07 57.326 0.355 8.16 6.07 9.76
4/10/2021 6:15:00 PM 14.07 57.326 0.354 8.15 7.44 9.7
4/10/2021 6:30:00 PM 14.06 57.308 0.355 8.15 6.12 9.66
4/10/2021 6:45:00 PM 14.03 57.254 0.355 8.16 7.71 9.61
4/10/2021 7:00:00 PM 14.01 57.218 0.355 8.16 1577 9.55
4/10/2021 7:15:00 PM 13.99 57.182 0.355 8.15 6.3 9.55
4/10/2021 7:30:00 PM 13.96 57.128 0.355 8.15 13.01 9.46
4/10/2021 7:45:00 PM 13.93 57.074 0.355 8.14 37.75 9.3
4/10/2021 8:00:00 PM 13.9 57.02 0.355 8.13 8.59 9.28
4/10/2021 8:15:00 PM 13.87 56.966 0.355 8.12 879.2 9.19
4/10/2021 8:30:00 PM 13.86 56.948 0.356 8.11 750.3 9.13
4/10/2021 8:45:00 PM 13.84 56.912 0.318 8.11 641 9.05
4/10/2021 9:00:00 PM 13.83 56.894 0.352 8.11 545 9.08
4/10/2021 9:15:00 PM 13.82 56.876 0.306 8.1 490.1 9.06
4/10/2021 9:30:00 PM 13.81 56.858 0.306 8.1 169.7 9.05
4/10/2021 9:45:00 PM 13.81 56.858 0.306 8.1 140 9.04
4/10/2021 10:00:00 PM 13.81 56.858 0.307 8.1 115.8 9.08
4/10/2021 10:15:00 PM 13.82 56.876 0.335 8.1 109.6 9.05
4/10/2021 10:30:00 PM 13.82 56.876 0.352 8.12 106.5 9.11
4/10/2021 10:45:00 PM 13.83 56.894 0.347 8.13 105.2 9.07
4/10/2021 11:00:00 PM 13.84 56.912 0.336 8.13 102.8 9.09
4/10/2021 11:15:00 PM 13.85 56.93 0.34 8.12 99.91 9.1
4/10/2021 11:30:00 PM 13.87 56.966 0.342 8.12 98.95 9.13
4/10/2021 11:45:00 PM 13.9 57.02 0.343 8.13 96.28 9.13
4/11/2021 12:00:00 AM 13.91 57.038 0.345 8.13 94.82 9.11
4/11/2021 12:15:00 AM 13.93 57.074 0.338 8.13 93.8 9.1
4/11/2021 12:30:00 AM 13.95 57.11 0.335 8.14 92.94 9.13
4/11/2021 12:45:00 AM 13.96 57.128 0.363 8.15 92.14 9.15
4/11/2021 1:00:00 AM 13.97 57.146 0.36 8.15 91.79 9.14
4/11/2021 1:15:00 AM 13.98 57.164 0.341 8.15 90.2 9.16
4/11/2021 1:30:00 AM 13.98 57.164 0.358 8.16 89.02 9.14
4/11/2021 1:45:00 AM 13.98 57.164 0.358 8.16 87.59 9.13
4/11/2021 2:00:00 AM 13.98 57.164 0.358 8.16 87.14 9.11
4/11/2021 2:15:00 AM 13.98 57.164 0.358 8.16 86.21 9.11
4/11/2021 2:30:00 AM 13.97 57.146 0.358 8.17 85.2 9.13
4/11/2021 2:45:00 AM 13.96 57.128 0.357 8.17 84.43 9.09
4/11/2021 3:00:00 AM 13.95 57.11 0.357 8.17 83.93 9.11
4/11/2021 3:15:00 AM 13.94 57.092 0.356 8.17 82.77 9.07
4/11/2021 3:30:00 AM 13.93 57.074 0.356 8.17 83.08 9.05
4/11/2021 3:45:00 AM 13.91 57.038 0.356 8.16 83.85 9.05
4/11/2021 4:00:00 AM 13.9 57.02 0.356 8.16 81.99 9.05
4/11/2021 4:15:00 AM 13.88 56.984 0.356 8.15 43.13 9.05
4/11/2021 4:30:00 AM 13.87 56.966 0.356 8.15 31.9 9
4/11/2021 4:45:00 AM 13.85 56.93 0.357 8.14 25.85 8.98
4/11/2021 5:00:00 AM 13.83 56.894 0.357 8.14 8.59 8.97
4/11/2021 5:15:00 AM 13.81 56.858 0.357 8.13 7.62 8.95
4/11/2021 5:30:00 AM 13.79 56.822 0.357 8.12 8.24 8.91
4/11/2021 5:45:00 AM 13.77 56.786 0.357 8.11 8.91 8.9
4/11/2021 6:00:00 AM 13.75 56.75 0.356 8.11 21.44 8.81
4/11/2021 6:15:00 AM 13.72 56.696 0.356 8.1 41.18 8.86
4/11/2021 6:30:00 AM 13.7 56.66 0.355 8.09 49.76 8.87
4/11/2021 6:45:00 AM 13.68 56.624 0.355 8.09 56.77 8.81
4/11/2021 7:00:00 AM 13.66 56.588 0.354 8.08 613.5 8.87
4/11/2021 7:15:00 AM 13.64 56.552 0.353 8.07 217 8.84
4/11/2021 7:30:00 AM 13.62 56.516 0.35 8.06 202 8.82
4/11/2021 7:45:00 AM 13.6 56.48 0.346 8.06 204.8 8.85
4/11/2021 8:00:00 AM 13.58 56.444 0.342 8.05 188.4 8.84
4/11/2021 8:15:00 AM 13.57 56.426 0.34 8.03 150.8 8.83
4/11/2021 8:30:00 AM 13.56 56.408 0.337 8.02 135.8 8.8
4/11/2021 8:45:00 AM 13.55 56.39 0.337 8 131.5 8.77
4/11/2021 9:00:00 AM 13.54 56.372 0.338 7.99 126.7 8.64
4/11/2021 9:15:00 AM 13.54 56.372 0.34 7.98 127.5 8.78
4/11/2021 9:30:00 AM 13.55 56.39 0.342 7.99 124.6 8.82
4/11/2021 9:45:00 AM 13.57 56.426 0.345 7.99 123.5 8.86
4/11/2021 10:00:00 AM 13.59 56.462 0.347 8 124.5 8.86
4/11/2021 10:15:00 AM 13.62 56.516 0.347 8.01 125 8.97
4/11/2021 10:30:00 AM 13.67 56.606 0.348 8.01 124.1 9.06
4/11/2021 10:45:00 AM 13.68 56.624 0.349 8.03 124 9.13
4/11/2021 11:00:00 AM 13.68 56.624 0.35 8.03 125.3 9.14
4/11/2021 11:15:00 AM 13.69 56.642 0.35 8.03 125.4 9.15
4/11/2021 11:30:00 AM 13.7 56.66 0.35 8.03 125.2 9.15
4/11/2021 11:45:00 AM 13.71 56.678 0.349 8.03 125.4 9.16
4/11/2021 12:00:00 PM 13.91 57.038 0.349 8.05 122.2 9.24
4/11/2021 12:15:00 PM 13.95 57.11 0.349 8.04 122.3 9.27
4/11/2021 12:30:00 PM 13.96 57.128 0.348 8.04 122.2 9.27
4/11/2021 12:45:00 PM 14 57.2 0.348 8.04 120.4 9.31
4/11/2021 1:00:00 PM 14.06 57.308 0.347 8.04 119 9.3
4/11/2021 1:15:00 PM 14.16 57.488 0.346 8.03 119.4 9.18
4/11/2021 1:30:00 PM 14.33 57.794 0.345 8.03 118.4 9.26
4/11/2021 1:45:00 PM 14.41 57.938 0.343 8.03 136.2 9.37
4/11/2021 2:00:00 PM 14.48 58.064 0.339 8.03 126.5 9.35
4/11/2021 2:15:00 PM 14.63 58.334 0.336 8.02 124.2 9.35
4/11/2021 2:30:00 PM 14.68 58.424 0.334 8 127.5 9.31
4/11/2021 2:45:00 PM 14.82 58.676 0.331 7.99 149.3 9.28
4/11/2021 3:00:00 PM 14.9 58.82 0.329 7.97 154.7 9.26
4/11/2021 3:15:00 PM 14.93 58.874 0.328 7.96 151.2 9.22
4/11/2021 3:30:00 PM 14.98 58.964 0.327 7.96 155.5 9.22
4/11/2021 3:45:00 PM 15.13 59.234 0.326 7.97 153 9.23
4/11/2021 4:00:00 PM 15.23 59.414 0.326 7.97 152.3 9.25
4/11/2021 4:15:00 PM 15.3 59.54 0.324 7.98 150.2 9.26
4/11/2021 4:30:00 PM 15.36 59.648 0.321 7.99 153.3 9.27
4/11/2021 4:45:00 PM 15.38 59.684 0.319 7.99 153.7 9.24
4/11/2021 5:00:00 PM 15.4 59.72 0.314 7.99 160.6 9.21
4/11/2021 5:15:00 PM 15.36 59.648 0.308 7.97 163.3 9.14
4/11/2021 5:30:00 PM 15.34 59.612 0.303 7.96 165.7 9.09
4/11/2021 5:45:00 PM 15.34 59.612 0.298 7.94 168.1 9.03
4/11/2021 6:00:00 PM 15.36 59.648 0.292 7.92 170.4 8.97
4/11/2021 6:15:00 PM 15.38 59.684 0.287 7.9 179.7 8.94
4/11/2021 6:30:00 PM 15.39 59.702 0.284 7.89 175.6 8.9
4/11/2021 6:45:00 PM 15.4 59.72 0.281 7.87 318.5 8.86
4/11/2021 7:00:00 PM 15.4 59.72 0.278 7.86 125.7 8.84
4/11/2021 7:15:00 PM 15.38 59.684 0.276 7.85 42.55 8.82
4/11/2021 7:30:00 PM 15.33 59.594 0.274 7.84 46.23 8.8
4/11/2021 7:45:00 PM 15.3 59.54 0.272 7.83 45.66 8.76
4/11/2021 8:00:00 PM 15.27 59.486 0.271 7.81 40.97 8.74
4/11/2021 8:15:00 PM 15.24 59.432 0.27 7.81 41.16 8.71
4/11/2021 8:30:00 PM 15.21 59.378 0.268 7.79 41.82 8.7
4/11/2021 8:45:00 PM 15.18 59.324 0.267 7.79 92.77 8.69
4/11/2021 9:00:00 PM 15.17 59.306 0.266 7.78 65.76 8.68
4/11/2021 9:15:00 PM 15.17 59.306 0.265 7.77 51.86 8.65
4/11/2021 9:30:00 PM 15.17 59.306 0.264 7.76 53.65 8.62
4/11/2021 9:45:00 PM 15 59 0.257 7.77 48.61 8.66
4/11/2021 10:00:00 PM 14.79 58.622 0.24 7.78 47.77 8.75
4/11/2021 10:15:00 PM 14.78 58.604 0.237 7.77 54.67 8.72
4/11/2021 10:30:00 PM 14.74 58.532 0.234 7.75 60.5 8.66
4/11/2021 10:45:00 PM 14.82 58.676 0.235 7.74 61.6 8.63
4/11/2021 11:00:00 PM 14.87 58.766 0.239 7.73 59.34 8.59
4/11/2021 11:15:00 PM 14.96 58.928 0.246 7.73 58.06 8.57
4/11/2021 11:30:00 PM 15.04 59.072 0.248 7.73 61.25 8.56
4/11/2021 11:45:00 PM 15.05 59.09 0.248 7.73 56.28 8.56
4/12/2021 12:00:00 AM 15.06 59.108 0.248 7.73 47.58 8.57
4/12/2021 12:15:00 AM 15.06 59.108 0.246 7.74 57.73 8.59
4/12/2021 12:30:00 AM 15.03 59.054 0.243 7.73 58.44 8.58
4/12/2021 12:45:00 AM 14.97 58.946 0.24 7.73 62.19 8.59
4/12/2021 1:00:00 AM 14.86 58.748 0.236 7.7 43.09 8.61
4/12/2021 1:15:00 AM 14.75 58.55 0.228 7.69 52.95 8.65
4/12/2021 1:30:00 AM 14.62 58.316 0.223 7.67 36.35 8.66
4/12/2021 1:45:00 AM 14.5 58.1 0.219 7.65 36.86 8.67
4/12/2021 2:00:00 AM 14.4 57.92 0.215 7.63 32.1 8.67
4/12/2021 2:15:00 AM 14.35 57.83 0.213 7.62 32.48 8.67
4/12/2021 2:30:00 AM 14.31 57.758 0.211 7.61 28.38 8.68
4/12/2021 2:45:00 AM 14.28 57.704 0.208 7.6 33.22 8.68
4/12/2021 3:00:00 AM 14.26 57.668 0.206 7.6 32.34 8.68
4/12/2021 3:15:00 AM 14.24 57.632 0.204 7.59 28.69 8.71
4/12/2021 3:30:00 AM 14.22 57.596 0.203 7.59 29.61 8.68
4/12/2021 3:45:00 AM 14.2 57.56 0.202 7.59 30.85 8.58
4/12/2021 4:00:00 AM 14.17 57.506 0.202 7.6 28.36 8.62
4/12/2021 4:15:00 AM 14.14 57.452 0.201 7.59 31.39 8.65
4/12/2021 4:30:00 AM 14.11 57.398 0.2 7.59 32.76 8.7
4/12/2021 4:45:00 AM 14.09 57.362 0.2 7.59 33.06 8.39
4/12/2021 5:00:00 AM 14.08 57.344 0.2 7.59 34.99 7.84
4/12/2021 5:15:00 AM 14.08 57.344 0.2 7.58 30.98 7.54
4/12/2021 5:30:00 AM 14.08 57.344 0.199 7.57 30.89 7.84
4/12/2021 5:45:00 AM 14.07 57.326 0.199 7.57 30.82 7.98
4/12/2021 6:00:00 AM 14.07 57.326 0.199 7.57 28.73 7.92
4/12/2021 6:15:00 AM 14.06 57.308 0.198 7.57 24.1 8.05
4/12/2021 6:30:00 AM 14.05 57.29 0.199 7.57 24.26 7.92
4/12/2021 6:45:00 AM 14.04 57.272 0.199 7.57 25.38 7.81
4/12/2021 7:00:00 AM 14.02 57.236 0.199 7.57 25.7 7.37
4/12/2021 7:15:00 AM 13.99 57.182 0.199 7.56 27.1 7.37
4/12/2021 7:30:00 AM 13.96 57.128 0.198 7.56 26.55 7.11
4/12/2021 7:45:00 AM 13.91 57.038 0.198 7.57 27.15 7.14
4/12/2021 8:00:00 AM 13.86 56.948 0.194 7.56 27.91 7.18
4/12/2021 8:15:00 AM 13.81 56.858 0.196 7.56 26.56 7.43
4/12/2021 8:30:00 AM 13.73 56.714 0.195 7.56 26.27 7.32
4/12/2021 8:45:00 AM 13.67 56.606 0.194 7.56 25.79 7.63
4/12/2021 9:00:00 AM 13.61 56.498 0.193 7.55 28.54 7.47
4/12/2021 9:15:00 AM 13.54 56.372 0.191 7.55 29.4 7.36
4/12/2021 9:30:00 AM 13.48 56.264 0.19 7.55 33.23 7.26
4/12/2021 9:45:00 AM 13.43 56.174 0.189 7.54 34.72 7.36
4/12/2021 10:00:00 AM 13.38 56.084 0.175 7.53 33.66 6.72
4/12/2021 10:15:00 AM 13.34 56.012 0.187 7.53 34.98 6.38
4/12/2021 10:30:00 AM 13.32 55.976 0.146 7.53 37.43 6.92
4/12/2021 10:45:00 AM 13.28 55.904 0.184 7.53 35.19 7.12
4/12/2021 11:00:00 AM 13.26 55.868 0.183 7.52 32.49 6.5
4/12/2021 11:15:00 AM 13.23 55.814 0.183 7.53 31.91 7.04
4/12/2021 11:30:00 AM 13.21 55.778 0.18 7.52 29.53 7
4/12/2021 11:45:00 AM 13.18 55.724 0.182 7.53 29.8 7.2
4/12/2021 12:00:00 PM 13.14 55.652 0.179 7.51 28.84 7.03
4/12/2021 12:15:00 PM 13.11 55.598 0.179 7.51 27.99 6.99
4/12/2021 12:30:00 PM 13.07 55.526 0.143 7.5 29.66 7.02
4/12/2021 12:45:00 PM 13.03 55.454 0.156 7.51 30.5 7.03
4/12/2021 1:00:00 PM 13 55.4 0.154 7.51 31.34 6.89
4/12/2021 1:15:00 PM 12.96 55.328 0.159 7.5 32.21 6.7
4/12/2021 1:30:00 PM 12.92 55.256 0.158 7.49 34.52 6.61
4/12/2021 1:45:00 PM 12.89 55.202 0.158 7.49 35.5 6.6
4/12/2021 2:00:00 PM 12.85 55.13 0.162 7.5 36.13 6.82
4/12/2021 2:15:00 PM 12.82 55.076 0.159 7.49 34.97 6.73
4/12/2021 2:30:00 PM 12.79 55.022 0.16 7.48 33.32 6.57
4/12/2021 2:45:00 PM 12.77 54.986 0.161 7.49 36.06 6.73
4/12/2021 3:00:00 PM 12.75 54.95 0.177 7.49 35.24 6.47
4/12/2021 3:15:00 PM 12.73 54.914 0.178 7.49 33.46 6.62
4/12/2021 3:30:00 PM 12.71 54.878 0.179 7.48 36.28 6.67
4/12/2021 3:45:00 PM 12.7 54.86 0.181 7.48 33.79 6.03
4/12/2021 4:00:00 PM 12.67 54.806 0.181 7.48 32.03 6.17
4/12/2021 4:15:00 PM 12.66 54.788 0.183 7.49 34.46 5.98
4/12/2021 4:30:00 PM 12.64 54.752 0.184 7.49 36.39 6.19
4/12/2021 4:45:00 PM 12.63 54.734 0.186 7.49 36.1 6.26
4/12/2021 5:00:00 PM 12.62 54.716 0.187 7.49 37.66 6.3
4/12/2021 5:15:00 PM 12.6 54.68 0.188 7.5 37.09 6.5
4/12/2021 5:30:00 PM 12.59 54.662 0.189 7.5 36.67 6.67
4/12/2021 5:45:00 PM 12.58 54.644 0.19 7.5 37.12 6.34
4/12/2021 6:00:00 PM 12.56 54.608 0.191 7.51 36 6.29
4/12/2021 6:15:00 PM 12.55 54.59 0.19 7.51 36.9 6.43
4/12/2021 6:30:00 PM 12.53 54.554 0.193 7.52 37.4 6.39
4/12/2021 6:45:00 PM 12.52 54.536 0.194 7.52 36.54 6.36
4/12/2021 7:00:00 PM 12.5 54.5 0.194 7.52 37.24 6.43
4/12/2021 7:15:00 PM 12.48 54.464 0.195 7.52 35.63 6.26
4/12/2021 7:30:00 PM 12.47 54.446 0.196 7.52 34.99 6.33
4/12/2021 7:45:00 PM 12.45 54.41 0.173 7.52 38.28 6.48
4/12/2021 8:00:00 PM 12.43 54.374 0.197 7.53 38.67 6.71
4/12/2021 8:15:00 PM 12.42 54.356 0.197 7.53 39.01 6.6
4/12/2021 8:30:00 PM 12.4 54.32 0.197 7.53 38.13 6.62
4/12/2021 8:45:00 PM 12.38 54.284 0.198 7.54 36.78 6.59
4/12/2021 9:00:00 PM 12.36 54.248 0.199 7.54 37.72 6.64
4/12/2021 9:15:00 PM 12.34 54.212 0.199 7.56 37.3 6.61
4/12/2021 9:30:00 PM 12.33 54.194 0.198 7.54 41.03 6.43
4/12/2021 9:45:00 PM 12.31 54.158 0.2 7.54 40.27 6.31
4/12/2021 10:00:00 PM 12.29 54.122 0.2 7.54 39.73 6.14
4/12/2021 10:15:00 PM 12.27 54.086 0.2 7.54 40.14 6.19
4/12/2021 10:30:00 PM 12.25 54.05 0.2 7.54 40.27 6.28
4/12/2021 10:45:00 PM 12.23 54.014 0.201 7.54 39.76 6.29
4/12/2021 11:00:00 PM 12.21 53.978 0.2 7.54 40.17 6.45
4/12/2021 11:15:00 PM 12.2 53.96 0.2 7.54 37.54 6.44
4/12/2021 11:30:00 PM 12.18 53.924 0.201 7.54 35.84 6.2
4/12/2021 11:45:00 PM 12.16 53.888 0.201 7.54 36.38 6.39
4/13/2021 12:00:00 AM 12.14 53.852 0.201 7.54 29.57 6.51
4/13/2021 12:15:00 AM 12.12 53.816 0.197 7.55 28.26 6.48
4/13/2021 12:30:00 AM 12.1 53.78 0.201 7.56 28.54 6.87
4/13/2021 12:45:00 AM 12.09 53.762 0.2 7.56 29.01 6.73
4/13/2021 1:00:00 AM 12.07 53.726 0.201 7.56 27.36 6.85
4/13/2021 1:15:00 AM 12.05 53.69 0.202 7.56 27.61 6.73
4/13/2021 1:30:00 AM 12.03 53.654 0.201 7.56 24.69 6.28
4/13/2021 1:45:00 AM 12.01 53.618 0.202 7.56 24.33 5.92
4/13/2021 2:00:00 AM 12 53.6 0.202 7.56 23.27 6.03
4/13/2021 2:15:00 AM 11.98 53.564 0.202 7.57 22.61 6.12
4/13/2021 2:30:00 AM 11.96 53.528 0.202 7.57 29.04 6.01
4/13/2021 2:45:00 AM 11.95 53.51 0.199 7.57 45.45 6.12
4/13/2021 3:00:00 AM 11.93 53.474 0.203 7.57 45.09 5.92
4/13/2021 3:15:00 AM 11.91 53.438 0.203 7.58 44.31 5.54
4/13/2021 3:30:00 AM 11.9 53.42 0.203 7.58 46.34 5.42
4/13/2021 3:45:00 AM 11.88 53.384 0.203 7.58 47.46 5.24
4/13/2021 4:00:00 AM 11.87 53.366 0.204 7.58 47.48 5.4
4/13/2021 4:15:00 AM 11.85 53.33 0.202 7.58 48.15 5.18
4/13/2021 4:30:00 AM 11.84 53.312 0.203 7.58 49.09 4.93
4/13/2021 4:45:00 AM 11.82 53.276 0.203 7.58 53.17 4.94
4/13/2021 5:00:00 AM 11.81 53.258 0.203 7.58 52.44 4.73
4/13/2021 5:15:00 AM 11.8 53.24 0.204 7.58 68.13 4.95
4/13/2021 5:30:00 AM 11.78 53.204 0.203 7.58 65.22 5.03
4/13/2021 5:45:00 AM 11.77 53.186 0.204 7.59 65.8 5.65
4/13/2021 6:00:00 AM 11.76 53.168 0.204 7.59 68.32 5.31
4/13/2021 6:15:00 AM 11.74 53.132 0.204 7.59 69.1 5.28
4/13/2021 6:30:00 AM 11.73 53.114 0.204 7.59 68.08 5.23
4/13/2021 6:45:00 AM 11.72 53.096 0.204 7.59 67.06 5.25
4/13/2021 7:00:00 AM 11.71 53.078 0.204 7.59 66.95 5.46
4/13/2021 7:15:00 AM 11.7 53.06 0.205 7.6 66.97 5.93
4/13/2021 7:30:00 AM 11.69 53.042 0.205 7.6 68.26 6.73
4/13/2021 7:45:00 AM 11.68 53.024 0.205 7.6 69.39 7.25
4/13/2021 8:00:00 AM 11.67 53.006 0.206 7.61 68.67 7.11
4/13/2021 8:15:00 AM 11.67 53.006 0.206 7.61 55.3 7.19
4/13/2021 8:30:00 AM 11.66 52.988 0.207 7.61 51.38 6.82
4/13/2021 8:45:00 AM 11.67 53.006 0.207 7.61 54.51 6.71
4/13/2021 9:00:00 AM 11.67 53.006 0.207 7.62 58.04 6.64
4/13/2021 9:15:00 AM 11.67 53.006 0.207 7.62 55.79 6.65
4/13/2021 9:30:00 AM 11.68 53.024 0.208 7.62 55.8 7.01
4/13/2021 9:45:00 AM 11.7 53.06 0.208 7.63 51.77 6.94
4/13/2021 10:00:00 AM 11.71 53.078 0.209 7.63 50.18 6.7
4/13/2021 10:15:00 AM 11.73 53.114 0.209 7.63 50.29 7.06
4/13/2021 10:30:00 AM 11.75 53.15 0.21 7.63 49.25 6.74
4/13/2021 10:45:00 AM 11.77 53.186 0.21 7.63 50.41 6.71
4/13/2021 11:00:00 AM 11.78 53.204 0.21 7.63 50.03 7.01
4/13/2021 11:15:00 AM 11.83 53.294 0.211 7.63 49.88 6.67
4/13/2021 11:30:00 AM 11.88 53.384 0.211 7.64 50.65 6.65
4/13/2021 11:45:00 AM 11.97 53.546 0.211 7.64 49.99 6.73
4/13/2021 12:00:00 PM 12.03 53.654 0.212 7.65 46.07 6.39
4/13/2021 12:15:00 PM 12.08 53.744 0.212 7.65 43.27 6.53
4/13/2021 12:30:00 PM 12.13 53.834 0.212 7.65 42.19 6.56
4/13/2021 12:45:00 PM 12.17 53.906 0.212 7.65 45.85 6.53
4/13/2021 1:00:00 PM 12.2 53.96 0.212 7.65 48.75 7.2
4/13/2021 1:15:00 PM 12.23 54.014 0.213 7.65 49.73 6.98
4/13/2021 1:30:00 PM 12.23 54.014 0.213 7.65 48.33 7.7
4/13/2021 1:45:00 PM 12.27 54.086 0.213 7.65 48.75 8.12
4/13/2021 2:00:00 PM 12.36 54.248 0.214 7.65 47.71 7.95
4/13/2021 2:15:00 PM 12.49 54.482 0.213 7.66 47.57 7.92
4/13/2021 2:30:00 PM 12.62 54.716 0.214 7.66 50.67 8.46
4/13/2021 2:45:00 PM 12.73 54.914 0.215 7.66 51.04 8.67
4/13/2021 3:00:00 PM 12.76 54.968 0.215 7.66 48.43 8.2
4/13/2021 3:15:00 PM 12.85 55.13 0.216 7.67 48.97 8.49
4/13/2021 3:30:00 PM 12.92 55.256 0.216 7.67 52.85 8.48
4/13/2021 3:45:00 PM 13.01 55.418 0.216 7.67 52.38 7.97
4/13/2021 4:00:00 PM 13.09 55.562 0.216 7.66 52.09 7.68
4/13/2021 4:15:00 PM 13.16 55.688 0.217 7.67 50.78 8.08
4/13/2021 4:30:00 PM 13.22 55.796 0.217 7.67 52.74 7.7
4/13/2021 4:45:00 PM 13.24 55.832 0.217 7.67 52.06 7.82
4/13/2021 5:00:00 PM 13.26 55.868 0.217 7.66 52.2 7.87
4/13/2021 5:15:00 PM 13.28 55.904 0.218 7.66 53.33 7.43
4/13/2021 5:30:00 PM 13.3 55.94 0.218 7.67 50.02 7.77
4/13/2021 5:45:00 PM 13.3 55.94 0.218 7.66 51.28 7.25
4/13/2021 6:00:00 PM 13.28 55.904 0.218 7.67 52.56 7.16
4/13/2021 6:15:00 PM 13.26 55.868 0.218 7.67 52.09 7.12
4/13/2021 6:30:00 PM 13.23 55.814 0.219 7.67 52.98 7.34
4/13/2021 6:45:00 PM 13.2 55.76 0.219 7.68 56.01 7.42
4/13/2021 7:00:00 PM 13.19 55.742 0.22 7.68 86.01 7.26
4/13/2021 7:15:00 PM 13.16 55.688 0.22 7.68 84.75 6.93
4/13/2021 7:30:00 PM 13.14 55.652 0.22 7.68 86.55 6.91
4/13/2021 7:45:00 PM 13.11 55.598 0.22 7.68 86.79 7.3
4/13/2021 8:00:00 PM 13.07 55.526 0.221 7.68 89.71 7.35
4/13/2021 8:15:00 PM 13.04 55.472 0.221 7.68 90.77 6.36
4/13/2021 8:30:00 PM 13.02 55.436 0.221 7.69 88.89 6.37
4/13/2021 8:45:00 PM 12.99 55.382 0.222 7.69 92.78 5.76
4/13/2021 9:00:00 PM 12.97 55.346 0.221 7.68 90.59 5.91
4/13/2021 9:15:00 PM 12.95 55.31 0.222 7.68 93.69 6.09
4/13/2021 9:30:00 PM 12.94 55.292 0.221 7.68 90.73 5.6
4/13/2021 9:45:00 PM 12.92 55.256 0.223 7.68 87.98 6.31
4/13/2021 10:00:00 PM 12.9 55.22 0.223 7.68 87.95 9.12
4/13/2021 10:15:00 PM 12.88 55.184 0.223 7.68 88.1 9.2
4/13/2021 10:30:00 PM 12.87 55.166 0.223 7.68 88.07 9.25
4/13/2021 10:45:00 PM 12.86 55.148 0.223 7.68 88.47 8.89
4/13/2021 11:00:00 PM 12.85 55.13 0.223 7.68 90.72 8.82
4/13/2021 11:15:00 PM 12.83 55.094 0.224 7.68 92.17 8.99
4/13/2021 11:30:00 PM 12.82 55.076 0.224 7.68 91.37 8.67
4/13/2021 11:45:00 PM 12.81 55.058 0.224 7.68 93.31 8.82
4/14/2021 12:00:00 AM 12.79 55.022 0.225 7.68 92.33 8.91
4/14/2021 12:15:00 AM 12.77 54.986 0.225 7.68 92.64 8.86
4/14/2021 12:30:00 AM 12.74 54.932 0.224 7.68 95.34 8.33
4/14/2021 12:45:00 AM 12.72 54.896 0.225 7.69 96.25 8.31
4/14/2021 1:00:00 AM 12.7 54.86 0.226 7.69 96.02 7.96
4/14/2021 1:15:00 AM 12.68 54.824 0.223 7.69 77.85 7.27
4/14/2021 1:30:00 AM 12.66 54.788 0.225 7.69 84.75 7.49
4/14/2021 1:45:00 AM 12.63 54.734 0.225 7.69 85.77 6.88
4/14/2021 2:00:00 AM 12.61 54.698 0.225 7.69 88.63 7.12
4/14/2021 2:15:00 AM 12.59 54.662 0.224 7.69 87.3 7.31
4/14/2021 2:30:00 AM 12.57 54.626 0.225 7.69 89.19 7.82
4/14/2021 2:45:00 AM 12.56 54.608 0.225 7.69 89.34 7.79
4/14/2021 3:00:00 AM 12.54 54.572 0.225 7.69 90.83 8.41
4/14/2021 3:15:00 AM 12.52 54.536 0.226 7.69 89.18 8.85
4/14/2021 3:30:00 AM 12.5 54.5 0.226 7.69 93.44 8.84
4/14/2021 3:45:00 AM 12.49 54.482 0.226 7.69 91.94 8.27
4/14/2021 4:00:00 AM 12.48 54.464 0.225 7.69 91.25 5.99
4/14/2021 4:15:00 AM 12.47 54.446 0.226 7.69 86.5 4.35
4/14/2021 4:30:00 AM 12.46 54.428 0.227 7.69 86.51 4.83
4/14/2021 4:45:00 AM 12.45 54.41 0.227 7.69 87.1 4.36
4/14/2021 5:00:00 AM 12.44 54.392 0.228 7.69 86.97 5.01
4/14/2021 5:15:00 AM 12.43 54.374 0.228 7.68 91.35 5.08
4/14/2021 5:30:00 AM 12.42 54.356 0.228 7.69 90.55 6.06
4/14/2021 5:45:00 AM 12.42 54.356 0.228 7.69 90.69 6.38
4/14/2021 6:00:00 AM 12.41 54.338 0.228 7.69 90.68 6.15
4/14/2021 6:15:00 AM 12.41 54.338 0.228 7.69 91.15 5.3
4/14/2021 6:30:00 AM 12.41 54.338 0.23 7.69 91.4 7.51
4/14/2021 6:45:00 AM 12.4 54.32 0.23 7.7 92.98 6.7
4/14/2021 7:00:00 AM 12.4 54.32 0.23 7.69 92.67 6.94
4/14/2021 7:15:00 AM 12.4 54.32 0.229 7.69 95.06 5.33
4/14/2021 7:30:00 AM 12.4 54.32 0.23 7.69 94.82 5.51
4/14/2021 7:45:00 AM 12.4 54.32 0.23 7.7 97.19 6.1
4/14/2021 8:00:00 AM 12.42 54.356 0.23 7.7 95.72 6.41
4/14/2021 8:15:00 AM 12.43 54.374 0.23 7.7 93.38 7.32
4/14/2021 8:30:00 AM 12.45 54.41 0.23 7.7 97.96 7.28
4/14/2021 8:45:00 AM 12.47 54.446 0.231 7.71 93.27 7.14
4/14/2021 9:00:00 AM 12.49 54.482 0.231 7.71 92.87 5.94
4/14/2021 9:15:00 AM 12.5 54.5 0.231 7.71 96.01 8.13
4/14/2021 9:30:00 AM 12.52 54.536 0.231 7.71 95.86 8.37
4/14/2021 9:45:00 AM 12.55 54.59 0.232 7.72 96.89 8.07
4/14/2021 10:00:00 AM 12.56 54.608 0.232 7.72 96.1 7.57
4/14/2021 10:15:00 AM 12.57 54.626 0.232 7.72 97.3 6.82
4/14/2021 10:30:00 AM 12.57 54.626 0.232 7.72 96 6.69
4/14/2021 10:45:00 AM 12.57 54.626 0.233 7.72 97.59 6.99
4/14/2021 11:00:00 AM 12.58 54.644 0.233 7.72 91.2 6.52
4/14/2021 11:15:00 AM 12.6 54.68 0.233 7.73 97.45 6.36
4/14/2021 11:30:00 AM 12.62 54.716 0.233 7.73 98.19 6.97
4/14/2021 11:45:00 AM 12.65 54.77 0.233 7.73 96.55 6.46
4/14/2021 12:00:00 PM 12.67 54.806 0.234 7.73 97.31 7.21
4/14/2021 12:15:00 PM 12.69 54.842 0.234 7.74 97.53 7.79
4/14/2021 12:30:00 PM 12.69 54.842 0.234 7.74 95.26 8.09
4/14/2021 12:45:00 PM 12.69 54.842 0.235 7.74 97.96 8.12
4/14/2021 1:00:00 PM 12.7 54.86 0.235 7.74 92.09 8.63
4/14/2021 1:15:00 PM 12.72 54.896 0.235 7.74 93.06 8.76
4/14/2021 1:30:00 PM 12.73 54.914 0.236 7.74 94.78 7.86
4/14/2021 1:45:00 PM 12.75 54.95 0.236 7.74 95.39 6.05
4/14/2021 2:00:00 PM 12.76 54.968 0.236 7.74 97.45 5.76
4/14/2021 2:15:00 PM 12.76 54.968 0.236 7.75 96.51 5.92
4/14/2021 2:30:00 PM 12.76 54.968 0.236 7.75 94.15 5.19
4/14/2021 2:45:00 PM 12.77 54.986 0.237 7.76 99.21 3.69
4/14/2021 3:00:00 PM 12.78 55.004 0.237 7.76 97.11 2.63
4/14/2021 3:15:00 PM 12.8 55.04 0.237 7.77 98.51 1.88
4/14/2021 3:30:00 PM 12.84 55.112 0.237 7.77 97.59 0.67
4/14/2021 3:45:00 PM 12.87 55.166 0.238 7.78 106.2 0.12
4/14/2021 4:00:00 PM 12.89 55.202 0.237 7.76 99.4 0.02
4/14/2021 4:15:00 PM 12.9 55.22 0.237 7.79 97.27 0.05
4/14/2021 4:30:00 PM 12.91 55.238 0.238 7.8 98.75 0.05
4/14/2021 4:45:00 PM 12.92 55.256 0.238 7.8 99 0.23
4/14/2021 5:00:00 PM 12.91 55.238 0.238 7.8 97.41 0.27
4/14/2021 5:15:00 PM 12.92 55.256 0.238 7.81 98.55 0.51
4/14/2021 5:30:00 PM 12.92 55.256 0.238 7.81 105.1 0.41
4/14/2021 5:45:00 PM 12.92 55.256 0.239 7.81 105.8 1.11
4/14/2021 6:00:00 PM 12.92 55.256 0.239 7.81 112.3 0.29
4/14/2021 6:15:00 PM 12.9 55.22 0.239 7.81 109.8 0.1
4/14/2021 6:30:00 PM 12.89 55.202 0.239 7.81 104.2 0.04
4/14/2021 6:45:00 PM 12.88 55.184 0.24 7.82 112.3 0.73
4/14/2021 7:00:00 PM 12.86 55.148 0.24 7.82 105.6 1.19
4/14/2021 7:15:00 PM 12.85 55.13 0.24 7.81 107.7 1.19
4/14/2021 7:30:00 PM 12.84 55.112 0.24 7.81 102.6 1.03
4/14/2021 7:45:00 PM 12.83 55.094 0.241 7.81 99.06 1.06
4/14/2021 8:00:00 PM 12.81 55.058 0.241 7.76 99.67 1.24
4/14/2021 8:15:00 PM 12.79 55.022 0.241 7.76 106.2 1.5
4/14/2021 8:30:00 PM 12.76 54.968 0.241 7.78 109 2.2
4/14/2021 8:45:00 PM 12.74 54.932 0.242 7.8 110.5 1.21
4/14/2021 9:00:00 PM 12.71 54.878 0.242 7.81 107.4 1.47
4/14/2021 9:15:00 PM 12.69 54.842 0.242 7.81 105.7 1.31
4/14/2021 9:30:00 PM 12.66 54.788 0.243 7.82 108.8 5.95
4/14/2021 9:45:00 PM 12.63 54.734 0.243 7.8 115 7.45
4/14/2021 10:00:00 PM 12.6 54.68 0.243 7.81 106.5 9.47
4/14/2021 10:15:00 PM 12.57 54.626 0.243 7.82 104 9.53
4/14/2021 10:30:00 PM 12.54 54.572 0.243 7.82 105.5 9.38
4/14/2021 10:45:00 PM 12.51 54.518 0.244 7.82 102.2 9.34
4/14/2021 11:00:00 PM 12.48 54.464 0.244 7.82 102.2 9.36
4/14/2021 11:15:00 PM 12.45 54.41 0.244 7.82 100.8 9.36
4/14/2021 11:30:00 PM 12.42 54.356 0.244 7.82 102.7 9.43
4/14/2021 11:45:00 PM 12.39 54.302 0.245 7.82 103.5 9.28
4/15/2021 12:00:00 AM 12.35 54.23 0.245 7.82 104.4 9.29
4/15/2021 12:15:00 AM 12.32 54.176 0.245 7.82 111.3 9.47
4/15/2021 12:30:00 AM 12.29 54.122 0.245 7.79 115.1 9.46
4/15/2021 12:45:00 AM 12.27 54.086 0.245 7.79 103.6 9.39
4/15/2021 1:00:00 AM 12.24 54.032 0.246 7.79 98.91 9.46
4/15/2021 1:15:00 AM 12.21 53.978 0.245 7.79 97.46 9.45
4/15/2021 1:30:00 AM 12.18 53.924 0.246 7.76 94.53 9.39
4/15/2021 1:45:00 AM 12.16 53.888 0.246 7.76 95.62 9.43
4/15/2021 2:00:00 AM 12.13 53.834 0.246 7.79 97.42 9.38
4/15/2021 2:15:00 AM 12.1 53.78 0.246 7.81 95.91 9.38
4/15/2021 2:30:00 AM 12.08 53.744 0.247 7.81 98.25 9.34
4/15/2021 2:45:00 AM 12.06 53.708 0.246 7.81 100.2 9.31
4/15/2021 3:00:00 AM 12.03 53.654 0.247 7.81 98.55 9.33
4/15/2021 3:15:00 AM 12.01 53.618 0.247 7.81 98.65 9.33
4/15/2021 3:30:00 AM 11.99 53.582 0.247 7.81 101.6 9.34
4/15/2021 3:45:00 AM 11.96 53.528 0.247 7.82 101.1 9.45
4/15/2021 4:00:00 AM 11.94 53.492 0.248 7.82 100.6 9.47
4/15/2021 4:15:00 AM 11.91 53.438 0.248 7.82 102.4 9.47
4/15/2021 4:30:00 AM 11.89 53.402 0.248 7.82 103.2 9.48
4/15/2021 4:45:00 AM 11.87 53.366 0.248 7.81 101.4 9.47
4/15/2021 5:00:00 AM 11.86 53.348 0.249 7.81 100.1 9.46
4/15/2021 5:15:00 AM 11.84 53.312 0.249 7.81 105.2 9.45
4/15/2021 5:30:00 AM 11.82 53.276 0.249 7.82 101.8 9.45
4/15/2021 5:45:00 AM 11.8 53.24 0.224 7.78 97.41 9.44
4/15/2021 6:00:00 AM 11.79 53.222 0.222 7.78 100.3 9.45
4/15/2021 6:15:00 AM 11.77 53.186 0.234 7.79 95.76 9.37
4/15/2021 6:30:00 AM 11.76 53.168 0.251 7.81 94.82 9.39
4/15/2021 6:45:00 AM 11.76 53.168 0.25 7.79 97.29 9.03
4/15/2021 7:00:00 AM 11.75 53.15 0.25 7.81 96.38 9.03
4/15/2021 7:15:00 AM 11.75 53.15 0.25 7.79 96.68 9.05
4/15/2021 7:30:00 AM 11.75 53.15 0.251 7.77 95.11 9.14
4/15/2021 7:45:00 AM 11.76 53.168 0.251 7.81 95.07 9.06
4/15/2021 8:00:00 AM 11.77 53.186 0.251 7.82 101.5 9.12
4/15/2021 8:15:00 AM 11.78 53.204 0.251 7.83 101.5 9.05
4/15/2021 8:30:00 AM 11.8 53.24 0.251 7.83 118.5 9.12
4/15/2021 8:45:00 AM 11.82 53.276 0.251 7.83 108.1 9.13
4/15/2021 9:00:00 AM 11.84 53.312 0.251 7.84 108.3 9.06
4/15/2021 9:15:00 AM 11.86 53.348 0.252 7.84 106.1 9.14
4/15/2021 9:30:00 AM 11.88 53.384 0.252 7.85 140.2 9.16
4/15/2021 9:45:00 AM 11.9 53.42 0.253 7.85 122.4 9.09
4/15/2021 10:00:00 AM 11.91 53.438 0.232 7.85 106.3 9.11
4/15/2021 10:15:00 AM 11.93 53.474 0.195 7.85 106.3 9.17
4/15/2021 10:30:00 AM 11.97 53.546 0.256 7.86 106.8 9.18
4/15/2021 10:45:00 AM 12.03 53.654 0.248 7.86 106.5 8.98
4/15/2021 11:00:00 AM 12.09 53.762 0.245 7.87 101.3 8.65
4/15/2021 11:15:00 AM 12.16 53.888 0.245 7.88 100.1 8.91
4/15/2021 11:30:00 AM 12.19 53.942 0.18 7.88 101.9 8.87
4/15/2021 11:45:00 AM 12.18 53.924 0.17 7.89 101.3 8.95
4/15/2021 12:00:00 PM 12.16 53.888 0.253 7.89 99.64 9.38
4/15/2021 12:15:00 PM 12.15 53.87 0.253 7.89 100.6 6.7
4/15/2021 12:30:00 PM 12.16 53.888 0.253 7.89 105.3 8.81
4/15/2021 12:45:00 PM 12.17 53.906 0.253 7.89 102.7 9.14
4/15/2021 1:00:00 PM 12.2 53.96 0.174 7.89 99.48 9.13
4/15/2021 1:15:00 PM 12.26 54.068 0.254 7.9 102.6 9.23
4/15/2021 1:30:00 PM 12.29 54.122 0.254 7.9 98.83 8.7
4/15/2021 1:45:00 PM 12.37 54.266 0.254 7.91 103.2 8.13
4/15/2021 2:00:00 PM 12.52 54.536 0.254 7.92 100.8 5.73
4/15/2021 2:15:00 PM 12.65 54.77 0.255 7.93 102.4 3.59
4/15/2021 2:30:00 PM 12.76 54.968 0.255 7.94 109.5 2.66
4/15/2021 2:45:00 PM 12.85 55.13 0.255 7.95 107.4 2.61
4/15/2021 3:00:00 PM 12.79 55.022 0.255 7.95 109.2 2.61
4/15/2021 3:15:00 PM 12.75 54.95 0.255 7.95 110 2.79
4/15/2021 3:30:00 PM 12.73 54.914 0.255 7.96 109 3.94
4/15/2021 3:45:00 PM 12.77 54.986 0.255 7.97 103.6 5.49
4/15/2021 4:00:00 PM 12.86 55.148 0.256 7.98 104.7 5.59
4/15/2021 4:15:00 PM 12.95 55.31 0.256 7.99 105.7 6.02
4/15/2021 4:30:00 PM 13.07 55.526 0.256 8 105.7 6.72
4/15/2021 4:45:00 PM 13.21 55.778 0.256 8.01 101.1 6.8
4/15/2021 5:00:00 PM 13.22 55.796 0.256 8.01 101.4 6.38
4/15/2021 5:15:00 PM 13.23 55.814 0.256 8.01 100.6 6.03
4/15/2021 5:30:00 PM 13.28 55.904 0.256 8.01 99.18 6.16
4/15/2021 5:45:00 PM 13.22 55.796 0.256 8 106.8 6.21
4/15/2021 6:00:00 PM 13.19 55.742 0.256 8 110.4 6.14
4/15/2021 6:15:00 PM 13.17 55.706 0.256 8 105.1 7.05
4/15/2021 6:30:00 PM 13.12 55.616 0.257 8 105 8.4
4/15/2021 6:45:00 PM 13.08 55.544 0.257 8 107.5 9.01
4/15/2021 7:00:00 PM 13.06 55.508 0.257 8 106 8.3
4/15/2021 7:15:00 PM 13.03 55.454 0.257 8 107.5 8.25
4/15/2021 7:30:00 PM 13.03 55.454 0.258 7.99 108.9 8.29
4/15/2021 7:45:00 PM 13.03 55.454 0.258 7.99 108.8 8.67
4/15/2021 8:00:00 PM 13.05 55.49 0.258 7.99 111.9 7.98
4/15/2021 8:15:00 PM 13.05 55.49 0.259 7.99 111 6.98
4/15/2021 8:30:00 PM 13.05 55.49 0.26 7.99 112.3 7.27
4/15/2021 8:45:00 PM 13.06 55.508 0.27 7.99 112.3 7.17
4/15/2021 9:00:00 PM 13.04 55.472 0.259 7.98 114.8 7.94
4/15/2021 9:15:00 PM 13.06 55.508 0.259 7.98 114.9 7.63
4/15/2021 9:30:00 PM 13.02 55.436 0.259 7.98 113.1 7.45
4/15/2021 9:45:00 PM 13 55.4 0.259 7.98 115.2 7.33
4/15/2021 10:00:00 PM 12.95 55.31 0.259 7.98 117.2 7.8
4/15/2021 10:15:00 PM 12.89 55.202 0.259 7.97 115.1 9.05
4/15/2021 10:30:00 PM 12.84 55.112 0.26 7.97 120.5 8.98
4/15/2021 10:45:00 PM 12.78 55.004 0.26 7.97 117.5 8.74
4/15/2021 11:00:00 PM 12.72 54.896 0.26 7.97 118.9 8.99
4/15/2021 11:15:00 PM 12.66 54.788 0.26 7.97 117.1 8.72
4/15/2021 11:30:00 PM 12.61 54.698 0.26 7.96 120.1 9.27
4/15/2021 11:45:00 PM 12.55 54.59 0.26 7.96 120.1 9.16
4/16/2021 12:00:00 AM 12.5 54.5 0.26 7.96 121.4 9.13
4/16/2021 12:15:00 AM 12.44 54.392 0.261 7.95 120.8 9.12
4/16/2021 12:30:00 AM 12.38 54.284 0.261 7.95 121.6 9.24
4/16/2021 12:45:00 AM 12.32 54.176 0.261 7.95 123.9 9.33
4/16/2021 1:00:00 AM 12.28 54.104 0.261 7.95 124.4 9.25
4/16/2021 1:15:00 AM 12.24 54.032 0.262 7.94 124.4 9.2
4/16/2021 1:30:00 AM 12.21 53.978 0.262 7.94 124.8 9.29
4/16/2021 1:45:00 AM 12.18 53.924 0.262 7.93 125.5 9.12
4/16/2021 2:00:00 AM 12.17 53.906 0.262 7.93 124 9.19
4/16/2021 2:15:00 AM 12.14 53.852 0.263 7.93 122.7 9.26
4/16/2021 2:30:00 AM 12.12 53.816 0.263 7.93 123.4 9.31
4/16/2021 2:45:00 AM 12.11 53.798 0.263 7.93 125.7 9.24
4/16/2021 3:00:00 AM 12.09 53.762 0.263 7.92 124.4 9.28
4/16/2021 3:15:00 AM 12.08 53.744 0.263 7.92 122.1 9.21
4/16/2021 3:30:00 AM 12.05 53.69 0.264 7.91 119.1 9.07
4/16/2021 3:45:00 AM 12.04 53.672 0.264 7.91 115.5 8.72
4/16/2021 4:00:00 AM 12.02 53.636 0.264 7.91 114.4 8.59
4/16/2021 4:15:00 AM 12 53.6 0.264 7.91 117.3 8.65
4/16/2021 4:30:00 AM 11.98 53.564 0.264 7.91 118.6 8.98
4/16/2021 4:45:00 AM 11.96 53.528 0.264 7.91 123.8 9.13
4/16/2021 5:00:00 AM 11.92 53.456 0.265 7.91 123 9.19
4/16/2021 5:15:00 AM 11.88 53.384 0.265 7.91 123.5 9.33
4/16/2021 5:30:00 AM 11.84 53.312 0.265 7.91 123.9 9.43
4/16/2021 5:45:00 AM 11.8 53.24 0.266 7.91 126.2 9.39
4/16/2021 6:00:00 AM 11.75 53.15 0.266 7.91 124.4 9.27
4/16/2021 6:15:00 AM 11.71 53.078 0.266 7.91 127.8 9.26
4/16/2021 6:30:00 AM 11.66 52.988 0.266 7.91 123.5 8.38
4/16/2021 6:45:00 AM 11.63 52.934 0.266 7.9 122.7 7.74
4/16/2021 7:00:00 AM 11.59 52.862 0.266 7.91 125.9 8.26
4/16/2021 7:15:00 AM 11.57 52.826 0.267 7.9 126.4 7.86
4/16/2021 7:30:00 AM 11.54 52.772 0.267 7.91 126.5 8.83
4/16/2021 7:45:00 AM 11.52 52.736 0.267 7.91 126 8
4/16/2021 8:00:00 AM 11.49 52.682 0.267 7.91 126.7 8.66
4/16/2021 8:15:00 AM 11.47 52.646 0.267 7.91 131 8.98
4/16/2021 8:30:00 AM 11.46 52.628 0.268 7.91 134.9 8.7
4/16/2021 8:45:00 AM 11.45 52.61 0.268 7.92 128.6 9.26
4/16/2021 9:00:00 AM 11.46 52.628 0.268 7.92 129.1 9.07
4/16/2021 9:15:00 AM 11.47 52.646 0.268 7.93 128.1 9.24
4/16/2021 9:30:00 AM 11.47 52.646 0.268 7.93 129.4 9.35
4/16/2021 9:45:00 AM 11.46 52.628 0.268